Darstellungsparameter: Aktuell verwendete Einstellungen:
Skalierung der Graphiken ... ?
xyx+y,   Skalierungsfaktor:      Skalierung: Modus: x, Faktor: 1
Darstellungszeitraum ... ?
Vom - - bis: - -   Zeitraum: 23.06.2016 - 22.07.2016
Min/Max/Avg-Anzeige ... ?
Zeige MMA aktuell
Zeige MMA Monat
Zeige MMA alles
Zeige --A aktuell
Zeige --A Monat
Zeige --A alles
Keine MMA-Anzeige
MMA:
Keine MMA-Graphiken
MMA-Basis: 23.06.2016 - 22.07.2016
Quicknavigation für Darstellung... ?
Tage:      1T, 2T, 3T, 5T -1T -2T -3T -5T +1T +2T +3T +5T
Wochen: 1W, 2W, 3W -1W -2W -3W +1W +2W +3W
Monate: 1M, 3M, 6M -1M -3M -6M +1M +3M +6M
Jahre:    1J, 3J, 5J, 10J -1J -3J -5J -10J +1J +3J +5J +10J
Nutze für die Darstellung ... ?
Originaldaten oder Mittelwerte auf ...
Stundenbasis Tagesbasis Wochenbasis
Monatsbasis Jahresbasis      Datenbasis: Original-Daten
Darstellen als:
Statistik (Auto) Statistik J:M      Darstellung:
Zur Graphik,    zurück zur Übersicht aller Sensoren.
 
Tabellarische Datenbersicht: ?
 
Sensor: Nr:Datum:Temp:Feuchte:Taupunkt:
Aussen-T/F 1 23-06-2016 00:00:00 18.3 C 94 % 17.32 C
2 23-06-2016 00:05:00 18.3 C 94 % 17.32 C
3 23-06-2016 00:10:00 18.1 C 93 % 16.95 C
4 23-06-2016 00:15:00 17.9 C 93 % 16.75 C
5 23-06-2016 00:20:00 17.8 C 93 % 16.65 C
6 23-06-2016 00:25:00 17.8 C 94 % 16.82 C
7 23-06-2016 00:30:00 17.7 C 94 % 16.72 C
8 23-06-2016 00:35:00 17.6 C 94 % 16.62 C
9 23-06-2016 00:40:00 17.6 C 94 % 16.62 C
10 23-06-2016 00:45:00 17.5 C 94 % 16.52 C
11 23-06-2016 00:50:00 17.5 C 94 % 16.52 C
12 23-06-2016 00:55:00 17.6 C 95 % 16.79 C
13 23-06-2016 01:00:00 17.6 C 95 % 16.79 C
14 23-06-2016 01:05:00 17.5 C 95 % 16.69 C
15 23-06-2016 01:10:00 17.4 C 94 % 16.42 C
16 23-06-2016 01:15:00 17.3 C 94 % 16.33 C
17 23-06-2016 01:20:00 17.2 C 94 % 16.23 C
18 23-06-2016 01:25:00 17.2 C 95 % 16.39 C
19 23-06-2016 01:30:00 17.3 C 95 % 16.49 C
20 23-06-2016 01:35:00 17.3 C 95 % 16.49 C
21 23-06-2016 01:40:00 17.2 C 95 % 16.39 C
22 23-06-2016 01:45:00 17 C 95 % 16.19 C
23 23-06-2016 01:50:00 16.9 C 95 % 16.09 C
24 23-06-2016 01:55:00 16.8 C 95 % 15.99 C
25 23-06-2016 02:00:00 16.8 C 95 % 15.99 C
Sensor: Nr:Datum:Temp:Feuchte:Taupunkt:
Aussen-T/F 26 23-06-2016 02:05:00 16.8 C 95 % 15.99 C
27 23-06-2016 02:10:00 16.8 C 95 % 15.99 C
28 23-06-2016 02:15:00 16.7 C 95 % 15.9 C
29 23-06-2016 02:20:00 16.7 C 95 % 15.9 C
30 23-06-2016 02:25:00 16.6 C 95 % 15.8 C
31 23-06-2016 02:30:00 16.6 C 95 % 15.8 C
32 23-06-2016 02:35:00 16.6 C 95 % 15.8 C
33 23-06-2016 02:40:00 16.7 C 96 % 16.06 C
34 23-06-2016 02:45:00 16.7 C 95 % 15.9 C
35 23-06-2016 02:50:00 16.6 C 95 % 15.8 C
36 23-06-2016 02:55:00 16.4 C 95 % 15.6 C
37 23-06-2016 03:00:00 16.3 C 95 % 15.5 C
38 23-06-2016 03:05:00 16.2 C 95 % 15.4 C
39 23-06-2016 03:10:00 16.2 C 95 % 15.4 C
40 23-06-2016 03:15:00 16.2 C 95 % 15.4 C
41 23-06-2016 03:20:00 16.1 C 96 % 15.46 C
42 23-06-2016 03:25:00 16.1 C 96 % 15.46 C
43 23-06-2016 03:30:00 16.1 C 95 % 15.3 C
44 23-06-2016 03:35:00 16.1 C 95 % 15.3 C
45 23-06-2016 03:40:00 16 C 95 % 15.2 C
46 23-06-2016 03:45:00 15.9 C 96 % 15.26 C
47 23-06-2016 03:50:00 15.8 C 96 % 15.16 C
48 23-06-2016 03:55:00 15.8 C 96 % 15.16 C
49 23-06-2016 04:00:00 15.8 C 96 % 15.16 C
50 23-06-2016 04:05:00 15.8 C 96 % 15.16 C
Sensor: Nr:Datum:Temp:Feuchte:Taupunkt:
Aussen-T/F 51 23-06-2016 04:10:00 15.9 C 96 % 15.26 C
52 23-06-2016 04:15:00 15.9 C 96 % 15.26 C
53 23-06-2016 04:20:00 15.7 C 96 % 15.06 C
54 23-06-2016 04:25:00 15.7 C 96 % 15.06 C
55 23-06-2016 04:30:00 15.6 C 96 % 14.96 C
56 23-06-2016 04:35:00 15.5 C 96 % 14.86 C
57 23-06-2016 04:40:00 15.4 C 96 % 14.77 C
58 23-06-2016 04:45:00 15.3 C 96 % 14.67 C
59 23-06-2016 04:50:00 15.3 C 96 % 14.67 C
60 23-06-2016 04:55:00 15.4 C 96 % 14.77 C
61 23-06-2016 05:00:00 15.4 C 96 % 14.77 C
62 23-06-2016 05:05:00 15.4 C 96 % 14.77 C
63 23-06-2016 05:10:00 15.3 C 96 % 14.67 C
64 23-06-2016 05:15:00 15.3 C 96 % 14.67 C
65 23-06-2016 05:20:00 15.3 C 96 % 14.67 C
66 23-06-2016 05:25:00 15.2 C 96 % 14.57 C
67 23-06-2016 05:30:00 15.2 C 96 % 14.57 C
68 23-06-2016 05:35:00 15.2 C 96 % 14.57 C
69 23-06-2016 05:40:00 15.3 C 96 % 14.67 C
70 23-06-2016 05:45:00 15.3 C 96 % 14.67 C
71 23-06-2016 05:50:00 15.3 C 96 % 14.67 C
72 23-06-2016 05:55:00 15.3 C 96 % 14.67 C
73 23-06-2016 06:00:00 15.4 C 96 % 14.77 C
74 23-06-2016 06:05:00 15.4 C 96 % 14.77 C
75 23-06-2016 06:10:00 15.5 C 97 % 15.03 C
Sensor: Nr:Datum:Temp:Feuchte:Taupunkt:
Aussen-T/F 76 23-06-2016 06:15:00 15.6 C 97 % 15.13 C
77 23-06-2016 06:20:00 15.7 C 97 % 15.23 C
78 23-06-2016 06:25:00 15.7 C 97 % 15.23 C
79 23-06-2016 06:30:00 15.8 C 97 % 15.32 C
80 23-06-2016 06:35:00 15.8 C 97 % 15.32 C
81 23-06-2016 06:40:00 15.9 C 97 % 15.42 C
82 23-06-2016 06:45:00 15.9 C 97 % 15.42 C
83 23-06-2016 06:50:00 16.1 C 97 % 15.62 C
84 23-06-2016 06:55:00 16.1 C 97 % 15.62 C
85 23-06-2016 07:00:00 16.1 C 97 % 15.62 C
86 23-06-2016 07:05:00 16.2 C 97 % 15.72 C
87 23-06-2016 07:10:00 16.3 C 97 % 15.82 C
88 23-06-2016 07:15:00 16.3 C 97 % 15.82 C
89 23-06-2016 07:20:00 16.3 C 97 % 15.82 C
90 23-06-2016 07:25:00 16.4 C 97 % 15.92 C
91 23-06-2016 07:30:00 16.4 C 97 % 15.92 C
92 23-06-2016 07:35:00 16.4 C 97 % 15.92 C
93 23-06-2016 07:40:00 16.5 C 97 % 16.02 C
94 23-06-2016 07:45:00 16.6 C 97 % 16.12 C
95 23-06-2016 07:50:00 16.6 C 97 % 16.12 C
96 23-06-2016 07:55:00 16.7 C 97 % 16.22 C
97 23-06-2016 08:00:00 16.8 C 97 % 16.32 C
98 23-06-2016 08:05:00 16.8 C 97 % 16.32 C
99 23-06-2016 08:10:00 16.8 C 97 % 16.32 C
100 23-06-2016 08:15:00 16.8 C 97 % 16.32 C
Sensor: Nr:Datum:Temp:Feuchte:Taupunkt:
Aussen-T/F 101 23-06-2016 08:20:00 16.9 C 97 % 16.42 C
102 23-06-2016 08:25:00 16.9 C 97 % 16.42 C
103 23-06-2016 08:30:00 17.1 C 97 % 16.62 C
104 23-06-2016 08:35:00 17.2 C 97 % 16.72 C
105 23-06-2016 08:40:00 17.3 C 97 % 16.82 C
106 23-06-2016 08:45:00 17.4 C 97 % 16.92 C
107 23-06-2016 08:50:00 17.4 C 97 % 16.92 C
108 23-06-2016 08:55:00 17.5 C 97 % 17.02 C
109 23-06-2016 09:00:00 17.6 C 97 % 17.12 C
110 23-06-2016 09:05:00 17.7 C 97 % 17.22 C
111 23-06-2016 09:10:00 17.8 C 97 % 17.32 C
112 23-06-2016 09:15:00 17.9 C 97 % 17.42 C
113 23-06-2016 09:20:00 18.2 C 97 % 17.72 C
114 23-06-2016 09:25:00 18.3 C 97 % 17.82 C
115 23-06-2016 09:30:00 18.3 C 97 % 17.82 C
116 23-06-2016 09:35:00 18.6 C 97 % 18.11 C
117 23-06-2016 09:40:00 18.7 C 97 % 18.21 C
118 23-06-2016 09:45:00 18.9 C 97 % 18.41 C
119 23-06-2016 09:50:00 19.2 C 97 % 18.71 C
120 23-06-2016 09:55:00 19.4 C 97 % 18.91 C
121 23-06-2016 10:00:00 19.6 C 97 % 19.11 C
122 23-06-2016 10:05:00 19.7 C 97 % 19.21 C
123 23-06-2016 10:10:00 19.9 C 97 % 19.41 C
124 23-06-2016 10:15:00 20.2 C 97 % 19.71 C
125 23-06-2016 10:20:00 20.6 C 97 % 20.11 C
Sensor: Nr:Datum:Temp:Feuchte:Taupunkt:
Aussen-T/F 126 23-06-2016 10:25:00 21.1 C 97 % 20.6 C
127 23-06-2016 10:30:00 21.4 C 97 % 20.9 C
128 23-06-2016 10:35:00 21.9 C 96 % 21.23 C
129 23-06-2016 10:40:00 22.4 C 94 % 21.39 C
130 23-06-2016 10:45:00 22.9 C 92 % 21.53 C
131 23-06-2016 10:50:00 23.3 C 89 % 21.38 C
132 23-06-2016 10:55:00 23.7 C 85 % 21.03 C
133 23-06-2016 11:00:00 24.2 C 84 % 21.32 C
134 23-06-2016 11:05:00 24.5 C 84 % 21.62 C
135 23-06-2016 11:10:00 24.4 C 84 % 21.52 C
136 23-06-2016 11:15:00 24.4 C 85 % 21.71 C
137 23-06-2016 11:20:00 24.5 C 84 % 21.62 C
138 23-06-2016 11:25:00 24.7 C 82 % 21.42 C
139 23-06-2016 11:30:00 24.9 C 84 % 22.01 C
140 23-06-2016 11:35:00 25.1 C 83 % 22.01 C
141 23-06-2016 11:40:00 25.1 C 81 % 21.61 C
142 23-06-2016 11:45:00 25.3 C 84 % 22.4 C
143 23-06-2016 11:50:00 25.4 C 81 % 21.9 C
144 23-06-2016 11:55:00 25.6 C 80 % 21.89 C
145 23-06-2016 12:00:00 25.8 C 78 % 21.67 C
146 23-06-2016 12:05:00 26.1 C 78 % 21.96 C
147 23-06-2016 12:10:00 26.4 C 78 % 22.25 C
148 23-06-2016 12:15:00 26.7 C 76 % 22.11 C
149 23-06-2016 12:20:00 26.8 C 75 % 21.99 C
150 23-06-2016 12:25:00 27.1 C 76 % 22.5 C
Sensor: Nr:Datum:Temp:Feuchte:Taupunkt:
Aussen-T/F 151 23-06-2016 12:30:00 27.3 C 75 % 22.47 C
152 23-06-2016 12:35:00 27.4 C 75 % 22.57 C
153 23-06-2016 12:40:00 27.4 C 76 % 22.79 C
154 23-06-2016 12:45:00 27.6 C 72 % 22.09 C
155 23-06-2016 12:50:00 27.7 C 72 % 22.19 C
156 23-06-2016 12:55:00 27.9 C 74 % 22.83 C
157 23-06-2016 13:00:00 28.1 C 71 % 22.34 C
158 23-06-2016 13:05:00 28.3 C 74 % 23.22 C
159 23-06-2016 13:10:00 28.3 C 71 % 22.53 C
160 23-06-2016 13:15:00 28.3 C 76 % 23.66 C
161 23-06-2016 13:20:00 28.2 C 74 % 23.12 C
162 23-06-2016 13:25:00 28.2 C 70 % 22.2 C
163 23-06-2016 13:30:00 28.3 C 72 % 22.76 C
164 23-06-2016 13:35:00 28.6 C 69 % 22.35 C
165 23-06-2016 13:40:00 28.8 C 70 % 22.78 C
166 23-06-2016 13:45:00 29 C 69 % 22.73 C
167 23-06-2016 13:50:00 29.1 C 68 % 22.58 C
168 23-06-2016 13:55:00 29.2 C 69 % 22.92 C
169 23-06-2016 14:00:00 29.4 C 69 % 23.11 C
170 23-06-2016 14:05:00 29.6 C 66 % 22.57 C
171 23-06-2016 14:10:00 29.8 C 66 % 22.76 C
172 23-06-2016 14:15:00 30 C 66 % 22.95 C
173 23-06-2016 14:20:00 30.2 C 63 % 22.37 C
174 23-06-2016 14:25:00 30.3 C 63 % 22.46 C
175 23-06-2016 14:30:00 30.3 C 68 % 23.73 C
Sensor: Nr:Datum:Temp:Feuchte:Taupunkt:
Aussen-T/F 176 23-06-2016 14:35:00 30.2 C 68 % 23.63 C
177 23-06-2016 14:40:00 30.2 C 65 % 22.88 C
178 23-06-2016 14:45:00 30.3 C 65 % 22.98 C
179 23-06-2016 14:50:00 30.6 C 62 % 22.48 C
180 23-06-2016 14:55:00 30.7 C 63 % 22.84 C
181 23-06-2016 15:00:00 30.8 C 63 % 22.93 C
182 23-06-2016 15:05:00 30.9 C 65 % 23.55 C
183 23-06-2016 15:10:00 31 C 63 % 23.12 C
184 23-06-2016 15:15:00 31.2 C 63 % 23.31 C
185 23-06-2016 15:20:00 31.2 C 64 % 23.57 C
186 23-06-2016 15:25:00 31.3 C 62 % 23.14 C
187 23-06-2016 15:30:00 31.6 C 64 % 23.95 C
188 23-06-2016 15:35:00 31.7 C 59 % 22.7 C
189 23-06-2016 15:40:00 31.8 C 64 % 24.14 C
190 23-06-2016 15:45:00 32.2 C 64 % 24.52 C
191 23-06-2016 15:50:00 32.4 C 57 % 22.78 C
192 23-06-2016 15:55:00 32.8 C 58 % 23.44 C
193 23-06-2016 16:00:00 33.2 C 57 % 23.52 C
194 23-06-2016 16:05:00 33.6 C 56 % 23.6 C
195 23-06-2016 16:10:00 33.6 C 54 % 23 C
196 23-06-2016 16:15:00 33.4 C 55 % 23.12 C
197 23-06-2016 16:20:00 33.6 C 55 % 23.3 C
198 23-06-2016 16:25:00 33.9 C 56 % 23.88 C
199 23-06-2016 16:30:00 34.2 C 56 % 24.16 C
200 23-06-2016 16:35:00 34.2 C 58 % 24.74 C
Sensor: Nr:Datum:Temp:Feuchte:Taupunkt:
Aussen-T/F 201 23-06-2016 16:40:00 34.2 C 55 % 23.86 C
202 23-06-2016 16:45:00 34.3 C 54 % 23.64 C
203 23-06-2016 16:50:00 34.3 C 58 % 24.84 C
204 23-06-2016 16:55:00 34.3 C 59 % 25.12 C
205 23-06-2016 17:00:00 34.4 C 57 % 24.64 C
206 23-06-2016 17:05:00 34.7 C 58 % 25.21 C
207 23-06-2016 17:10:00 34.8 C 54 % 24.11 C
208 23-06-2016 17:15:00 34.6 C 55 % 24.23 C
209 23-06-2016 17:20:00 34.6 C 53 % 23.61 C
210 23-06-2016 17:25:00 34.6 C 54 % 23.92 C
211 23-06-2016 17:30:00 34.7 C 56 % 24.62 C
212 23-06-2016 17:35:00 34.7 C 53 % 23.7 C
213 23-06-2016 17:40:00 34.7 C 54 % 24.01 C
214 23-06-2016 17:45:00 34.7 C 52 % 23.39 C
215 23-06-2016 17:50:00 34.8 C 51 % 23.16 C
216 23-06-2016 17:55:00 34.9 C 57 % 25.1 C
217 23-06-2016 18:00:00 34.9 C 52 % 23.57 C
218 23-06-2016 18:05:00 34.8 C 57 % 25.01 C
219 23-06-2016 18:10:00 34.9 C 58 % 25.4 C
220 23-06-2016 18:15:00 34.8 C 54 % 24.11 C
221 23-06-2016 18:20:00 34.5 C 53 % 23.52 C
222 23-06-2016 18:25:00 34.4 C 56 % 24.34 C
223 23-06-2016 18:30:00 34.5 C 57 % 24.73 C
224 23-06-2016 18:35:00 34.6 C 53 % 23.61 C
225 23-06-2016 18:40:00 34.8 C 58 % 25.3 C
Sensor: Nr:Datum:Temp:Feuchte:Taupunkt:
Aussen-T/F 226 23-06-2016 18:45:00 35 C 58 % 25.49 C
227 23-06-2016 18:50:00 34.8 C 58 % 25.3 C
228 23-06-2016 18:55:00 34.8 C 59 % 25.59 C
229 23-06-2016 19:00:00 34.5 C 53 % 23.52 C
230 23-06-2016 19:05:00 34.4 C 60 % 25.5 C
231 23-06-2016 19:10:00 34.4 C 61 % 25.78 C
232 23-06-2016 19:15:00 34.2 C 61 % 25.59 C
233 23-06-2016 19:20:00 34.1 C 55 % 23.76 C
234 23-06-2016 19:25:00 33.9 C 57 % 24.17 C
235 23-06-2016 19:30:00 33.7 C 61 % 25.12 C
236 23-06-2016 19:35:00 33.4 C 59 % 24.28 C
237 23-06-2016 19:40:00 33.2 C 63 % 25.19 C
238 23-06-2016 19:45:00 32.8 C 63 % 24.82 C
239 23-06-2016 19:50:00 32.5 C 65 % 25.06 C
240 23-06-2016 19:55:00 32.2 C 66 % 25.03 C
241 23-06-2016 20:00:00 31.8 C 66 % 24.65 C
242 23-06-2016 20:05:00 31.4 C 67 % 24.52 C
243 23-06-2016 20:10:00 31.1 C 68 % 24.49 C
244 23-06-2016 20:15:00 30.8 C 68 % 24.2 C
245 23-06-2016 20:20:00 30.5 C 69 % 24.16 C
246 23-06-2016 20:25:00 30.2 C 70 % 24.11 C
247 23-06-2016 20:30:00 30 C 71 % 24.16 C
248 23-06-2016 20:35:00 29.7 C 72 % 24.11 C
249 23-06-2016 20:40:00 29.5 C 72 % 23.91 C
250 23-06-2016 20:45:00 29.3 C 73 % 23.95 C
Sensor: Nr:Datum:Temp:Feuchte:Taupunkt:
Aussen-T/F 251 23-06-2016 20:50:00 29.1 C 73 % 23.76 C
252 23-06-2016 20:55:00 28.7 C 74 % 23.6 C
253 23-06-2016 21:00:00 28.3 C 74 % 23.22 C
254 23-06-2016 21:05:00 27.8 C 75 % 22.96 C
255 23-06-2016 21:10:00 27.4 C 76 % 22.79 C
256 23-06-2016 21:15:00 26.9 C 77 % 22.52 C
257 23-06-2016 21:20:00 26.5 C 78 % 22.35 C
258 23-06-2016 21:25:00 26.1 C 79 % 22.17 C
259 23-06-2016 21:30:00 25.8 C 80 % 22.08 C
260 23-06-2016 21:35:00 25.6 C 81 % 22.09 C
261 23-06-2016 21:40:00 25.3 C 82 % 22 C
262 23-06-2016 21:45:00 25.1 C 82 % 21.81 C
263 23-06-2016 21:50:00 24.9 C 82 % 21.61 C
264 23-06-2016 21:55:00 24.8 C 83 % 21.71 C
265 23-06-2016 22:00:00 24.6 C 83 % 21.52 C
266 23-06-2016 22:05:00 24.5 C 83 % 21.42 C
267 23-06-2016 22:10:00 24.4 C 83 % 21.32 C
268 23-06-2016 22:15:00 24.3 C 83 % 21.22 C
269 23-06-2016 22:20:00 24.3 C 83 % 21.22 C
270 23-06-2016 22:25:00 24.2 C 84 % 21.32 C
271 23-06-2016 22:30:00 24.2 C 83 % 21.13 C
272 23-06-2016 22:35:00 24.1 C 84 % 21.22 C
273 23-06-2016 22:40:00 24 C 84 % 21.13 C
274 23-06-2016 22:45:00 23.9 C 84 % 21.03 C
275 23-06-2016 22:50:00 23.8 C 84 % 20.93 C
Sensor: Nr:Datum:Temp:Feuchte:Taupunkt:
Aussen-T/F 276 23-06-2016 22:55:00 23.7 C 84 % 20.83 C
277 23-06-2016 23:00:00 23.7 C 84 % 20.83 C
278 23-06-2016 23:05:00 23.6 C 84 % 20.74 C
279 23-06-2016 23:10:00 23.5 C 85 % 20.83 C
280 23-06-2016 23:15:00 23.4 C 85 % 20.73 C
281 23-06-2016 23:20:00 23.3 C 86 % 20.82 C
282 23-06-2016 23:25:00 23.2 C 86 % 20.73 C
283 23-06-2016 23:30:00 23.1 C 87 % 20.82 C
284 23-06-2016 23:35:00 22.9 C 87 % 20.62 C
285 23-06-2016 23:40:00 22.8 C 87 % 20.52 C
286 23-06-2016 23:45:00 22.8 C 88 % 20.71 C
287 23-06-2016 23:50:00 22.7 C 88 % 20.61 C
288 23-06-2016 23:55:00 22.6 C 88 % 20.51 C
289 24-06-2016 00:00:00 22.6 C 88 % 20.51 C
290 24-06-2016 00:05:00 22.6 C 88 % 20.51 C
291 24-06-2016 00:10:00 22.6 C 89 % 20.69 C
292 24-06-2016 00:15:00 22.6 C 89 % 20.69 C
293 24-06-2016 00:20:00 22.5 C 89 % 20.59 C
294 24-06-2016 00:25:00 22.4 C 89 % 20.5 C
295 24-06-2016 00:30:00 22.3 C 89 % 20.4 C
296 24-06-2016 00:35:00 22.2 C 89 % 20.3 C
297 24-06-2016 00:40:00 22.2 C 90 % 20.48 C
298 24-06-2016 00:45:00 22.2 C 90 % 20.48 C
299 24-06-2016 00:50:00 22.4 C 89 % 20.5 C
300 24-06-2016 00:55:00 22.9 C 88 % 20.81 C
Sensor: Nr:Datum:Temp:Feuchte:Taupunkt:
Aussen-T/F 301 24-06-2016 01:00:00 23.2 C 86 % 20.73 C
302 24-06-2016 01:05:00 23.2 C 84 % 20.34 C
303 24-06-2016 01:10:00 23.2 C 85 % 20.54 C
304 24-06-2016 01:15:00 23.2 C 85 % 20.54 C
305 24-06-2016 01:20:00 23.1 C 85 % 20.44 C
306 24-06-2016 01:25:00 22.9 C 85 % 20.24 C
307 24-06-2016 01:30:00 22.8 C 86 % 20.33 C
308 24-06-2016 01:35:00 22.7 C 85 % 20.05 C
309 24-06-2016 01:40:00 22.6 C 85 % 19.95 C
310 24-06-2016 01:45:00 22.7 C 85 % 20.05 C
311 24-06-2016 01:50:00 22.6 C 84 % 19.76 C
312 24-06-2016 01:55:00 22.5 C 85 % 19.85 C
313 24-06-2016 02:00:00 22.4 C 86 % 19.94 C
314 24-06-2016 02:05:00 22.3 C 85 % 19.65 C
315 24-06-2016 02:10:00 22.2 C 86 % 19.75 C
316 24-06-2016 02:15:00 22.1 C 86 % 19.65 C
317 24-06-2016 02:20:00 21.9 C 87 % 19.64 C
318 24-06-2016 02:25:00 21.8 C 87 % 19.54 C
319 24-06-2016 02:30:00 21.6 C 88 % 19.53 C
320 24-06-2016 02:35:00 21.5 C 88 % 19.43 C
321 24-06-2016 02:40:00 21.4 C 88 % 19.33 C
322 24-06-2016 02:45:00 21.3 C 89 % 19.41 C
323 24-06-2016 02:50:00 21.3 C 89 % 19.41 C
324 24-06-2016 02:55:00 21.2 C 89 % 19.31 C
325 24-06-2016 03:00:00 21.2 C 89 % 19.31 C
Sensor: Nr:Datum:Temp:Feuchte:Taupunkt:
Aussen-T/F 326 24-06-2016 03:05:00 21.1 C 89 % 19.22 C
327 24-06-2016 03:10:00 21 C 89 % 19.12 C
328 24-06-2016 03:15:00 20.9 C 89 % 19.02 C
329 24-06-2016 03:20:00 20.8 C 90 % 19.1 C
330 24-06-2016 03:25:00 20.8 C 90 % 19.1 C
331 24-06-2016 03:30:00 20.7 C 90 % 19 C
332 24-06-2016 03:35:00 20.7 C 90 % 19 C
333 24-06-2016 03:40:00 20.6 C 90 % 18.9 C
334 24-06-2016 03:45:00 20.4 C 91 % 18.88 C
335 24-06-2016 03:50:00 20.3 C 91 % 18.78 C
336 24-06-2016 03:55:00 20.2 C 91 % 18.68 C
337 24-06-2016 04:00:00 20.1 C 91 % 18.58 C
338 24-06-2016 04:05:00 20.1 C 92 % 18.76 C
339 24-06-2016 04:10:00 19.9 C 92 % 18.56 C
340 24-06-2016 04:15:00 19.9 C 92 % 18.56 C
341 24-06-2016 04:20:00 19.8 C 92 % 18.46 C
342 24-06-2016 04:25:00 19.8 C 92 % 18.46 C
343 24-06-2016 04:30:00 19.7 C 93 % 18.54 C
344 24-06-2016 04:35:00 19.7 C 93 % 18.54 C
345 24-06-2016 04:40:00 19.6 C 93 % 18.44 C
346 24-06-2016 04:45:00 19.5 C 93 % 18.34 C
347 24-06-2016 04:50:00 19.6 C 93 % 18.44 C
348 24-06-2016 04:55:00 19.5 C 93 % 18.34 C
349 24-06-2016 05:00:00 19.5 C 93 % 18.34 C
350 24-06-2016 05:05:00 19.5 C 93 % 18.34 C
Sensor: Nr:Datum:Temp:Feuchte:Taupunkt:
Aussen-T/F 351 24-06-2016 05:10:00 19.4 C 93 % 18.24 C
352 24-06-2016 05:15:00 19.4 C 93 % 18.24 C
353 24-06-2016 05:20:00 19.4 C 93 % 18.24 C
354 24-06-2016 05:25:00 19.3 C 94 % 18.31 C
355 24-06-2016 05:30:00 19.3 C 94 % 18.31 C
356 24-06-2016 05:35:00 19.3 C 94 % 18.31 C
357 24-06-2016 05:40:00 19.2 C 94 % 18.21 C
358 24-06-2016 05:45:00 19.3 C 94 % 18.31 C
359 24-06-2016 05:50:00 19.3 C 94 % 18.31 C
360 24-06-2016 05:55:00 19.3 C 94 % 18.31 C
361 24-06-2016 06:00:00 19.3 C 94 % 18.31 C
362 24-06-2016 06:05:00 19.2 C 94 % 18.21 C
363 24-06-2016 06:10:00 19.2 C 94 % 18.21 C
364 24-06-2016 06:15:00 19.2 C 94 % 18.21 C
365 24-06-2016 06:20:00 19.2 C 94 % 18.21 C
366 24-06-2016 06:25:00 19.1 C 94 % 18.11 C
367 24-06-2016 06:30:00 19.1 C 94 % 18.11 C
368 24-06-2016 06:35:00 19.1 C 94 % 18.11 C
369 24-06-2016 06:40:00 19.2 C 95 % 18.38 C
370 24-06-2016 06:45:00 19.2 C 94 % 18.21 C
371 24-06-2016 06:50:00 19.2 C 94 % 18.21 C
372 24-06-2016 06:55:00 19.1 C 94 % 18.11 C
373 24-06-2016 07:00:00 19.2 C 94 % 18.21 C
374 24-06-2016 07:05:00 19.2 C 95 % 18.38 C
375 24-06-2016 07:10:00 19.3 C 95 % 18.48 C
Sensor: Nr:Datum:Temp:Feuchte:Taupunkt:
Aussen-T/F 376 24-06-2016 07:15:00 19.3 C 95 % 18.48 C
377 24-06-2016 07:20:00 19.3 C 95 % 18.48 C
378 24-06-2016 07:25:00 19.4 C 95 % 18.58 C
379 24-06-2016 07:30:00 19.4 C 95 % 18.58 C
380 24-06-2016 07:35:00 19.5 C 95 % 18.68 C
381 24-06-2016 07:40:00 19.6 C 95 % 18.78 C
382 24-06-2016 07:45:00 19.7 C 95 % 18.88 C
383 24-06-2016 07:50:00 19.7 C 95 % 18.88 C
384 24-06-2016 07:55:00 19.8 C 95 % 18.98 C
385 24-06-2016 08:00:00 19.9 C 95 % 19.07 C
386 24-06-2016 08:05:00 20 C 95 % 19.17 C
387 24-06-2016 08:10:00 20.2 C 95 % 19.37 C
388 24-06-2016 08:15:00 20.2 C 95 % 19.37 C
389 24-06-2016 08:20:00 20.3 C 95 % 19.47 C
390 24-06-2016 08:25:00 20.4 C 95 % 19.57 C
391 24-06-2016 08:30:00 20.4 C 95 % 19.57 C
392 24-06-2016 08:35:00 20.6 C 95 % 19.77 C
393 24-06-2016 08:40:00 20.7 C 95 % 19.87 C
394 24-06-2016 08:45:00 20.7 C 94 % 19.7 C
395 24-06-2016 08:50:00 20.8 C 95 % 19.97 C
396 24-06-2016 08:55:00 20.9 C 95 % 20.07 C
397 24-06-2016 09:00:00 21 C 94 % 20 C
398 24-06-2016 09:05:00 21.1 C 94 % 20.1 C
399 24-06-2016 09:10:00 21.3 C 94 % 20.29 C
400 24-06-2016 09:15:00 21.4 C 94 % 20.39 C
Sensor: Nr:Datum:Temp:Feuchte:Taupunkt:
Aussen-T/F 401 24-06-2016 09:20:00 21.6 C 94 % 20.59 C
402 24-06-2016 09:25:00 21.8 C 94 % 20.79 C
403 24-06-2016 09:30:00 22.1 C 93 % 20.91 C
404 24-06-2016 09:35:00 22.3 C 93 % 21.11 C
405 24-06-2016 09:40:00 22.4 C 93 % 21.21 C
406 24-06-2016 09:45:00 22.5 C 92 % 21.13 C
407 24-06-2016 09:50:00 22.7 C 92 % 21.33 C
408 24-06-2016 09:55:00 22.8 C 92 % 21.43 C
409 24-06-2016 10:00:00 23 C 92 % 21.63 C
410 24-06-2016 10:05:00 23.3 C 91 % 21.75 C
411 24-06-2016 10:10:00 23.7 C 90 % 21.96 C
412 24-06-2016 10:15:00 24.2 C 87 % 21.9 C
413 24-06-2016 10:20:00 25 C 83 % 21.91 C
414 24-06-2016 10:25:00 25.7 C 82 % 22.39 C
415 24-06-2016 10:30:00 26.2 C 80 % 22.47 C
416 24-06-2016 10:35:00 26.6 C 78 % 22.44 C
417 24-06-2016 10:40:00 26.8 C 79 % 22.85 C
418 24-06-2016 10:45:00 26.7 C 77 % 22.33 C
419 24-06-2016 10:50:00 26.6 C 76 % 22.02 C
420 24-06-2016 10:55:00 26.7 C 79 % 22.75 C
421 24-06-2016 11:00:00 26.7 C 80 % 22.96 C
422 24-06-2016 11:05:00 26.7 C 79 % 22.75 C
423 24-06-2016 11:10:00 26.6 C 78 % 22.44 C
424 24-06-2016 11:15:00 26.6 C 79 % 22.65 C
425 24-06-2016 11:20:00 26.7 C 82 % 23.37 C
Sensor: Nr:Datum:Temp:Feuchte:Taupunkt:
Aussen-T/F 426 24-06-2016 11:25:00 26.6 C 83 % 23.47 C
427 24-06-2016 11:30:00 26.6 C 82 % 23.27 C
428 24-06-2016 11:35:00 26.6 C 83 % 23.47 C
429 24-06-2016 11:40:00 26.7 C 84 % 23.77 C
430 24-06-2016 11:45:00 26.7 C 79 % 22.75 C
431 24-06-2016 11:50:00 26.9 C 82 % 23.56 C
432 24-06-2016 11:55:00 26.8 C 80 % 23.06 C
433 24-06-2016 12:00:00 26.8 C 78 % 22.64 C
434 24-06-2016 12:05:00 26.8 C 76 % 22.21 C
435 24-06-2016 12:10:00 26.7 C 77 % 22.33 C
436 24-06-2016 12:15:00 26.6 C 78 % 22.44 C
437 24-06-2016 12:20:00 26.3 C 77 % 21.94 C
438 24-06-2016 12:25:00 25.9 C 76 % 21.34 C
439 24-06-2016 12:30:00 25.7 C 78 % 21.57 C
440 24-06-2016 12:35:00 25.4 C 79 % 21.49 C
441 24-06-2016 12:40:00 25.1 C 79 % 21.2 C
442 24-06-2016 12:45:00 24.8 C 82 % 21.52 C
443 24-06-2016 12:50:00 24.5 C 84 % 21.62 C
444 24-06-2016 12:55:00 24.1 C 86 % 21.61 C
445 24-06-2016 13:00:00 23.8 C 87 % 21.5 C
446 24-06-2016 13:05:00 23.6 C 89 % 21.68 C
447 24-06-2016 13:10:00 23.4 C 90 % 21.66 C
448 24-06-2016 13:15:00 23.3 C 90 % 21.57 C
449 24-06-2016 13:20:00 23.2 C 91 % 21.65 C
450 24-06-2016 13:25:00 23.1 C 92 % 21.73 C
Sensor: Nr:Datum:Temp:Feuchte:Taupunkt:
Aussen-T/F 451 24-06-2016 13:30:00 22.9 C 92 % 21.53 C
452 24-06-2016 13:35:00 22.9 C 92 % 21.53 C
453 24-06-2016 13:40:00 22.8 C 93 % 21.61 C
454 24-06-2016 13:45:00 22.7 C 93 % 21.51 C
455 24-06-2016 13:50:00 22.6 C 93 % 21.41 C
456 24-06-2016 13:55:00 22.6 C 93 % 21.41 C
457 24-06-2016 14:00:00 22.6 C 94 % 21.58 C
458 24-06-2016 14:05:00 22.7 C 94 % 21.68 C
459 24-06-2016 14:10:00 22.9 C 94 % 21.88 C
460 24-06-2016 14:15:00 23.1 C 95 % 22.25 C
461 24-06-2016 14:20:00 23.2 C 94 % 22.18 C
462 24-06-2016 14:25:00 23.6 C 94 % 22.58 C
463 24-06-2016 14:30:00 23.7 C 92 % 22.32 C
464 24-06-2016 14:35:00 23.8 C 90 % 22.06 C
465 24-06-2016 14:40:00 23.9 C 89 % 21.97 C
466 24-06-2016 14:45:00 23.9 C 89 % 21.97 C
467 24-06-2016 14:50:00 24 C 88 % 21.89 C
468 24-06-2016 14:55:00 24 C 88 % 21.89 C
469 24-06-2016 15:00:00 24.1 C 86 % 21.61 C
470 24-06-2016 15:05:00 24.1 C 86 % 21.61 C
471 24-06-2016 15:10:00 24.1 C 85 % 21.42 C
472 24-06-2016 15:15:00 24.1 C 85 % 21.42 C
473 24-06-2016 15:20:00 24.2 C 84 % 21.32 C
474 24-06-2016 15:25:00 24.4 C 82 % 21.12 C
475 24-06-2016 15:30:00 24.3 C 77 % 20.01 C
Sensor: Nr:Datum:Temp:Feuchte:Taupunkt:
Aussen-T/F 476 24-06-2016 15:35:00 24.2 C 79 % 20.32 C
477 24-06-2016 15:40:00 23.8 C 82 % 20.54 C
478 24-06-2016 15:45:00 23.6 C 84 % 20.74 C
479 24-06-2016 15:50:00 23.4 C 85 % 20.73 C
480 24-06-2016 15:55:00 23.2 C 85 % 20.54 C
481 24-06-2016 16:00:00 22.9 C 87 % 20.62 C
482 24-06-2016 16:05:00 22.8 C 88 % 20.71 C
483 24-06-2016 16:10:00 22.6 C 90 % 20.87 C
484 24-06-2016 16:15:00 22.4 C 90 % 20.68 C
485 24-06-2016 16:20:00 22.3 C 91 % 20.76 C
486 24-06-2016 16:25:00 22.6 C 92 % 21.23 C
487 24-06-2016 16:30:00 22.7 C 91 % 21.15 C
488 24-06-2016 16:35:00 22.9 C 90 % 21.17 C
489 24-06-2016 16:40:00 23.3 C 91 % 21.75 C
490 24-06-2016 16:45:00 23.6 C 90 % 21.86 C
491 24-06-2016 16:50:00 23.4 C 88 % 21.3 C
492 24-06-2016 16:55:00 23.2 C 88 % 21.1 C
493 24-06-2016 17:00:00 23.2 C 90 % 21.47 C
494 24-06-2016 17:05:00 23.1 C 91 % 21.55 C
495 24-06-2016 17:10:00 22.9 C 91 % 21.35 C
496 24-06-2016 17:15:00 22.8 C 92 % 21.43 C
497 24-06-2016 17:20:00 22.7 C 92 % 21.33 C
498 24-06-2016 17:25:00 22.7 C 93 % 21.51 C
499 24-06-2016 17:30:00 22.7 C 93 % 21.51 C
500 24-06-2016 17:35:00 22.7 C 93 % 21.51 C
Sensor: Nr:Datum:Temp:Feuchte:Taupunkt:
Aussen-T/F 501 24-06-2016 17:40:00 22.8 C 93 % 21.61 C
502 24-06-2016 17:45:00 22.9 C 94 % 21.88 C
503 24-06-2016 17:50:00 23.1 C 94 % 22.08 C
504 24-06-2016 17:55:00 23.3 C 95 % 22.45 C
505 24-06-2016 18:00:00 23.6 C 95 % 22.75 C
506 24-06-2016 18:05:00 23.3 C 92 % 21.93 C
507 24-06-2016 18:10:00 23.4 C 93 % 22.2 C
508 24-06-2016 18:15:00 23.6 C 93 % 22.4 C
509 24-06-2016 18:20:00 23.6 C 92 % 22.22 C
510 24-06-2016 18:25:00 23.4 C 90 % 21.66 C
511 24-06-2016 18:30:00 23.3 C 90 % 21.57 C
512 24-06-2016 18:35:00 23.3 C 90 % 21.57 C
513 24-06-2016 18:40:00 23.2 C 91 % 21.65 C
514 24-06-2016 18:45:00 23.2 C 92 % 21.83 C
515 24-06-2016 18:50:00 23.2 C 92 % 21.83 C
516 24-06-2016 18:55:00 23.2 C 93 % 22 C
517 24-06-2016 19:00:00 23.2 C 93 % 22 C
518 24-06-2016 19:05:00 23.1 C 93 % 21.9 C
519 24-06-2016 19:10:00 22.8 C 92 % 21.43 C
520 24-06-2016 19:15:00 22.8 C 93 % 21.61 C
521 24-06-2016 19:20:00 22.6 C 93 % 21.41 C
522 24-06-2016 19:25:00 22.6 C 93 % 21.41 C
523 24-06-2016 19:30:00 22.4 C 93 % 21.21 C
524 24-06-2016 19:35:00 22.4 C 94 % 21.39 C
525 24-06-2016 19:40:00 22.3 C 94 % 21.29 C
Sensor: Nr:Datum:Temp:Feuchte:Taupunkt:
Aussen-T/F 526 24-06-2016 19:45:00 22.3 C 94 % 21.29 C
527 24-06-2016 19:50:00 22.2 C 94 % 21.19 C
528 24-06-2016 19:55:00 22.1 C 94 % 21.09 C
529 24-06-2016 20:00:00 22 C 94 % 20.99 C
530 24-06-2016 20:05:00 21.9 C 94 % 20.89 C
531 24-06-2016 20:10:00 21.9 C 94 % 20.89 C
532 24-06-2016 20:15:00 21.9 C 94 % 20.89 C
533 24-06-2016 20:20:00 21.8 C 94 % 20.79 C
534 24-06-2016 20:25:00 21.8 C 94 % 20.79 C
535 24-06-2016 20:30:00 21.7 C 94 % 20.69 C
536 24-06-2016 20:35:00 21.7 C 94 % 20.69 C
537 24-06-2016 20:40:00 21.6 C 94 % 20.59 C
538 24-06-2016 20:45:00 21.5 C 94 % 20.49 C
539 24-06-2016 20:50:00 21.5 C 95 % 20.66 C
540 24-06-2016 20:55:00 21.6 C 95 % 20.76 C
541 24-06-2016 21:00:00 21.4 C 95 % 20.57 C
542 24-06-2016 21:05:00 21.3 C 95 % 20.47 C
543 24-06-2016 21:10:00 21.3 C 95 % 20.47 C
544 24-06-2016 21:15:00 21.2 C 95 % 20.37 C
545 24-06-2016 21:20:00 21.1 C 95 % 20.27 C
546 24-06-2016 21:25:00 21.1 C 95 % 20.27 C
547 24-06-2016 21:30:00 21 C 95 % 20.17 C
548 24-06-2016 21:35:00 20.9 C 95 % 20.07 C
549 24-06-2016 21:40:00 20.9 C 95 % 20.07 C
550 24-06-2016 21:45:00 20.8 C 95 % 19.97 C
Sensor: Nr:Datum:Temp:Feuchte:Taupunkt:
Aussen-T/F 551 24-06-2016 21:50:00 20.7 C 95 % 19.87 C
552 24-06-2016 21:55:00 20.7 C 95 % 19.87 C
553 24-06-2016 22:00:00 20.6 C 95 % 19.77 C
554 24-06-2016 22:05:00 20.5 C 95 % 19.67 C
555 24-06-2016 22:10:00 20.4 C 95 % 19.57 C
556 24-06-2016 22:15:00 20.3 C 95 % 19.47 C
557 24-06-2016 22:20:00 20.3 C 95 % 19.47 C
558 24-06-2016 22:25:00 20.2 C 95 % 19.37 C
559 24-06-2016 22:30:00 20.2 C 95 % 19.37 C
560 24-06-2016 22:35:00 20.2 C 96 % 19.54 C
561 24-06-2016 22:40:00 20.2 C 96 % 19.54 C
562 24-06-2016 22:45:00 20.2 C 96 % 19.54 C
563 24-06-2016 22:50:00 20.2 C 96 % 19.54 C
564 24-06-2016 22:55:00 20.2 C 96 % 19.54 C
565 24-06-2016 23:00:00 20.1 C 96 % 19.44 C
566 24-06-2016 23:05:00 20.1 C 96 % 19.44 C
567 24-06-2016 23:10:00 20 C 95 % 19.17 C
568 24-06-2016 23:15:00 19.9 C 96 % 19.24 C
569 24-06-2016 23:20:00 19.9 C 96 % 19.24 C
570 24-06-2016 23:25:00 19.9 C 96 % 19.24 C
571 24-06-2016 23:30:00 19.9 C 96 % 19.24 C
572 24-06-2016 23:35:00 19.9 C 96 % 19.24 C
573 24-06-2016 23:40:00 19.8 C 96 % 19.14 C
574 24-06-2016 23:45:00 19.8 C 96 % 19.14 C
575 24-06-2016 23:50:00 19.8 C 96 % 19.14 C
Sensor: Nr:Datum:Temp:Feuchte:Taupunkt:
Aussen-T/F 576 24-06-2016 23:55:00 19.8 C 96 % 19.14 C
577 25-06-2016 00:00:00 19.8 C 96 % 19.14 C
578 25-06-2016 00:05:00 19.8 C 96 % 19.14 C
579 25-06-2016 00:10:00 19.8 C 96 % 19.14 C
580 25-06-2016 00:15:00 19.7 C 96 % 19.04 C
581 25-06-2016 00:20:00 19.7 C 96 % 19.04 C
582 25-06-2016 00:25:00 19.6 C 96 % 18.94 C
583 25-06-2016 00:30:00 19.4 C 96 % 18.75 C
584 25-06-2016 00:35:00 19.3 C 96 % 18.65 C
585 25-06-2016 00:40:00 19.3 C 96 % 18.65 C
586 25-06-2016 00:45:00 19.3 C 96 % 18.65 C
587 25-06-2016 00:50:00 19.3 C 96 % 18.65 C
588 25-06-2016 00:55:00 19.3 C 96 % 18.65 C
589 25-06-2016 01:00:00 19.3 C 96 % 18.65 C
590 25-06-2016 01:05:00 19.3 C 96 % 18.65 C
591 25-06-2016 01:10:00 19.3 C 96 % 18.65 C
592 25-06-2016 01:15:00 19.2 C 96 % 18.55 C
593 25-06-2016 01:20:00 19.2 C 96 % 18.55 C
594 25-06-2016 01:25:00 19.2 C 96 % 18.55 C
595 25-06-2016 01:30:00 19.2 C 96 % 18.55 C
596 25-06-2016 01:35:00 19.1 C 96 % 18.45 C
597 25-06-2016 01:40:00 19.1 C 96 % 18.45 C
598 25-06-2016 01:45:00 19.1 C 96 % 18.45 C
599 25-06-2016 01:50:00 19.1 C 96 % 18.45 C
600 25-06-2016 01:55:00 19 C 96 % 18.35 C
Sensor: Nr:Datum:Temp:Feuchte:Taupunkt:
Aussen-T/F 601 25-06-2016 02:00:00 19 C 96 % 18.35 C
602 25-06-2016 02:05:00 19.1 C 96 % 18.45 C
603 25-06-2016 02:10:00 19.1 C 96 % 18.45 C
604 25-06-2016 02:15:00 19.1 C 96 % 18.45 C
605 25-06-2016 02:20:00 19.1 C 96 % 18.45 C
606 25-06-2016 02:25:00 19.1 C 96 % 18.45 C
607 25-06-2016 02:30:00 19.2 C 96 % 18.55 C
608 25-06-2016 02:35:00 19.2 C 96 % 18.55 C
609 25-06-2016 02:40:00 19.2 C 96 % 18.55 C
610 25-06-2016 02:45:00 19.2 C 96 % 18.55 C
611 25-06-2016 02:50:00 19.2 C 96 % 18.55 C
612 25-06-2016 02:55:00 19.2 C 96 % 18.55 C
613 25-06-2016 03:00:00 19.2 C 96 % 18.55 C
614 25-06-2016 03:05:00 19.2 C 96 % 18.55 C
615 25-06-2016 03:10:00 19.2 C 96 % 18.55 C
616 25-06-2016 03:15:00 19.2 C 96 % 18.55 C
617 25-06-2016 03:20:00 19.2 C 96 % 18.55 C
618 25-06-2016 03:25:00 19.2 C 96 % 18.55 C
619 25-06-2016 03:30:00 19.2 C 96 % 18.55 C
620 25-06-2016 03:35:00 19.2 C 96 % 18.55 C
621 25-06-2016 03:40:00 19.2 C 96 % 18.55 C
622 25-06-2016 03:45:00 19.2 C 96 % 18.55 C
623 25-06-2016 03:50:00 19.2 C 96 % 18.55 C
624 25-06-2016 03:55:00 19.2 C 96 % 18.55 C
625 25-06-2016 04:00:00 19.1 C 96 % 18.45 C
Sensor: Nr:Datum:Temp:Feuchte:Taupunkt:
Aussen-T/F 626 25-06-2016 04:05:00 19.1 C 96 % 18.45 C
627 25-06-2016 04:10:00 19.1 C 96 % 18.45 C
628 25-06-2016 04:15:00 19.1 C 96 % 18.45 C
629 25-06-2016 04:20:00 19.1 C 96 % 18.45 C
630 25-06-2016 04:25:00 19.1 C 96 % 18.45 C
631 25-06-2016 04:30:00 19.1 C 96 % 18.45 C
632 25-06-2016 04:35:00 19.1 C 96 % 18.45 C
633 25-06-2016 04:40:00 19 C 96 % 18.35 C
634 25-06-2016 04:45:00 19 C 96 % 18.35 C
635 25-06-2016 04:50:00 19 C 96 % 18.35 C
636 25-06-2016 04:55:00 19 C 96 % 18.35 C
637 25-06-2016 05:00:00 19 C 96 % 18.35 C
638 25-06-2016 05:05:00 19 C 96 % 18.35 C
639 25-06-2016 05:10:00 18.9 C 96 % 18.25 C
640 25-06-2016 05:15:00 18.9 C 96 % 18.25 C
641 25-06-2016 05:20:00 18.9 C 96 % 18.25 C
642 25-06-2016 05:25:00 18.9 C 96 % 18.25 C
643 25-06-2016 05:30:00 18.9 C 96 % 18.25 C
644 25-06-2016 05:35:00 18.9 C 96 % 18.25 C
645 25-06-2016 05:40:00 18.9 C 96 % 18.25 C
646 25-06-2016 05:45:00 18.9 C 96 % 18.25 C
647 25-06-2016 05:50:00 18.9 C 96 % 18.25 C
648 25-06-2016 05:55:00 18.9 C 96 % 18.25 C
649 25-06-2016 06:00:00 18.8 C 96 % 18.15 C
650 25-06-2016 06:05:00 18.8 C 96 % 18.15 C
Sensor: Nr:Datum:Temp:Feuchte:Taupunkt:
Aussen-T/F 651 25-06-2016 06:10:00 18.8 C 96 % 18.15 C
652 25-06-2016 06:15:00 18.7 C 96 % 18.05 C
653 25-06-2016 06:20:00 18.7 C 96 % 18.05 C
654 25-06-2016 06:25:00 18.7 C 96 % 18.05 C
655 25-06-2016 06:30:00 18.6 C 96 % 17.95 C
656 25-06-2016 06:35:00 18.6 C 96 % 17.95 C
657 25-06-2016 06:40:00 18.5 C 96 % 17.85 C
658 25-06-2016 06:45:00 18.5 C 96 % 17.85 C
659 25-06-2016 06:50:00 18.4 C 96 % 17.75 C
660 25-06-2016 06:55:00 18.4 C 96 % 17.75 C
661 25-06-2016 07:00:00 18.4 C 96 % 17.75 C
662 25-06-2016 07:05:00 18.4 C 96 % 17.75 C
663 25-06-2016 07:10:00 18.4 C 96 % 17.75 C
664 25-06-2016 07:15:00 18.4 C 96 % 17.75 C
665 25-06-2016 07:20:00 18.4 C 96 % 17.75 C
666 25-06-2016 07:25:00 18.4 C 97 % 17.91 C
667 25-06-2016 07:30:00 18.4 C 97 % 17.91 C
668 25-06-2016 07:35:00 18.4 C 97 % 17.91 C
669 25-06-2016 07:40:00 18.4 C 97 % 17.91 C
670 25-06-2016 07:45:00 18.3 C 96 % 17.65 C
671 25-06-2016 07:50:00 18.3 C 97 % 17.82 C
672 25-06-2016 07:55:00 18.3 C 97 % 17.82 C
673 25-06-2016 08:00:00 18.3 C 97 % 17.82 C
674 25-06-2016 08:05:00 18.3 C 97 % 17.82 C
675 25-06-2016 08:10:00 18.4 C 97 % 17.91 C
Sensor: Nr:Datum:Temp:Feuchte:Taupunkt:
Aussen-T/F 676 25-06-2016 08:15:00 18.4 C 97 % 17.91 C
677 25-06-2016 08:20:00 18.4 C 97 % 17.91 C
678 25-06-2016 08:25:00 18.4 C 97 % 17.91 C
679 25-06-2016 08:30:00 18.5 C 97 % 18.01 C
680 25-06-2016 08:35:00 18.6 C 97 % 18.11 C
681 25-06-2016 08:40:00 18.6 C 97 % 18.11 C
682 25-06-2016 08:45:00 18.3 C 97 % 17.82 C
683 25-06-2016 08:50:00 18.1 C 96 % 17.45 C
684 25-06-2016 08:55:00 17.9 C 96 % 17.25 C
685 25-06-2016 09:00:00 17.8 C 96 % 17.15 C
686 25-06-2016 09:05:00 17.7 C 96 % 17.05 C
687 25-06-2016 09:10:00 17.6 C 96 % 16.95 C
688 25-06-2016 09:15:00 17.6 C 96 % 16.95 C
689 25-06-2016 09:20:00 17.6 C 96 % 16.95 C
690 25-06-2016 09:25:00 17.6 C 96 % 16.95 C
691 25-06-2016 09:30:00 17.6 C 97 % 17.12 C
692 25-06-2016 09:35:00 17.7 C 97 % 17.22 C
693 25-06-2016 09:40:00 17.7 C 97 % 17.22 C
694 25-06-2016 09:45:00 17.7 C 97 % 17.22 C
695 25-06-2016 09:50:00 17.7 C 97 % 17.22 C
696 25-06-2016 09:55:00 17.7 C 96 % 17.05 C
697 25-06-2016 10:00:00 17.7 C 97 % 17.22 C
698 25-06-2016 10:05:00 17.7 C 96 % 17.05 C
699 25-06-2016 10:10:00 17.7 C 97 % 17.22 C
700 25-06-2016 10:15:00 17.8 C 97 % 17.32 C
Sensor: Nr:Datum:Temp:Feuchte:Taupunkt:
Aussen-T/F 701 25-06-2016 10:20:00 17.8 C 97 % 17.32 C
702 25-06-2016 10:25:00 17.8 C 96 % 17.15 C
703 25-06-2016 10:30:00 17.7 C 96 % 17.05 C
704 25-06-2016 10:35:00 17.6 C 96 % 16.95 C
705 25-06-2016 10:40:00 17.5 C 96 % 16.85 C
706 25-06-2016 10:45:00 17.4 C 96 % 16.76 C
707 25-06-2016 10:50:00 17.3 C 96 % 16.66 C
708 25-06-2016 10:55:00 17.2 C 96 % 16.56 C
709 25-06-2016 11:00:00 17.2 C 96 % 16.56 C
710 25-06-2016 11:05:00 17.1 C 96 % 16.46 C
711 25-06-2016 11:10:00 17.1 C 96 % 16.46 C
712 25-06-2016 11:15:00 17.1 C 96 % 16.46 C
713 25-06-2016 11:20:00 17 C 96 % 16.36 C
714 25-06-2016 11:25:00 17 C 96 % 16.36 C
715 25-06-2016 11:30:00 17.1 C 96 % 16.46 C
716 25-06-2016 11:35:00 17 C 96 % 16.36 C
717 25-06-2016 11:40:00 16.9 C 96 % 16.26 C
718 25-06-2016 11:45:00 16.9 C 96 % 16.26 C
719 25-06-2016 11:50:00 16.9 C 96 % 16.26 C
720 25-06-2016 11:55:00 16.9 C 96 % 16.26 C
721 25-06-2016 12:00:00 16.9 C 96 % 16.26 C
722 25-06-2016 12:05:00 16.9 C 96 % 16.26 C
723 25-06-2016 12:10:00 16.9 C 96 % 16.26 C
724 25-06-2016 12:15:00 16.8 C 96 % 16.16 C
725 25-06-2016 12:20:00 16.8 C 96 % 16.16 C
Sensor: Nr:Datum:Temp:Feuchte:Taupunkt:
Aussen-T/F 726 25-06-2016 12:25:00 16.6 C 96 % 15.96 C
727 25-06-2016 12:30:00 16.6 C 96 % 15.96 C
728 25-06-2016 12:35:00 16.6 C 96 % 15.96 C
729 25-06-2016 12:40:00 16.6 C 96 % 15.96 C
730 25-06-2016 12:45:00 16.5 C 96 % 15.86 C
731 25-06-2016 12:50:00 16.4 C 96 % 15.76 C
732 25-06-2016 12:55:00 16.4 C 96 % 15.76 C
733 25-06-2016 13:00:00 16.4 C 96 % 15.76 C
734 25-06-2016 13:05:00 16.3 C 96 % 15.66 C
735 25-06-2016 13:10:00 16.3 C 96 % 15.66 C
736 25-06-2016 13:15:00 16.3 C 96 % 15.66 C
737 25-06-2016 13:20:00 16.2 C 96 % 15.56 C
738 25-06-2016 13:25:00 16.1 C 95 % 15.3 C
739 25-06-2016 13:30:00 16.1 C 96 % 15.46 C
740 25-06-2016 13:35:00 16.2 C 96 % 15.56 C
741 25-06-2016 13:40:00 16.2 C 96 % 15.56 C
742 25-06-2016 13:45:00 16.2 C 96 % 15.56 C
743 25-06-2016 13:50:00 16.2 C 96 % 15.56 C
744 25-06-2016 13:55:00 16.1 C 96 % 15.46 C
745 25-06-2016 14:00:00 16.1 C 96 % 15.46 C
746 25-06-2016 14:05:00 16.1 C 96 % 15.46 C
747 25-06-2016 14:10:00 16.1 C 96 % 15.46 C
748 25-06-2016 14:15:00 16.1 C 96 % 15.46 C
749 25-06-2016 14:20:00 16 C 96 % 15.36 C
750 25-06-2016 14:25:00 15.9 C 96 % 15.26 C
Sensor: Nr:Datum:Temp:Feuchte:Taupunkt:
Aussen-T/F 751 25-06-2016 14:30:00 15.9 C 96 % 15.26 C
752 25-06-2016 14:35:00 15.9 C 96 % 15.26 C
753 25-06-2016 14:40:00 15.8 C 96 % 15.16 C
754 25-06-2016 14:45:00 15.8 C 96 % 15.16 C
755 25-06-2016 14:50:00 15.8 C 96 % 15.16 C
756 25-06-2016 14:55:00 15.8 C 96 % 15.16 C
757 25-06-2016 15:00:00 15.8 C 96 % 15.16 C
758 25-06-2016 15:05:00 15.8 C 96 % 15.16 C
759 25-06-2016 15:10:00 15.8 C 96 % 15.16 C
760 25-06-2016 15:15:00 15.8 C 96 % 15.16 C
761 25-06-2016 15:20:00 15.8 C 96 % 15.16 C
762 25-06-2016 15:25:00 15.8 C 96 % 15.16 C
763 25-06-2016 15:30:00 15.9 C 96 % 15.26 C
764 25-06-2016 15:35:00 15.8 C 96 % 15.16 C
765 25-06-2016 15:40:00 15.7 C 95 % 14.9 C
766 25-06-2016 15:45:00 15.8 C 96 % 15.16 C
767 25-06-2016 15:50:00 15.8 C 96 % 15.16 C
768 25-06-2016 15:55:00 15.7 C 95 % 14.9 C
769 25-06-2016 16:00:00 15.6 C 95 % 14.8 C
770 25-06-2016 16:05:00 15.7 C 96 % 15.06 C
771 25-06-2016 16:10:00 15.6 C 95 % 14.8 C
772 25-06-2016 16:15:00 15.6 C 96 % 14.96 C
773 25-06-2016 16:20:00 15.6 C 96 % 14.96 C
774 25-06-2016 16:25:00 15.5 C 95 % 14.7 C
775 25-06-2016 16:30:00 15.4 C 95 % 14.6 C
Sensor: Nr:Datum:Temp:Feuchte:Taupunkt:
Aussen-T/F 776 25-06-2016 16:35:00 15.4 C 96 % 14.77 C
777 25-06-2016 16:40:00 15.4 C 96 % 14.77 C
778 25-06-2016 16:45:00 15.4 C 96 % 14.77 C
779 25-06-2016 16:50:00 15.3 C 95 % 14.5 C
780 25-06-2016 16:55:00 15.3 C 95 % 14.5 C
781 25-06-2016 17:00:00 15.3 C 95 % 14.5 C
782 25-06-2016 17:05:00 15.2 C 95 % 14.4 C
783 25-06-2016 17:10:00 15.2 C 95 % 14.4 C
784 25-06-2016 17:15:00 15.3 C 96 % 14.67 C
785 25-06-2016 17:20:00 15.3 C 96 % 14.67 C
786 25-06-2016 17:25:00 15.4 C 96 % 14.77 C
787 25-06-2016 17:30:00 15.5 C 96 % 14.86 C
788 25-06-2016 17:35:00 15.6 C 96 % 14.96 C
789 25-06-2016 17:40:00 15.7 C 96 % 15.06 C
790 25-06-2016 17:45:00 15.7 C 96 % 15.06 C
791 25-06-2016 17:50:00 15.7 C 96 % 15.06 C
792 25-06-2016 17:55:00 15.6 C 95 % 14.8 C
793 25-06-2016 18:00:00 15.6 C 95 % 14.8 C
794 25-06-2016 18:05:00 15.7 C 95 % 14.9 C
795 25-06-2016 18:10:00 15.7 C 95 % 14.9 C
796 25-06-2016 18:15:00 15.8 C 95 % 15 C
797 25-06-2016 18:20:00 15.8 C 95 % 15 C
798 25-06-2016 18:25:00 15.8 C 95 % 15 C
799 25-06-2016 18:30:00 15.7 C 95 % 14.9 C
800 25-06-2016 18:35:00 15.6 C 95 % 14.8 C
Sensor: Nr:Datum:Temp:Feuchte:Taupunkt:
Aussen-T/F 801 25-06-2016 18:40:00 15.6 C 95 % 14.8 C
802 25-06-2016 18:45:00 15.6 C 95 % 14.8 C
803 25-06-2016 18:50:00 15.6 C 95 % 14.8 C
804 25-06-2016 18:55:00 15.6 C 95 % 14.8 C
805 25-06-2016 19:00:00 15.6 C 95 % 14.8 C
806 25-06-2016 19:05:00 15.6 C 95 % 14.8 C
807 25-06-2016 19:10:00 15.5 C 95 % 14.7 C
808 25-06-2016 19:15:00 15.4 C 95 % 14.6 C
809 25-06-2016 19:20:00 15.3 C 95 % 14.5 C
810 25-06-2016 19:25:00 15.2 C 95 % 14.4 C
811 25-06-2016 19:30:00 15.1 C 95 % 14.31 C
812 25-06-2016 19:35:00 15.1 C 95 % 14.31 C
813 25-06-2016 19:40:00 15.1 C 95 % 14.31 C
814 25-06-2016 19:45:00 15 C 95 % 14.21 C
815 25-06-2016 19:50:00 15 C 95 % 14.21 C
816 25-06-2016 19:55:00 14.9 C 95 % 14.11 C
817 25-06-2016 20:00:00 15 C 96 % 14.37 C
818 25-06-2016 20:05:00 15.1 C 96 % 14.47 C
819 25-06-2016 20:10:00 15.2 C 96 % 14.57 C
820 25-06-2016 20:15:00 15.1 C 96 % 14.47 C
821 25-06-2016 20:20:00 15.1 C 96 % 14.47 C
822 25-06-2016 20:25:00 15.2 C 96 % 14.57 C
823 25-06-2016 20:30:00 15.2 C 96 % 14.57 C
824 25-06-2016 20:35:00 15.1 C 96 % 14.47 C
825 25-06-2016 20:40:00 15.1 C 96 % 14.47 C
Sensor: Nr:Datum:Temp:Feuchte:Taupunkt:
Aussen-T/F 826 25-06-2016 20:45:00 15 C 96 % 14.37 C
827 25-06-2016 20:50:00 15.1 C 96 % 14.47 C
828 25-06-2016 20:55:00 15.1 C 96 % 14.47 C
829 25-06-2016 21:00:00 15 C 96 % 14.37 C
830 25-06-2016 21:05:00 14.9 C 96 % 14.27 C
831 25-06-2016 21:10:00 14.8 C 96 % 14.17 C
832 25-06-2016 21:15:00 14.6 C 95 % 13.81 C
833 25-06-2016 21:20:00 14.3 C 95 % 13.51 C
834 25-06-2016 21:25:00 14.2 C 95 % 13.41 C
835 25-06-2016 21:30:00 14.1 C 95 % 13.31 C
836 25-06-2016 21:35:00 13.9 C 95 % 13.11 C
837 25-06-2016 21:40:00 13.8 C 95 % 13.01 C
838 25-06-2016 21:45:00 13.8 C 95 % 13.01 C
839 25-06-2016 21:50:00 13.7 C 96 % 13.07 C
840 25-06-2016 21:55:00 13.6 C 96 % 12.97 C
841 25-06-2016 22:00:00 13.6 C 95 % 12.81 C
842 25-06-2016 22:05:00 13.5 C 96 % 12.87 C
843 25-06-2016 22:10:00 13.4 C 96 % 12.78 C
844 25-06-2016 22:15:00 13.4 C 96 % 12.78 C
845 25-06-2016 22:20:00 13.3 C 96 % 12.68 C
846 25-06-2016 22:25:00 13.2 C 96 % 12.58 C
847 25-06-2016 22:30:00 13.2 C 96 % 12.58 C
848 25-06-2016 22:35:00 13.2 C 96 % 12.58 C
849 25-06-2016 22:40:00 13.2 C 96 % 12.58 C
850 25-06-2016 22:45:00 13.2 C 96 % 12.58 C
Sensor: Nr:Datum:Temp:Feuchte:Taupunkt:
Aussen-T/F 851 25-06-2016 22:50:00 13.1 C 96 % 12.48 C
852 25-06-2016 22:55:00 13.1 C 96 % 12.48 C
853 25-06-2016 23:00:00 13 C 96 % 12.38 C
854 25-06-2016 23:05:00 12.9 C 96 % 12.28 C
855 25-06-2016 23:10:00 12.8 C 96 % 12.18 C
856 25-06-2016 23:15:00 12.8 C 96 % 12.18 C
857 25-06-2016 23:20:00 12.8 C 96 % 12.18 C
858 25-06-2016 23:25:00 12.8 C 96 % 12.18 C
859 25-06-2016 23:30:00 12.8 C 96 % 12.18 C
860 25-06-2016 23:35:00 12.7 C 96 % 12.08 C
861 25-06-2016 23:40:00 12.7 C 96 % 12.08 C
862 25-06-2016 23:45:00 12.7 C 96 % 12.08 C
863 25-06-2016 23:50:00 12.6 C 96 % 11.98 C
864 25-06-2016 23:55:00 12.6 C 96 % 11.98 C
865 26-06-2016 00:00:00 12.6 C 96 % 11.98 C
866 26-06-2016 00:05:00 12.6 C 96 % 11.98 C
867 26-06-2016 00:10:00 12.5 C 96 % 11.88 C
868 26-06-2016 00:15:00 12.5 C 97 % 12.04 C
869 26-06-2016 00:20:00 12.5 C 97 % 12.04 C
870 26-06-2016 00:25:00 12.5 C 97 % 12.04 C
871 26-06-2016 00:30:00 12.5 C 97 % 12.04 C
872 26-06-2016 00:35:00 12.5 C 97 % 12.04 C
873 26-06-2016 00:40:00 12.6 C 97 % 12.14 C
874 26-06-2016 00:45:00 12.7 C 97 % 12.24 C
875 26-06-2016 00:50:00 12.8 C 97 % 12.34 C
Sensor: Nr:Datum:Temp:Feuchte:Taupunkt:
Aussen-T/F 876 26-06-2016 00:55:00 12.9 C 97 % 12.44 C
877 26-06-2016 01:00:00 13.1 C 97 % 12.63 C
878 26-06-2016 01:05:00 13.2 C 97 % 12.73 C
879 26-06-2016 01:10:00 13.3 C 97 % 12.83 C
880 26-06-2016 01:15:00 13.4 C 97 % 12.93 C
881 26-06-2016 01:20:00 13.4 C 97 % 12.93 C
882 26-06-2016 01:25:00 13.4 C 97 % 12.93 C
883 26-06-2016 01:30:00 13.5 C 97 % 13.03 C
884 26-06-2016 01:35:00 13.5 C 97 % 13.03 C
885 26-06-2016 01:40:00 13.5 C 97 % 13.03 C
886 26-06-2016 01:45:00 13.4 C 97 % 12.93 C
887 26-06-2016 01:50:00 13.3 C 97 % 12.83 C
888 26-06-2016 01:55:00 13.3 C 97 % 12.83 C
889 26-06-2016 02:00:00 13.2 C 97 % 12.73 C
890 26-06-2016 02:05:00 13.1 C 97 % 12.63 C
891 26-06-2016 02:10:00 13.1 C 97 % 12.63 C
892 26-06-2016 02:15:00 13.1 C 97 % 12.63 C
893 26-06-2016 02:20:00 13.1 C 97 % 12.63 C
894 26-06-2016 02:25:00 13.1 C 97 % 12.63 C
895 26-06-2016 02:30:00 13.1 C 97 % 12.63 C
896 26-06-2016 02:35:00 13 C 97 % 12.54 C
897 26-06-2016 02:40:00 13 C 97 % 12.54 C
898 26-06-2016 02:45:00 13 C 97 % 12.54 C
899 26-06-2016 02:50:00 12.9 C 97 % 12.44 C
900 26-06-2016 02:55:00 12.9 C 97 % 12.44 C
Sensor: Nr:Datum:Temp:Feuchte:Taupunkt:
Aussen-T/F 901 26-06-2016 03:00:00 12.9 C 97 % 12.44 C
902 26-06-2016 03:05:00 12.9 C 97 % 12.44 C
903 26-06-2016 03:10:00 12.9 C 97 % 12.44 C
904 26-06-2016 03:15:00 12.8 C 97 % 12.34 C
905 26-06-2016 03:20:00 12.8 C 97 % 12.34 C
906 26-06-2016 03:25:00 12.8 C 97 % 12.34 C
907 26-06-2016 03:30:00 12.8 C 97 % 12.34 C
908 26-06-2016 03:35:00 12.7 C 97 % 12.24 C
909 26-06-2016 03:40:00 12.7 C 97 % 12.24 C
910 26-06-2016 03:45:00 12.6 C 97 % 12.14 C
911 26-06-2016 03:50:00 12.6 C 97 % 12.14 C
912 26-06-2016 03:55:00 12.5 C 97 % 12.04 C
913 26-06-2016 04:00:00 12.4 C 97 % 11.94 C
914 26-06-2016 04:05:00 12.4 C 97 % 11.94 C
915 26-06-2016 04:10:00 12.3 C 97 % 11.84 C
916 26-06-2016 04:15:00 12.3 C 97 % 11.84 C
917 26-06-2016 04:20:00 12.2 C 97 % 11.74 C
918 26-06-2016 04:25:00 12.2 C 97 % 11.74 C
919 26-06-2016 04:30:00 12.2 C 97 % 11.74 C
920 26-06-2016 04:35:00 12.1 C 97 % 11.64 C
921 26-06-2016 04:40:00 12.1 C 97 % 11.64 C
922 26-06-2016 04:45:00 12 C 97 % 11.54 C
923 26-06-2016 04:50:00 12 C 97 % 11.54 C
924 26-06-2016 04:55:00 11.9 C 97 % 11.44 C
925 26-06-2016 05:00:00 11.8 C 97 % 11.34 C
Sensor: Nr:Datum:Temp:Feuchte:Taupunkt:
Aussen-T/F 926 26-06-2016 05:05:00 11.7 C 97 % 11.24 C
927 26-06-2016 05:10:00 11.7 C 97 % 11.24 C
928 26-06-2016 05:15:00 11.6 C 97 % 11.14 C
929 26-06-2016 05:20:00 11.5 C 97 % 11.04 C
930 26-06-2016 05:25:00 11.3 C 97 % 10.84 C
931 26-06-2016 05:30:00 11.3 C 97 % 10.84 C
932 26-06-2016 05:35:00 11.2 C 97 % 10.74 C
933 26-06-2016 05:40:00 11.2 C 97 % 10.74 C
934 26-06-2016 05:45:00 11.2 C 97 % 10.74 C
935 26-06-2016 05:50:00 11.2 C 97 % 10.74 C
936 26-06-2016 05:55:00 11.2 C 97 % 10.74 C
937 26-06-2016 06:00:00 11.2 C 97 % 10.74 C
938 26-06-2016 06:05:00 11.3 C 97 % 10.84 C
939 26-06-2016 06:10:00 11.3 C 97 % 10.84 C
940 26-06-2016 06:15:00 11.3 C 97 % 10.84 C
941 26-06-2016 06:20:00 11.3 C 97 % 10.84 C
942 26-06-2016 06:25:00 11.4 C 97 % 10.94 C
943 26-06-2016 06:30:00 11.4 C 97 % 10.94 C
944 26-06-2016 06:35:00 11.5 C 97 % 11.04 C
945 26-06-2016 06:40:00 11.6 C 97 % 11.14 C
946 26-06-2016 06:45:00 11.6 C 97 % 11.14 C
947 26-06-2016 06:50:00 11.7 C 97 % 11.24 C
948 26-06-2016 06:55:00 11.7 C 97 % 11.24 C
949 26-06-2016 07:00:00 11.8 C 97 % 11.34 C
950 26-06-2016 07:05:00 11.8 C 97 % 11.34 C
Sensor: Nr:Datum:Temp:Feuchte:Taupunkt:
Aussen-T/F 951 26-06-2016 07:10:00 11.9 C 97 % 11.44 C
952 26-06-2016 07:15:00 12 C 98 % 11.69 C
953 26-06-2016 07:20:00 12.1 C 97 % 11.64 C
954 26-06-2016 07:25:00 12.2 C 97 % 11.74 C
955 26-06-2016 07:30:00 12.2 C 98 % 11.89 C
956 26-06-2016 07:35:00 12.3 C 98 % 11.99 C
957 26-06-2016 07:40:00 12.5 C 98 % 12.19 C
958 26-06-2016 07:45:00 12.8 C 98 % 12.49 C
959 26-06-2016 07:50:00 12.9 C 98 % 12.59 C
960 26-06-2016 07:55:00 13 C 98 % 12.69 C
961 26-06-2016 08:00:00 13 C 98 % 12.69 C
962 26-06-2016 08:05:00 13 C 98 % 12.69 C
963 26-06-2016 08:10:00 13 C 98 % 12.69 C
964 26-06-2016 08:15:00 13 C 97 % 12.54 C
965 26-06-2016 08:20:00 13.1 C 97 % 12.63 C
966 26-06-2016 08:25:00 13.1 C 97 % 12.63 C
967 26-06-2016 08:30:00 13.1 C 97 % 12.63 C
968 26-06-2016 08:35:00 13 C 97 % 12.54 C
969 26-06-2016 08:40:00 13 C 97 % 12.54 C
970 26-06-2016 08:45:00 13.1 C 97 % 12.63 C
971 26-06-2016 08:50:00 13.1 C 97 % 12.63 C
972 26-06-2016 08:55:00 13.2 C 97 % 12.73 C
973 26-06-2016 09:00:00 13.2 C 97 % 12.73 C
974 26-06-2016 09:05:00 13.3 C 97 % 12.83 C
975 26-06-2016 09:10:00 13.3 C 97 % 12.83 C
Sensor: Nr:Datum:Temp:Feuchte:Taupunkt:
Aussen-T/F 976 26-06-2016 09:15:00 13.5 C 97 % 13.03 C
977 26-06-2016 09:20:00 13.6 C 96 % 12.97 C
978 26-06-2016 09:25:00 13.8 C 96 % 13.17 C
979 26-06-2016 09:30:00 13.9 C 95 % 13.11 C
980 26-06-2016 09:35:00 14.2 C 94 % 13.25 C
981 26-06-2016 09:40:00 14.4 C 94 % 13.45 C
982 26-06-2016 09:45:00 14.6 C 93 % 13.48 C
983 26-06-2016 09:50:00 14.7 C 90 % 13.08 C
984 26-06-2016 09:55:00 14.9 C 90 % 13.28 C
985 26-06-2016 10:00:00 15.2 C 90 % 13.57 C
986 26-06-2016 10:05:00 15.4 C 88 % 13.42 C
987 26-06-2016 10:10:00 15.6 C 88 % 13.62 C
988 26-06-2016 10:15:00 15.8 C 88 % 13.82 C
989 26-06-2016 10:20:00 16 C 88 % 14.01 C
990 26-06-2016 10:25:00 16.3 C 86 % 13.95 C
991 26-06-2016 10:30:00 16.4 C 84 % 13.69 C
992 26-06-2016 10:35:00 16.4 C 83 % 13.51 C
993 26-06-2016 10:40:00 16.4 C 84 % 13.69 C
994 26-06-2016 10:45:00 16.6 C 81 % 13.33 C
995 26-06-2016 10:50:00 16.7 C 81 % 13.43 C
996 26-06-2016 10:55:00 16.8 C 79 % 13.14 C
997 26-06-2016 11:00:00 16.7 C 80 % 13.23 C
998 26-06-2016 11:05:00 16.8 C 80 % 13.33 C
999 26-06-2016 11:10:00 16.9 C 78 % 13.04 C
1000 26-06-2016 11:15:00 17 C 79 % 13.33 C
Sensor: Nr:Datum:Temp:Feuchte:Taupunkt:
Aussen-T/F 1001 26-06-2016 11:20:00 17 C 80 % 13.53 C
1002 26-06-2016 11:25:00 17 C 78 % 13.14 C
1003 26-06-2016 11:30:00 17 C 77 % 12.94 C
1004 26-06-2016 11:35:00 17.1 C 76 % 12.84 C
1005 26-06-2016 11:40:00 17.2 C 75 % 12.73 C
1006 26-06-2016 11:45:00 17.3 C 76 % 13.03 C
1007 26-06-2016 11:50:00 17.4 C 75 % 12.93 C
1008 26-06-2016 11:55:00 17.5 C 73 % 12.61 C
1009 26-06-2016 12:00:00 17.4 C 75 % 12.93 C
1010 26-06-2016 12:05:00 17.4 C 73 % 12.51 C
1011 26-06-2016 12:10:00 17.6 C 75 % 13.12 C
1012 26-06-2016 12:15:00 17.7 C 73 % 12.8 C
1013 26-06-2016 12:20:00 17.8 C 72 % 12.69 C
1014 26-06-2016 12:25:00 18 C 71 % 12.67 C
1015 26-06-2016 12:30:00 18 C 73 % 13.09 C
1016 26-06-2016 12:35:00 18.1 C 72 % 12.98 C
1017 26-06-2016 12:40:00 18.1 C 74 % 13.4 C
1018 26-06-2016 12:45:00 18.1 C 73 % 13.19 C
1019 26-06-2016 12:50:00 18.3 C 73 % 13.38 C
1020 26-06-2016 12:55:00 18.4 C 72 % 13.26 C
1021 26-06-2016 13:00:00 18.6 C 71 % 13.24 C
1022 26-06-2016 13:05:00 18.8 C 68 % 12.77 C
1023 26-06-2016 13:10:00 19.1 C 69 % 13.28 C
1024 26-06-2016 13:15:00 19.1 C 68 % 13.06 C
1025 26-06-2016 13:20:00 19.2 C 68 % 13.15 C
Sensor: Nr:Datum:Temp:Feuchte:Taupunkt:
Aussen-T/F 1026 26-06-2016 13:25:00 19.4 C 65 % 12.66 C
1027 26-06-2016 13:30:00 19.6 C 65 % 12.84 C
1028 26-06-2016 13:35:00 19.6 C 67 % 13.31 C
1029 26-06-2016 13:40:00 19.5 C 65 % 12.75 C
1030 26-06-2016 13:45:00 19.6 C 67 % 13.31 C
1031 26-06-2016 13:50:00 19.6 C 68 % 13.54 C
1032 26-06-2016 13:55:00 19.7 C 67 % 13.4 C
1033 26-06-2016 14:00:00 19.7 C 62 % 12.22 C
1034 26-06-2016 14:05:00 19.6 C 65 % 12.84 C
1035 26-06-2016 14:10:00 19.4 C 68 % 13.34 C
1036 26-06-2016 14:15:00 19.4 C 72 % 14.22 C
1037 26-06-2016 14:20:00 19.6 C 68 % 13.54 C
1038 26-06-2016 14:25:00 19.7 C 67 % 13.4 C
1039 26-06-2016 14:30:00 19.8 C 67 % 13.5 C
1040 26-06-2016 14:35:00 19.9 C 70 % 14.27 C
1041 26-06-2016 14:40:00 19.8 C 69 % 13.95 C
1042 26-06-2016 14:45:00 19.9 C 65 % 13.13 C
1043 26-06-2016 14:50:00 19.8 C 68 % 13.73 C
1044 26-06-2016 14:55:00 19.8 C 69 % 13.95 C
1045 26-06-2016 15:00:00 19.8 C 66 % 13.27 C
1046 26-06-2016 15:05:00 19.8 C 66 % 13.27 C
1047 26-06-2016 15:10:00 19.9 C 68 % 13.82 C
1048 26-06-2016 15:15:00 19.9 C 68 % 13.82 C
1049 26-06-2016 15:20:00 19.9 C 66 % 13.36 C
1050 26-06-2016 15:25:00 19.8 C 69 % 13.95 C
Sensor: Nr:Datum:Temp:Feuchte:Taupunkt:
Aussen-T/F 1051 26-06-2016 15:30:00 20.1 C 69 % 14.24 C
1052 26-06-2016 15:35:00 20.6 C 66 % 14.03 C
1053 26-06-2016 15:40:00 21.1 C 62 % 13.54 C
1054 26-06-2016 15:45:00 21.4 C 62 % 13.82 C
1055 26-06-2016 15:50:00 21.6 C 64 % 14.5 C
1056 26-06-2016 15:55:00 21.9 C 62 % 14.29 C
1057 26-06-2016 16:00:00 21.9 C 60 % 13.79 C
1058 26-06-2016 16:05:00 21.4 C 59 % 13.06 C
1059 26-06-2016 16:10:00 20.9 C 64 % 13.84 C
1060 26-06-2016 16:15:00 20.5 C 63 % 13.22 C
1061 26-06-2016 16:20:00 20.2 C 65 % 13.41 C
1062 26-06-2016 16:25:00 20.1 C 64 % 13.08 C
1063 26-06-2016 16:30:00 20.1 C 67 % 13.78 C
1064 26-06-2016 16:35:00 20.2 C 69 % 14.33 C
1065 26-06-2016 16:40:00 20.2 C 65 % 13.41 C
1066 26-06-2016 16:45:00 20.4 C 68 % 14.3 C
1067 26-06-2016 16:50:00 20.9 C 65 % 14.08 C
1068 26-06-2016 16:55:00 21.3 C 62 % 13.73 C
1069 26-06-2016 17:00:00 21.3 C 62 % 13.73 C
1070 26-06-2016 17:05:00 20.9 C 60 % 12.85 C
1071 26-06-2016 17:10:00 20.4 C 59 % 12.12 C
1072 26-06-2016 17:15:00 19.7 C 63 % 12.46 C
1073 26-06-2016 17:20:00 19.3 C 68 % 13.25 C
1074 26-06-2016 17:25:00 19.1 C 66 % 12.6 C
1075 26-06-2016 17:30:00 18.9 C 71 % 13.53 C
Sensor: Nr:Datum:Temp:Feuchte:Taupunkt:
Aussen-T/F 1076 26-06-2016 17:35:00 18.7 C 68 % 12.68 C
1077 26-06-2016 17:40:00 18.7 C 72 % 13.55 C
1078 26-06-2016 17:45:00 18.7 C 72 % 13.55 C
1079 26-06-2016 17:50:00 18.8 C 71 % 13.43 C
1080 26-06-2016 17:55:00 18.8 C 69 % 13 C
1081 26-06-2016 18:00:00 18.9 C 72 % 13.74 C
1082 26-06-2016 18:05:00 18.9 C 69 % 13.09 C
1083 26-06-2016 18:10:00 18.9 C 71 % 13.53 C
1084 26-06-2016 18:15:00 18.8 C 69 % 13 C
1085 26-06-2016 18:20:00 18.8 C 73 % 13.86 C
1086 26-06-2016 18:25:00 18.7 C 75 % 14.18 C
1087 26-06-2016 18:30:00 18.6 C 76 % 14.29 C
1088 26-06-2016 18:35:00 18.6 C 77 % 14.49 C
1089 26-06-2016 18:40:00 18.6 C 80 % 15.08 C
1090 26-06-2016 18:45:00 18.6 C 78 % 14.69 C
1091 26-06-2016 18:50:00 18.6 C 72 % 13.46 C
1092 26-06-2016 18:55:00 18.1 C 71 % 12.76 C
1093 26-06-2016 19:00:00 17.7 C 72 % 12.59 C
1094 26-06-2016 19:05:00 17.4 C 74 % 12.72 C
1095 26-06-2016 19:10:00 17.6 C 75 % 13.12 C
1096 26-06-2016 19:15:00 17.8 C 75 % 13.31 C
1097 26-06-2016 19:20:00 18.2 C 75 % 13.7 C
1098 26-06-2016 19:25:00 18.3 C 75 % 13.79 C
1099 26-06-2016 19:30:00 18.2 C 75 % 13.7 C
1100 26-06-2016 19:35:00 18 C 75 % 13.51 C
Sensor: Nr:Datum:Temp:Feuchte:Taupunkt:
Aussen-T/F 1101 26-06-2016 19:40:00 17.8 C 75 % 13.31 C
1102 26-06-2016 19:45:00 17.7 C 76 % 13.42 C
1103 26-06-2016 19:50:00 17.5 C 81 % 14.2 C
1104 26-06-2016 19:55:00 17.3 C 83 % 14.39 C
1105 26-06-2016 20:00:00 17.1 C 83 % 14.19 C
1106 26-06-2016 20:05:00 16.8 C 84 % 14.08 C
1107 26-06-2016 20:10:00 16.6 C 86 % 14.25 C
1108 26-06-2016 20:15:00 16.4 C 86 % 14.05 C
1109 26-06-2016 20:20:00 16.2 C 87 % 14.03 C
1110 26-06-2016 20:25:00 16.1 C 88 % 14.11 C
1111 26-06-2016 20:30:00 15.9 C 88 % 13.92 C
1112 26-06-2016 20:35:00 15.7 C 88 % 13.72 C
1113 26-06-2016 20:40:00 15.6 C 89 % 13.79 C
1114 26-06-2016 20:45:00 15.4 C 89 % 13.6 C
1115 26-06-2016 20:50:00 15.3 C 89 % 13.5 C
1116 26-06-2016 20:55:00 15.2 C 90 % 13.57 C
1117 26-06-2016 21:00:00 15.1 C 90 % 13.47 C
1118 26-06-2016 21:05:00 15.1 C 91 % 13.64 C
1119 26-06-2016 21:10:00 15 C 90 % 13.37 C
1120 26-06-2016 21:15:00 15 C 91 % 13.54 C
1121 26-06-2016 21:20:00 14.9 C 90 % 13.28 C
1122 26-06-2016 21:25:00 14.8 C 90 % 13.18 C
1123 26-06-2016 21:30:00 14.8 C 91 % 13.35 C
1124 26-06-2016 21:35:00 14.7 C 91 % 13.25 C
1125 26-06-2016 21:40:00 14.6 C 91 % 13.15 C
Sensor: Nr:Datum:Temp:Feuchte:Taupunkt:
Aussen-T/F 1126 26-06-2016 21:45:00 14.5 C 91 % 13.05 C
1127 26-06-2016 21:50:00 14.3 C 91 % 12.85 C
1128 26-06-2016 21:55:00 14.2 C 91 % 12.75 C
1129 26-06-2016 22:00:00 14 C 91 % 12.56 C
1130 26-06-2016 22:05:00 13.8 C 91 % 12.36 C
1131 26-06-2016 22:10:00 13.7 C 91 % 12.26 C
1132 26-06-2016 22:15:00 13.5 C 92 % 12.23 C
1133 26-06-2016 22:20:00 13.4 C 92 % 12.13 C
1134 26-06-2016 22:25:00 13.3 C 92 % 12.03 C
1135 26-06-2016 22:30:00 13.2 C 93 % 12.09 C
1136 26-06-2016 22:35:00 13.1 C 93 % 11.99 C
1137 26-06-2016 22:40:00 13 C 93 % 11.9 C
1138 26-06-2016 22:45:00 12.9 C 94 % 11.96 C
1139 26-06-2016 22:50:00 12.9 C 93 % 11.8 C
1140 26-06-2016 22:55:00 12.8 C 94 % 11.86 C
1141 26-06-2016 23:00:00 12.8 C 94 % 11.86 C
1142 26-06-2016 23:05:00 12.8 C 94 % 11.86 C
1143 26-06-2016 23:10:00 12.7 C 94 % 11.76 C
1144 26-06-2016 23:15:00 12.7 C 94 % 11.76 C
1145 26-06-2016 23:20:00 12.6 C 94 % 11.66 C
1146 26-06-2016 23:25:00 12.6 C 94 % 11.66 C
1147 26-06-2016 23:30:00 12.6 C 94 % 11.66 C
1148 26-06-2016 23:35:00 12.6 C 95 % 11.82 C
1149 26-06-2016 23:40:00 12.5 C 95 % 11.72 C
1150 26-06-2016 23:45:00 12.5 C 95 % 11.72 C
Sensor: Nr:Datum:Temp:Feuchte:Taupunkt:
Aussen-T/F 1151 26-06-2016 23:50:00 12.5 C 95 % 11.72 C
1152 26-06-2016 23:55:00 12.5 C 95 % 11.72 C
1153 27-06-2016 00:00:00 12.5 C 95 % 11.72 C
1154 27-06-2016 00:05:00 12.4 C 95 % 11.62 C
1155 27-06-2016 00:10:00 12.4 C 95 % 11.62 C
1156 27-06-2016 00:15:00 12.4 C 95 % 11.62 C
1157 27-06-2016 00:20:00 12.4 C 95 % 11.62 C
1158 27-06-2016 00:25:00 12.4 C 95 % 11.62 C
1159 27-06-2016 00:30:00 12.4 C 95 % 11.62 C
1160 27-06-2016 00:35:00 12.3 C 95 % 11.52 C
1161 27-06-2016 00:40:00 12.3 C 95 % 11.52 C
1162 27-06-2016 00:45:00 12.2 C 95 % 11.42 C
1163 27-06-2016 00:50:00 12.2 C 95 % 11.42 C
1164 27-06-2016 00:55:00 12.2 C 95 % 11.42 C
1165 27-06-2016 01:00:00 12.2 C 95 % 11.42 C
1166 27-06-2016 01:05:00 12.2 C 95 % 11.42 C
1167 27-06-2016 01:10:00 12.2 C 95 % 11.42 C
1168 27-06-2016 01:15:00 12.2 C 95 % 11.42 C
1169 27-06-2016 01:20:00 12.2 C 95 % 11.42 C
1170 27-06-2016 01:25:00 12.2 C 95 % 11.42 C
1171 27-06-2016 01:30:00 12.2 C 95 % 11.42 C
1172 27-06-2016 01:35:00 12.2 C 96 % 11.58 C
1173 27-06-2016 01:40:00 12.1 C 95 % 11.32 C
1174 27-06-2016 01:45:00 12.1 C 95 % 11.32 C
1175 27-06-2016 01:50:00 12 C 95 % 11.22 C
Sensor: Nr:Datum:Temp:Feuchte:Taupunkt:
Aussen-T/F 1176 27-06-2016 01:55:00 12 C 95 % 11.22 C
1177 27-06-2016 02:00:00 11.9 C 95 % 11.13 C
1178 27-06-2016 02:05:00 11.9 C 95 % 11.13 C
1179 27-06-2016 02:10:00 11.9 C 95 % 11.13 C
1180 27-06-2016 02:15:00 11.9 C 96 % 11.28 C
1181 27-06-2016 02:20:00 11.9 C 96 % 11.28 C
1182 27-06-2016 02:25:00 11.9 C 96 % 11.28 C
1183 27-06-2016 02:30:00 11.8 C 96 % 11.18 C
1184 27-06-2016 02:35:00 11.8 C 95 % 11.03 C
1185 27-06-2016 02:40:00 11.8 C 95 % 11.03 C
1186 27-06-2016 02:45:00 11.9 C 96 % 11.28 C
1187 27-06-2016 02:50:00 11.9 C 96 % 11.28 C
1188 27-06-2016 02:55:00 11.9 C 96 % 11.28 C
1189 27-06-2016 03:00:00 11.9 C 96 % 11.28 C
1190 27-06-2016 03:05:00 12 C 96 % 11.38 C
1191 27-06-2016 03:10:00 12.1 C 96 % 11.48 C
1192 27-06-2016 03:15:00 12.1 C 96 % 11.48 C
1193 27-06-2016 03:20:00 12.2 C 96 % 11.58 C
1194 27-06-2016 03:25:00 12.3 C 96 % 11.68 C
1195 27-06-2016 03:30:00 12.4 C 96 % 11.78 C
1196 27-06-2016 03:35:00 12.4 C 96 % 11.78 C
1197 27-06-2016 03:40:00 12.5 C 96 % 11.88 C
1198 27-06-2016 03:45:00 12.5 C 96 % 11.88 C
1199 27-06-2016 03:50:00 12.4 C 96 % 11.78 C
1200 27-06-2016 03:55:00 12.3 C 96 % 11.68 C
Sensor: Nr:Datum:Temp:Feuchte:Taupunkt:
Aussen-T/F 1201 27-06-2016 04:00:00 12.3 C 96 % 11.68 C
1202 27-06-2016 04:05:00 12.3 C 96 % 11.68 C
1203 27-06-2016 04:10:00 12.2 C 95 % 11.42 C
1204 27-06-2016 04:15:00 12.2 C 96 % 11.58 C
1205 27-06-2016 04:20:00 12.2 C 95 % 11.42 C
1206 27-06-2016 04:25:00 12.1 C 95 % 11.32 C
1207 27-06-2016 04:30:00 12.1 C 95 % 11.32 C
1208 27-06-2016 04:35:00 12.1 C 96 % 11.48 C
1209 27-06-2016 04:40:00 12.1 C 96 % 11.48 C
1210 27-06-2016 04:45:00 12.2 C 96 % 11.58 C
1211 27-06-2016 04:50:00 12.2 C 96 % 11.58 C
1212 27-06-2016 04:55:00 12.2 C 96 % 11.58 C
1213 27-06-2016 05:00:00 12.2 C 96 % 11.58 C
1214 27-06-2016 05:05:00 12.2 C 96 % 11.58 C
1215 27-06-2016 05:10:00 12.2 C 95 % 11.42 C
1216 27-06-2016 05:15:00 12.1 C 95 % 11.32 C
1217 27-06-2016 05:20:00 12.1 C 95 % 11.32 C
1218 27-06-2016 05:25:00 12 C 95 % 11.22 C
1219 27-06-2016 05:30:00 11.9 C 95 % 11.13 C
1220 27-06-2016 05:35:00 11.9 C 95 % 11.13 C
1221 27-06-2016 05:40:00 11.9 C 95 % 11.13 C
1222 27-06-2016 05:45:00 11.8 C 95 % 11.03 C
1223 27-06-2016 05:50:00 11.8 C 95 % 11.03 C
1224 27-06-2016 05:55:00 11.8 C 95 % 11.03 C
1225 27-06-2016 06:00:00 11.8 C 95 % 11.03 C
Sensor: Nr:Datum:Temp:Feuchte:Taupunkt:
Aussen-T/F 1226 27-06-2016 06:05:00 11.7 C 95 % 10.93 C
1227 27-06-2016 06:10:00 11.7 C 95 % 10.93 C
1228 27-06-2016 06:15:00 11.7 C 95 % 10.93 C
1229 27-06-2016 06:20:00 11.6 C 95 % 10.83 C
1230 27-06-2016 06:25:00 11.5 C 95 % 10.73 C
1231 27-06-2016 06:30:00 11.4 C 95 % 10.63 C
1232 27-06-2016 06:35:00 11.4 C 95 % 10.63 C
1233 27-06-2016 06:40:00 11.4 C 95 % 10.63 C
1234 27-06-2016 06:45:00 11.4 C 95 % 10.63 C
1235 27-06-2016 06:50:00 11.4 C 95 % 10.63 C
1236 27-06-2016 06:55:00 11.4 C 95 % 10.63 C
1237 27-06-2016 07:00:00 11.4 C 95 % 10.63 C
1238 27-06-2016 07:05:00 11.4 C 95 % 10.63 C
1239 27-06-2016 07:10:00 11.4 C 96 % 10.79 C
1240 27-06-2016 07:15:00 11.4 C 96 % 10.79 C
1241 27-06-2016 07:20:00 11.5 C 96 % 10.88 C
1242 27-06-2016 07:25:00 11.5 C 96 % 10.88 C
1243 27-06-2016 07:30:00 11.6 C 96 % 10.98 C
1244 27-06-2016 07:35:00 11.7 C 96 % 11.08 C
1245 27-06-2016 07:40:00 11.8 C 96 % 11.18 C
1246 27-06-2016 07:45:00 12 C 96 % 11.38 C
1247 27-06-2016 07:50:00 12.2 C 96 % 11.58 C
1248 27-06-2016 07:55:00 12.3 C 96 % 11.68 C
1249 27-06-2016 08:00:00 12.6 C 96 % 11.98 C
1250 27-06-2016 08:05:00 12.7 C 96 % 12.08 C
Sensor: Nr:Datum:Temp:Feuchte:Taupunkt:
Aussen-T/F 1251 27-06-2016 08:10:00 12.8 C 96 % 12.18 C
1252 27-06-2016 08:15:00 13.1 C 96 % 12.48 C
1253 27-06-2016 08:20:00 13.2 C 95 % 12.42 C
1254 27-06-2016 08:25:00 13.4 C 95 % 12.62 C
1255 27-06-2016 08:30:00 13.7 C 94 % 12.75 C
1256 27-06-2016 08:35:00 13.8 C 92 % 12.52 C
1257 27-06-2016 08:40:00 14.1 C 91 % 12.65 C
1258 27-06-2016 08:45:00 14.3 C 91 % 12.85 C
1259 27-06-2016 08:50:00 14.6 C 90 % 12.98 C
1260 27-06-2016 08:55:00 14.7 C 88 % 12.73 C
1261 27-06-2016 09:00:00 14.9 C 86 % 12.58 C
1262 27-06-2016 09:05:00 15 C 85 % 12.5 C
1263 27-06-2016 09:10:00 15.2 C 85 % 12.7 C
1264 27-06-2016 09:15:00 15.4 C 85 % 12.89 C
1265 27-06-2016 09:20:00 15.6 C 83 % 12.72 C
1266 27-06-2016 09:25:00 15.8 C 82 % 12.74 C
1267 27-06-2016 09:30:00 15.9 C 82 % 12.83 C
1268 27-06-2016 09:35:00 16.1 C 82 % 13.03 C
1269 27-06-2016 09:40:00 16.2 C 81 % 12.94 C
1270 27-06-2016 09:45:00 16.2 C 81 % 12.94 C
1271 27-06-2016 09:50:00 16.3 C 81 % 13.04 C
1272 27-06-2016 09:55:00 16.3 C 80 % 12.85 C
1273 27-06-2016 10:00:00 16.3 C 80 % 12.85 C
1274 27-06-2016 10:05:00 16.3 C 80 % 12.85 C
1275 27-06-2016 10:10:00 16.4 C 82 % 13.32 C
Sensor: Nr:Datum:Temp:Feuchte:Taupunkt:
Aussen-T/F 1276 27-06-2016 10:15:00 16.6 C 80 % 13.14 C
1277 27-06-2016 10:20:00 16.7 C 80 % 13.23 C
1278 27-06-2016 10:25:00 16.8 C 79 % 13.14 C
1279 27-06-2016 10:30:00 16.9 C 80 % 13.43 C
1280 27-06-2016 10:35:00 17 C 80 % 13.53 C
1281 27-06-2016 10:40:00 17.2 C 79 % 13.53 C
1282 27-06-2016 10:45:00 17.3 C 79 % 13.63 C
1283 27-06-2016 10:50:00 17.3 C 80 % 13.82 C
1284 27-06-2016 10:55:00 17.4 C 80 % 13.92 C
1285 27-06-2016 11:00:00 17.6 C 79 % 13.92 C
1286 27-06-2016 11:05:00 17.7 C 78 % 13.82 C
1287 27-06-2016 11:10:00 17.6 C 77 % 13.52 C
1288 27-06-2016 11:15:00 17.6 C 79 % 13.92 C
1289 27-06-2016 11:20:00 17.5 C 79 % 13.82 C
1290 27-06-2016 11:25:00 17.4 C 79 % 13.72 C
1291 27-06-2016 11:30:00 17.3 C 79 % 13.63 C
1292 27-06-2016 11:35:00 17.2 C 80 % 13.72 C
1293 27-06-2016 11:40:00 17 C 81 % 13.72 C
1294 27-06-2016 11:45:00 16.8 C 81 % 13.52 C
1295 27-06-2016 11:50:00 16.8 C 82 % 13.71 C
1296 27-06-2016 11:55:00 16.7 C 82 % 13.61 C
1297 27-06-2016 12:00:00 16.7 C 83 % 13.8 C
1298 27-06-2016 12:05:00 16.9 C 83 % 14 C
1299 27-06-2016 12:10:00 17.1 C 81 % 13.82 C
1300 27-06-2016 12:15:00 17.4 C 81 % 14.11 C
Sensor: Nr:Datum:Temp:Feuchte:Taupunkt:
Aussen-T/F 1301 27-06-2016 12:20:00 17.8 C 80 % 14.31 C
1302 27-06-2016 12:25:00 18 C 79 % 14.31 C
1303 27-06-2016 12:30:00 18.1 C 80 % 14.6 C
1304 27-06-2016 12:35:00 18.1 C 78 % 14.21 C
1305 27-06-2016 12:40:00 18 C 78 % 14.11 C
1306 27-06-2016 12:45:00 17.9 C 79 % 14.21 C
1307 27-06-2016 12:50:00 17.9 C 79 % 14.21 C
1308 27-06-2016 12:55:00 17.8 C 81 % 14.5 C
1309 27-06-2016 13:00:00 17.7 C 82 % 14.59 C
1310 27-06-2016 13:05:00 17.7 C 81 % 14.4 C
1311 27-06-2016 13:10:00 17.8 C 80 % 14.31 C
1312 27-06-2016 13:15:00 17.9 C 78 % 14.01 C
1313 27-06-2016 13:20:00 17.9 C 79 % 14.21 C
1314 27-06-2016 13:25:00 18.2 C 78 % 14.3 C
1315 27-06-2016 13:30:00 18.4 C 78 % 14.5 C
1316 27-06-2016 13:35:00 18.6 C 77 % 14.49 C
1317 27-06-2016 13:40:00 18.7 C 77 % 14.59 C
1318 27-06-2016 13:45:00 18.8 C 77 % 14.68 C
1319 27-06-2016 13:50:00 18.9 C 77 % 14.78 C
1320 27-06-2016 13:55:00 18.9 C 77 % 14.78 C
1321 27-06-2016 14:00:00 19.1 C 77 % 14.97 C
1322 27-06-2016 14:05:00 19.2 C 77 % 15.07 C
1323 27-06-2016 14:10:00 19.3 C 77 % 15.17 C
1324 27-06-2016 14:15:00 19.3 C 76 % 14.97 C
1325 27-06-2016 14:20:00 19.1 C 76 % 14.77 C
Sensor: Nr:Datum:Temp:Feuchte:Taupunkt:
Aussen-T/F 1326 27-06-2016 14:25:00 18.7 C 78 % 14.79 C
1327 27-06-2016 14:30:00 18.6 C 78 % 14.69 C
1328 27-06-2016 14:35:00 18.5 C 80 % 14.99 C
1329 27-06-2016 14:40:00 18.5 C 80 % 14.99 C
1330 27-06-2016 14:45:00 18.4 C 80 % 14.89 C
1331 27-06-2016 14:50:00 18.4 C 80 % 14.89 C
1332 27-06-2016 14:55:00 18.3 C 81 % 14.98 C
1333 27-06-2016 15:00:00 18.4 C 81 % 15.08 C
1334 27-06-2016 15:05:00 18.6 C 79 % 14.89 C
1335 27-06-2016 15:10:00 18.6 C 79 % 14.89 C
1336 27-06-2016 15:15:00 18.5 C 79 % 14.79 C
1337 27-06-2016 15:20:00 18.7 C 80 % 15.18 C
1338 27-06-2016 15:25:00 18.9 C 79 % 15.18 C
1339 27-06-2016 15:30:00 19.1 C 78 % 15.18 C
1340 27-06-2016 15:35:00 19.2 C 79 % 15.47 C
1341 27-06-2016 15:40:00 19.2 C 78 % 15.27 C
1342 27-06-2016 15:45:00 19.2 C 79 % 15.47 C
1343 27-06-2016 15:50:00 19.3 C 78 % 15.37 C
1344 27-06-2016 15:55:00 19.3 C 79 % 15.57 C
1345 27-06-2016 16:00:00 19.3 C 78 % 15.37 C
1346 27-06-2016 16:05:00 19.2 C 78 % 15.27 C
1347 27-06-2016 16:10:00 19.1 C 78 % 15.18 C
1348 27-06-2016 16:15:00 18.9 C 80 % 15.38 C
1349 27-06-2016 16:20:00 18.8 C 79 % 15.08 C
1350 27-06-2016 16:25:00 18.7 C 80 % 15.18 C
Sensor: Nr:Datum:Temp:Feuchte:Taupunkt:
Aussen-T/F 1351 27-06-2016 16:30:00 18.7 C 80 % 15.18 C
1352 27-06-2016 16:35:00 18.7 C 81 % 15.37 C
1353 27-06-2016 16:40:00 18.7 C 81 % 15.37 C
1354 27-06-2016 16:45:00 18.8 C 81 % 15.47 C
1355 27-06-2016 16:50:00 19.1 C 80 % 15.57 C
1356 27-06-2016 16:55:00 19.4 C 78 % 15.47 C
1357 27-06-2016 17:00:00 19.4 C 79 % 15.66 C
1358 27-06-2016 17:05:00 19.4 C 78 % 15.47 C
1359 27-06-2016 17:10:00 19.4 C 79 % 15.66 C
1360 27-06-2016 17:15:00 19.7 C 78 % 15.76 C
1361 27-06-2016 17:20:00 19.8 C 78 % 15.85 C
1362 27-06-2016 17:25:00 19.9 C 78 % 15.95 C
1363 27-06-2016 17:30:00 19.9 C 77 % 15.75 C
1364 27-06-2016 17:35:00 19.8 C 79 % 16.05 C
1365 27-06-2016 17:40:00 19.7 C 78 % 15.76 C
1366 27-06-2016 17:45:00 19.5 C 79 % 15.76 C
1367 27-06-2016 17:50:00 19.3 C 81 % 15.96 C
1368 27-06-2016 17:55:00 19.3 C 81 % 15.96 C
1369 27-06-2016 18:00:00 19.3 C 80 % 15.76 C
1370 27-06-2016 18:05:00 19.7 C 80 % 16.15 C
1371 27-06-2016 18:10:00 20.1 C 79 % 16.34 C
1372 27-06-2016 18:15:00 20.3 C 77 % 16.14 C
1373 27-06-2016 18:20:00 20.4 C 76 % 16.03 C
1374 27-06-2016 18:25:00 20.4 C 76 % 16.03 C
1375 27-06-2016 18:30:00 20.3 C 76 % 15.93 C
Sensor: Nr:Datum:Temp:Feuchte:Taupunkt:
Aussen-T/F 1376 27-06-2016 18:35:00 20.4 C 76 % 16.03 C
1377 27-06-2016 18:40:00 20.7 C 76 % 16.32 C
1378 27-06-2016 18:45:00 20.7 C 75 % 16.11 C
1379 27-06-2016 18:50:00 20.7 C 75 % 16.11 C
1380 27-06-2016 18:55:00 20.8 C 77 % 16.62 C
1381 27-06-2016 19:00:00 20.9 C 74 % 16.09 C
1382 27-06-2016 19:05:00 20.7 C 75 % 16.11 C
1383 27-06-2016 19:10:00 20.4 C 77 % 16.23 C
1384 27-06-2016 19:15:00 20.1 C 77 % 15.94 C
1385 27-06-2016 19:20:00 20 C 77 % 15.85 C
1386 27-06-2016 19:25:00 20.1 C 78 % 16.14 C
1387 27-06-2016 19:30:00 19.9 C 78 % 15.95 C
1388 27-06-2016 19:35:00 19.9 C 79 % 16.15 C
1389 27-06-2016 19:40:00 19.8 C 81 % 16.45 C
1390 27-06-2016 19:45:00 19.8 C 79 % 16.05 C
1391 27-06-2016 19:50:00 19.7 C 79 % 15.96 C
1392 27-06-2016 19:55:00 19.6 C 80 % 16.06 C
1393 27-06-2016 20:00:00 19.6 C 81 % 16.25 C
1394 27-06-2016 20:05:00 19.4 C 81 % 16.06 C
1395 27-06-2016 20:10:00 19.2 C 81 % 15.86 C
1396 27-06-2016 20:15:00 19.1 C 82 % 15.96 C
1397 27-06-2016 20:20:00 18.8 C 82 % 15.66 C
1398 27-06-2016 20:25:00 18.7 C 83 % 15.75 C
1399 27-06-2016 20:30:00 18.6 C 83 % 15.66 C
1400 27-06-2016 20:35:00 18.6 C 84 % 15.84 C
Sensor: Nr:Datum:Temp:Feuchte:Taupunkt:
Aussen-T/F 1401 27-06-2016 20:40:00 18.4 C 85 % 15.83 C
1402 27-06-2016 20:45:00 18.4 C 85 % 15.83 C
1403 27-06-2016 20:50:00 18.3 C 85 % 15.74 C
1404 27-06-2016 20:55:00 18.2 C 86 % 15.82 C
1405 27-06-2016 21:00:00 18.2 C 85 % 15.64 C
1406 27-06-2016 21:05:00 18.1 C 85 % 15.54 C
1407 27-06-2016 21:10:00 18 C 86 % 15.62 C
1408 27-06-2016 21:15:00 17.9 C 86 % 15.53 C
1409 27-06-2016 21:20:00 17.8 C 86 % 15.43 C
1410 27-06-2016 21:25:00 17.7 C 86 % 15.33 C
1411 27-06-2016 21:30:00 17.7 C 87 % 15.51 C
1412 27-06-2016 21:35:00 17.6 C 87 % 15.41 C
1413 27-06-2016 21:40:00 17.4 C 88 % 15.39 C
1414 27-06-2016 21:45:00 17.4 C 88 % 15.39 C
1415 27-06-2016 21:50:00 17.3 C 89 % 15.47 C
1416 27-06-2016 21:55:00 17.3 C 89 % 15.47 C
1417 27-06-2016 22:00:00 17.3 C 89 % 15.47 C
1418 27-06-2016 22:05:00 17.3 C 90 % 15.64 C
1419 27-06-2016 22:10:00 17.2 C 90 % 15.55 C
1420 27-06-2016 22:15:00 17.2 C 90 % 15.55 C
1421 27-06-2016 22:20:00 17.2 C 91 % 15.72 C
1422 27-06-2016 22:25:00 17.2 C 91 % 15.72 C
1423 27-06-2016 22:30:00 17.1 C 91 % 15.62 C
1424 27-06-2016 22:35:00 17.1 C 91 % 15.62 C
1425 27-06-2016 22:40:00 17.1 C 92 % 15.79 C
Sensor: Nr:Datum:Temp:Feuchte:Taupunkt:
Aussen-T/F 1426 27-06-2016 22:45:00 17 C 92 % 15.69 C
1427 27-06-2016 22:50:00 17 C 93 % 15.86 C
1428 27-06-2016 22:55:00 16.9 C 93 % 15.76 C
1429 27-06-2016 23:00:00 16.9 C 93 % 15.76 C
1430 27-06-2016 23:05:00 16.8 C 93 % 15.66 C
1431 27-06-2016 23:10:00 16.7 C 93 % 15.56 C
1432 27-06-2016 23:15:00 16.6 C 93 % 15.46 C
1433 27-06-2016 23:20:00 16.4 C 93 % 15.27 C
1434 27-06-2016 23:25:00 16.3 C 94 % 15.33 C
1435 27-06-2016 23:30:00 16.3 C 94 % 15.33 C
1436 27-06-2016 23:35:00 16.2 C 94 % 15.23 C
1437 27-06-2016 23:40:00 16.1 C 94 % 15.13 C
1438 27-06-2016 23:45:00 16 C 94 % 15.03 C
1439 27-06-2016 23:50:00 15.9 C 94 % 14.94 C
1440 27-06-2016 23:55:00 15.9 C 94 % 14.94 C
1441 28-06-2016 00:00:00 15.9 C 94 % 14.94 C
1442 28-06-2016 00:05:00 15.9 C 94 % 14.94 C
1443 28-06-2016 00:10:00 15.9 C 95 % 15.1 C
1444 28-06-2016 00:15:00 15.9 C 95 % 15.1 C
1445 28-06-2016 00:20:00 15.9 C 95 % 15.1 C
1446 28-06-2016 00:25:00 15.9 C 95 % 15.1 C
1447 28-06-2016 00:30:00 16 C 95 % 15.2 C
1448 28-06-2016 00:35:00 16 C 95 % 15.2 C
1449 28-06-2016 00:40:00 16 C 95 % 15.2 C
1450 28-06-2016 00:45:00 16.1 C 95 % 15.3 C
Sensor: Nr:Datum:Temp:Feuchte:Taupunkt:
Aussen-T/F 1451 28-06-2016 00:50:00 16.1 C 95 % 15.3 C
1452 28-06-2016 00:55:00 16 C 95 % 15.2 C
1453 28-06-2016 01:00:00 16 C 95 % 15.2 C
1454 28-06-2016 01:05:00 16 C 95 % 15.2 C
1455 28-06-2016 01:10:00 16 C 95 % 15.2 C
1456 28-06-2016 01:15:00 16 C 95 % 15.2 C
1457 28-06-2016 01:20:00 16 C 95 % 15.2 C
1458 28-06-2016 01:25:00 16 C 95 % 15.2 C
1459 28-06-2016 01:30:00 15.9 C 95 % 15.1 C
1460 28-06-2016 01:35:00 15.8 C 95 % 15 C
1461 28-06-2016 01:40:00 15.8 C 95 % 15 C
1462 28-06-2016 01:45:00 15.7 C 95 % 14.9 C
1463 28-06-2016 01:50:00 15.6 C 95 % 14.8 C
1464 28-06-2016 01:55:00 15.6 C 95 % 14.8 C
1465 28-06-2016 02:00:00 15.6 C 95 % 14.8 C
1466 28-06-2016 02:05:00 15.6 C 96 % 14.96 C
1467 28-06-2016 02:10:00 15.5 C 96 % 14.86 C
1468 28-06-2016 02:15:00 15.5 C 96 % 14.86 C
1469 28-06-2016 02:20:00 15.4 C 96 % 14.77 C
1470 28-06-2016 02:25:00 15.4 C 96 % 14.77 C
1471 28-06-2016 02:30:00 15.4 C 96 % 14.77 C
1472 28-06-2016 02:35:00 15.4 C 96 % 14.77 C
1473 28-06-2016 02:40:00 15.4 C 96 % 14.77 C
1474 28-06-2016 02:45:00 15.4 C 96 % 14.77 C
1475 28-06-2016 02:50:00 15.3 C 96 % 14.67 C
Sensor: Nr:Datum:Temp:Feuchte:Taupunkt:
Aussen-T/F 1476 28-06-2016 02:55:00 15.3 C 96 % 14.67 C
1477 28-06-2016 03:00:00 15.2 C 96 % 14.57 C
1478 28-06-2016 03:05:00 15.1 C 96 % 14.47 C
1479 28-06-2016 03:10:00 15.1 C 96 % 14.47 C
1480 28-06-2016 03:15:00 15 C 96 % 14.37 C
1481 28-06-2016 03:20:00 14.9 C 96 % 14.27 C
1482 28-06-2016 03:25:00 14.9 C 96 % 14.27 C
1483 28-06-2016 03:30:00 14.9 C 96 % 14.27 C
1484 28-06-2016 03:35:00 14.9 C 96 % 14.27 C
1485 28-06-2016 03:40:00 14.8 C 96 % 14.17 C
1486 28-06-2016 03:45:00 14.8 C 96 % 14.17 C
1487 28-06-2016 03:50:00 14.7 C 96 % 14.07 C
1488 28-06-2016 03:55:00 14.6 C 96 % 13.97 C
1489 28-06-2016 04:00:00 14.5 C 96 % 13.87 C
1490 28-06-2016 04:05:00 14.4 C 96 % 13.77 C
1491 28-06-2016 04:10:00 14.3 C 96 % 13.67 C
1492 28-06-2016 04:15:00 14.2 C 96 % 13.57 C
1493 28-06-2016 04:20:00 14.2 C 96 % 13.57 C
1494 28-06-2016 04:25:00 14.1 C 96 % 13.47 C
1495 28-06-2016 04:30:00 14.1 C 96 % 13.47 C
1496 28-06-2016 04:35:00 14 C 96 % 13.37 C
1497 28-06-2016 04:40:00 14 C 96 % 13.37 C
1498 28-06-2016 04:45:00 14.1 C 96 % 13.47 C
1499 28-06-2016 04:50:00 14.1 C 96 % 13.47 C
1500 28-06-2016 04:55:00 14.2 C 96 % 13.57 C
Sensor: Nr:Datum:Temp:Feuchte:Taupunkt:
Aussen-T/F 1501 28-06-2016 05:00:00 14.3 C 96 % 13.67 C
1502 28-06-2016 05:05:00 14.3 C 96 % 13.67 C
1503 28-06-2016 05:10:00 14.4 C 96 % 13.77 C
1504 28-06-2016 05:15:00 14.4 C 96 % 13.77 C
1505 28-06-2016 05:20:00 14.5 C 97 % 14.03 C
1506 28-06-2016 05:25:00 14.6 C 97 % 14.13 C
1507 28-06-2016 05:30:00 14.6 C 97 % 14.13 C
1508 28-06-2016 05:35:00 14.7 C 96 % 14.07 C
1509 28-06-2016 05:40:00 14.7 C 96 % 14.07 C
1510 28-06-2016 05:45:00 14.7 C 96 % 14.07 C
1511 28-06-2016 05:50:00 14.7 C 96 % 14.07 C
1512 28-06-2016 05:55:00 14.8 C 96 % 14.17 C
1513 28-06-2016 06:00:00 14.8 C 97 % 14.33 C
1514 28-06-2016 06:05:00 14.8 C 97 % 14.33 C
1515 28-06-2016 06:10:00 14.8 C 97 % 14.33 C
1516 28-06-2016 06:15:00 14.8 C 96 % 14.17 C
1517 28-06-2016 06:20:00 14.8 C 96 % 14.17 C
1518 28-06-2016 06:25:00 14.8 C 97 % 14.33 C
1519 28-06-2016 06:30:00 14.8 C 96 % 14.17 C
1520 28-06-2016 06:35:00 14.8 C 96 % 14.17 C
1521 28-06-2016 06:40:00 14.8 C 96 % 14.17 C
1522 28-06-2016 06:45:00 14.8 C 97 % 14.33 C
1523 28-06-2016 06:50:00 14.9 C 97 % 14.43 C
1524 28-06-2016 06:55:00 14.9 C 97 % 14.43 C
1525 28-06-2016 07:00:00 15 C 97 % 14.53 C
Sensor: Nr:Datum:Temp:Feuchte:Taupunkt:
Aussen-T/F 1526 28-06-2016 07:05:00 15.1 C 97 % 14.63 C
1527 28-06-2016 07:10:00 15.2 C 97 % 14.73 C
1528 28-06-2016 07:15:00 15.2 C 97 % 14.73 C
1529 28-06-2016 07:20:00 15.2 C 97 % 14.73 C
1530 28-06-2016 07:25:00 15.3 C 97 % 14.83 C
1531 28-06-2016 07:30:00 15.3 C 97 % 14.83 C
1532 28-06-2016 07:35:00 15.4 C 97 % 14.93 C
1533 28-06-2016 07:40:00 15.4 C 97 % 14.93 C
1534 28-06-2016 07:45:00 15.4 C 97 % 14.93 C
1535 28-06-2016 07:50:00 15.4 C 97 % 14.93 C
1536 28-06-2016 07:55:00 15.5 C 97 % 15.03 C
1537 28-06-2016 08:00:00 15.5 C 97 % 15.03 C
1538 28-06-2016 08:05:00 15.6 C 97 % 15.13 C
1539 28-06-2016 08:10:00 15.5 C 97 % 15.03 C
1540 28-06-2016 08:15:00 15.6 C 97 % 15.13 C
1541 28-06-2016 08:20:00 15.7 C 97 % 15.23 C
1542 28-06-2016 08:25:00 15.7 C 97 % 15.23 C
1543 28-06-2016 08:30:00 15.7 C 97 % 15.23 C
1544 28-06-2016 08:35:00 15.8 C 96 % 15.16 C
1545 28-06-2016 08:40:00 15.8 C 97 % 15.32 C
1546 28-06-2016 08:45:00 15.9 C 96 % 15.26 C
1547 28-06-2016 08:50:00 15.9 C 96 % 15.26 C
1548 28-06-2016 08:55:00 16 C 96 % 15.36 C
1549 28-06-2016 09:00:00 16.1 C 96 % 15.46 C
1550 28-06-2016 09:05:00 16.2 C 96 % 15.56 C
Sensor: Nr:Datum:Temp:Feuchte:Taupunkt:
Aussen-T/F 1551 28-06-2016 09:10:00 16.2 C 96 % 15.56 C
1552 28-06-2016 09:15:00 16.3 C 96 % 15.66 C
1553 28-06-2016 09:20:00 16.3 C 96 % 15.66 C
1554 28-06-2016 09:25:00 16.4 C 96 % 15.76 C
1555 28-06-2016 09:30:00 16.4 C 96 % 15.76 C
1556 28-06-2016 09:35:00 16.6 C 96 % 15.96 C
1557 28-06-2016 09:40:00 16.6 C 95 % 15.8 C
1558 28-06-2016 09:45:00 16.8 C 95 % 15.99 C
1559 28-06-2016 09:50:00 16.9 C 94 % 15.93 C
1560 28-06-2016 09:55:00 17 C 94 % 16.03 C
1561 28-06-2016 10:00:00 17.2 C 93 % 16.06 C
1562 28-06-2016 10:05:00 17.3 C 93 % 16.16 C
1563 28-06-2016 10:10:00 17.4 C 93 % 16.26 C
1564 28-06-2016 10:15:00 17.3 C 91 % 15.82 C
1565 28-06-2016 10:20:00 17.4 C 91 % 15.92 C
1566 28-06-2016 10:25:00 17.5 C 91 % 16.01 C
1567 28-06-2016 10:30:00 17.7 C 91 % 16.21 C
1568 28-06-2016 10:35:00 17.8 C 91 % 16.31 C
1569 28-06-2016 10:40:00 18 C 91 % 16.51 C
1570 28-06-2016 10:45:00 18.2 C 90 % 16.53 C
1571 28-06-2016 10:50:00 18.2 C 88 % 16.18 C
1572 28-06-2016 10:55:00 18.3 C 88 % 16.28 C
1573 28-06-2016 11:00:00 18.6 C 87 % 16.39 C
1574 28-06-2016 11:05:00 18.8 C 88 % 16.77 C
1575 28-06-2016 11:10:00 18.9 C 85 % 16.32 C
Sensor: Nr:Datum:Temp:Feuchte:Taupunkt:
Aussen-T/F 1576 28-06-2016 11:15:00 18.9 C 83 % 15.95 C
1577 28-06-2016 11:20:00 18.9 C 83 % 15.95 C
1578 28-06-2016 11:25:00 18.9 C 84 % 16.14 C
1579 28-06-2016 11:30:00 19 C 83 % 16.05 C
1580 28-06-2016 11:35:00 19.1 C 82 % 15.96 C
1581 28-06-2016 11:40:00 19.2 C 82 % 16.05 C
1582 28-06-2016 11:45:00 19.2 C 79 % 15.47 C
1583 28-06-2016 11:50:00 19.4 C 80 % 15.86 C
1584 28-06-2016 11:55:00 19.7 C 81 % 16.35 C
1585 28-06-2016 12:00:00 19.8 C 78 % 15.85 C
1586 28-06-2016 12:05:00 19.9 C 79 % 16.15 C
1587 28-06-2016 12:10:00 20.1 C 77 % 15.94 C
1588 28-06-2016 12:15:00 20.2 C 81 % 16.84 C
1589 28-06-2016 12:20:00 20.3 C 80 % 16.74 C
1590 28-06-2016 12:25:00 20.4 C 79 % 16.64 C
1591 28-06-2016 12:30:00 20.4 C 74 % 15.61 C
1592 28-06-2016 12:35:00 20.5 C 75 % 15.92 C
1593 28-06-2016 12:40:00 20.6 C 74 % 15.8 C
1594 28-06-2016 12:45:00 20.7 C 72 % 15.47 C
1595 28-06-2016 12:50:00 20.8 C 69 % 14.91 C
1596 28-06-2016 12:55:00 20.9 C 77 % 16.72 C
1597 28-06-2016 13:00:00 21 C 79 % 17.22 C
1598 28-06-2016 13:05:00 20.9 C 76 % 16.51 C
1599 28-06-2016 13:10:00 20.9 C 78 % 16.92 C
1600 28-06-2016 13:15:00 21 C 75 % 16.4 C
Sensor: Nr:Datum:Temp:Feuchte:Taupunkt:
Aussen-T/F 1601 28-06-2016 13:20:00 21.1 C 69 % 15.19 C
1602 28-06-2016 13:25:00 21.1 C 68 % 14.97 C
1603 28-06-2016 13:30:00 21.2 C 70 % 15.51 C
1604 28-06-2016 13:35:00 21.2 C 67 % 14.83 C
1605 28-06-2016 13:40:00 21.3 C 71 % 15.83 C
1606 28-06-2016 13:45:00 21.4 C 67 % 15.02 C
1607 28-06-2016 13:50:00 21.5 C 68 % 15.35 C
1608 28-06-2016 13:55:00 21.5 C 67 % 15.12 C
1609 28-06-2016 14:00:00 21.4 C 71 % 15.93 C
1610 28-06-2016 14:05:00 21.3 C 70 % 15.61 C
1611 28-06-2016 14:10:00 21.3 C 70 % 15.61 C
1612 28-06-2016 14:15:00 21.3 C 68 % 15.16 C
1613 28-06-2016 14:20:00 21.3 C 66 % 14.69 C
1614 28-06-2016 14:25:00 21.3 C 67 % 14.93 C
1615 28-06-2016 14:30:00 21.4 C 69 % 15.48 C
1616 28-06-2016 14:35:00 21.4 C 67 % 15.02 C
1617 28-06-2016 14:40:00 21.5 C 65 % 14.65 C
1618 28-06-2016 14:45:00 21.4 C 65 % 14.55 C
1619 28-06-2016 14:50:00 21.6 C 66 % 14.98 C
1620 28-06-2016 14:55:00 21.8 C 65 % 14.93 C
1621 28-06-2016 15:00:00 21.9 C 63 % 14.54 C
1622 28-06-2016 15:05:00 22.1 C 65 % 15.21 C
1623 28-06-2016 15:10:00 22.2 C 63 % 14.82 C
1624 28-06-2016 15:15:00 22.2 C 65 % 15.31 C
1625 28-06-2016 15:20:00 22.3 C 59 % 13.9 C
Sensor: Nr:Datum:Temp:Feuchte:Taupunkt:
Aussen-T/F 1626 28-06-2016 15:25:00 22.3 C 59 % 13.9 C
1627 28-06-2016 15:30:00 22.3 C 62 % 14.67 C
1628 28-06-2016 15:35:00 22.3 C 61 % 14.42 C
1629 28-06-2016 15:40:00 22.4 C 60 % 14.26 C
1630 28-06-2016 15:45:00 22.6 C 60 % 14.44 C
1631 28-06-2016 15:50:00 22.6 C 61 % 14.7 C
1632 28-06-2016 15:55:00 22.7 C 61 % 14.79 C
1633 28-06-2016 16:00:00 22.7 C 60 % 14.54 C
1634 28-06-2016 16:05:00 22.8 C 61 % 14.89 C
1635 28-06-2016 16:10:00 22.9 C 60 % 14.73 C
1636 28-06-2016 16:15:00 22.9 C 60 % 14.73 C
1637 28-06-2016 16:20:00 22.9 C 61 % 14.98 C
1638 28-06-2016 16:25:00 23.4 C 65 % 16.45 C
1639 28-06-2016 16:30:00 23.9 C 57 % 14.87 C
1640 28-06-2016 16:35:00 24.1 C 54 % 14.21 C
1641 28-06-2016 16:40:00 24 C 55 % 14.41 C
1642 28-06-2016 16:45:00 23.7 C 55 % 14.13 C
1643 28-06-2016 16:50:00 23.3 C 59 % 14.84 C
1644 28-06-2016 16:55:00 23.1 C 61 % 15.17 C
1645 28-06-2016 17:00:00 22.9 C 63 % 15.48 C
1646 28-06-2016 17:05:00 22.7 C 57 % 13.75 C
1647 28-06-2016 17:10:00 22.4 C 64 % 15.26 C
1648 28-06-2016 17:15:00 22.3 C 64 % 15.16 C
1649 28-06-2016 17:20:00 22.4 C 63 % 15.01 C
1650 28-06-2016 17:25:00 22.7 C 66 % 16.02 C
Sensor: Nr:Datum:Temp:Feuchte:Taupunkt:
Aussen-T/F 1651 28-06-2016 17:30:00 23.1 C 68 % 16.87 C
1652 28-06-2016 17:35:00 23.3 C 64 % 16.11 C
1653 28-06-2016 17:40:00 23.2 C 66 % 16.5 C
1654 28-06-2016 17:45:00 23.2 C 70 % 17.42 C
1655 28-06-2016 17:50:00 23.3 C 71 % 17.75 C
1656 28-06-2016 17:55:00 23.3 C 68 % 17.06 C
1657 28-06-2016 18:00:00 23.2 C 69 % 17.2 C
1658 28-06-2016 18:05:00 23.1 C 66 % 16.4 C
1659 28-06-2016 18:10:00 23.1 C 73 % 17.99 C
1660 28-06-2016 18:15:00 23 C 67 % 16.54 C
1661 28-06-2016 18:20:00 22.9 C 64 % 15.73 C
1662 28-06-2016 18:25:00 22.8 C 66 % 16.12 C
1663 28-06-2016 18:30:00 23.1 C 60 % 14.91 C
1664 28-06-2016 18:35:00 23.2 C 60 % 15.01 C
1665 28-06-2016 18:40:00 23.1 C 63 % 15.67 C
1666 28-06-2016 18:45:00 23 C 69 % 17.01 C
1667 28-06-2016 18:50:00 23.1 C 65 % 16.16 C
1668 28-06-2016 18:55:00 23.2 C 62 % 15.52 C
1669 28-06-2016 19:00:00 23.1 C 64 % 15.92 C
1670 28-06-2016 19:05:00 22.8 C 62 % 15.14 C
1671 28-06-2016 19:10:00 22.7 C 73 % 17.61 C
1672 28-06-2016 19:15:00 22.5 C 74 % 17.63 C
1673 28-06-2016 19:20:00 22.3 C 74 % 17.44 C
1674 28-06-2016 19:25:00 21.9 C 75 % 17.27 C
1675 28-06-2016 19:30:00 21.6 C 76 % 17.19 C
Sensor: Nr:Datum:Temp:Feuchte:Taupunkt:
Aussen-T/F 1676 28-06-2016 19:35:00 21.3 C 77 % 17.1 C
1677 28-06-2016 19:40:00 21.1 C 78 % 17.11 C
1678 28-06-2016 19:45:00 20.8 C 79 % 17.02 C
1679 28-06-2016 19:50:00 20.7 C 79 % 16.93 C
1680 28-06-2016 19:55:00 20.5 C 80 % 16.93 C
1681 28-06-2016 20:00:00 20.3 C 80 % 16.74 C
1682 28-06-2016 20:05:00 20.1 C 81 % 16.74 C
1683 28-06-2016 20:10:00 19.9 C 82 % 16.74 C
1684 28-06-2016 20:15:00 19.7 C 82 % 16.54 C
1685 28-06-2016 20:20:00 19.6 C 82 % 16.44 C
1686 28-06-2016 20:25:00 19.3 C 83 % 16.34 C
1687 28-06-2016 20:30:00 19.2 C 84 % 16.43 C
1688 28-06-2016 20:35:00 19.1 C 85 % 16.52 C
1689 28-06-2016 20:40:00 18.9 C 85 % 16.32 C
1690 28-06-2016 20:45:00 18.8 C 85 % 16.23 C
1691 28-06-2016 20:50:00 18.8 C 85 % 16.23 C
1692 28-06-2016 20:55:00 18.7 C 86 % 16.31 C
1693 28-06-2016 21:00:00 18.6 C 86 % 16.21 C
1694 28-06-2016 21:05:00 18.6 C 86 % 16.21 C
1695 28-06-2016 21:10:00 18.4 C 87 % 16.2 C
1696 28-06-2016 21:15:00 18.4 C 87 % 16.2 C
1697 28-06-2016 21:20:00 18.3 C 87 % 16.1 C
1698 28-06-2016 21:25:00 18.2 C 87 % 16 C
1699 28-06-2016 21:30:00 18.1 C 87 % 15.9 C
1700 28-06-2016 21:35:00 18 C 87 % 15.8 C
Sensor: Nr:Datum:Temp:Feuchte:Taupunkt:
Aussen-T/F 1701 28-06-2016 21:40:00 17.9 C 88 % 15.88 C
1702 28-06-2016 21:45:00 17.8 C 88 % 15.79 C
1703 28-06-2016 21:50:00 17.7 C 88 % 15.69 C
1704 28-06-2016 21:55:00 17.6 C 88 % 15.59 C
1705 28-06-2016 22:00:00 17.5 C 88 % 15.49 C
1706 28-06-2016 22:05:00 17.4 C 89 % 15.57 C
1707 28-06-2016 22:10:00 17.3 C 89 % 15.47 C
1708 28-06-2016 22:15:00 17.3 C 89 % 15.47 C
1709 28-06-2016 22:20:00 17.3 C 89 % 15.47 C
1710 28-06-2016 22:25:00 17.2 C 89 % 15.37 C
1711 28-06-2016 22:30:00 17.2 C 89 % 15.37 C
1712 28-06-2016 22:35:00 17.2 C 90 % 15.55 C
1713 28-06-2016 22:40:00 17.2 C 90 % 15.55 C
1714 28-06-2016 22:45:00 17.3 C 90 % 15.64 C
1715 28-06-2016 22:50:00 17.3 C 90 % 15.64 C
1716 28-06-2016 22:55:00 17.3 C 90 % 15.64 C
1717 28-06-2016 23:00:00 17.3 C 90 % 15.64 C
1718 28-06-2016 23:05:00 17.3 C 90 % 15.64 C
1719 28-06-2016 23:10:00 17.3 C 90 % 15.64 C
1720 28-06-2016 23:15:00 17.3 C 91 % 15.82 C
1721 28-06-2016 23:20:00 17.3 C 91 % 15.82 C
1722 28-06-2016 23:25:00 17.3 C 91 % 15.82 C
1723 28-06-2016 23:30:00 17.3 C 91 % 15.82 C
1724 28-06-2016 23:35:00 17.3 C 91 % 15.82 C
1725 28-06-2016 23:40:00 17.3 C 91 % 15.82 C
Sensor: Nr:Datum:Temp:Feuchte:Taupunkt:
Aussen-T/F 1726 28-06-2016 23:45:00 17.2 C 91 % 15.72 C
1727 28-06-2016 23:50:00 17.2 C 91 % 15.72 C
1728 28-06-2016 23:55:00 17.2 C 91 % 15.72 C
1729 29-06-2016 00:00:00 17.1 C 92 % 15.79 C
1730 29-06-2016 00:05:00 17.1 C 91 % 15.62 C
1731 29-06-2016 00:10:00 17.1 C 91 % 15.62 C
1732 29-06-2016 00:15:00 17 C 92 % 15.69 C
1733 29-06-2016 00:20:00 17 C 91 % 15.52 C
1734 29-06-2016 00:25:00 16.9 C 91 % 15.42 C
1735 29-06-2016 00:30:00 16.9 C 91 % 15.42 C
1736 29-06-2016 00:35:00 17 C 91 % 15.52 C
1737 29-06-2016 00:40:00 17 C 91 % 15.52 C
1738 29-06-2016 00:45:00 17.1 C 91 % 15.62 C
1739 29-06-2016 00:50:00 17.1 C 91 % 15.62 C
1740 29-06-2016 00:55:00 17.1 C 91 % 15.62 C
1741 29-06-2016 01:00:00 17.1 C 91 % 15.62 C
1742 29-06-2016 01:05:00 17.1 C 91 % 15.62 C
1743 29-06-2016 01:10:00 17.1 C 91 % 15.62 C
1744 29-06-2016 01:15:00 17 C 91 % 15.52 C
1745 29-06-2016 01:20:00 17 C 91 % 15.52 C
1746 29-06-2016 01:25:00 17 C 90 % 15.35 C
1747 29-06-2016 01:30:00 17 C 90 % 15.35 C
1748 29-06-2016 01:35:00 17.1 C 90 % 15.45 C
1749 29-06-2016 01:40:00 17.1 C 91 % 15.62 C
1750 29-06-2016 01:45:00 17.2 C 91 % 15.72 C
Sensor: Nr:Datum:Temp:Feuchte:Taupunkt:
Aussen-T/F 1751 29-06-2016 01:50:00 17.2 C 91 % 15.72 C
1752 29-06-2016 01:55:00 17.1 C 91 % 15.62 C
1753 29-06-2016 02:00:00 17.1 C 91 % 15.62 C
1754 29-06-2016 02:05:00 17.1 C 91 % 15.62 C
1755 29-06-2016 02:10:00 17 C 91 % 15.52 C
1756 29-06-2016 02:15:00 16.9 C 91 % 15.42 C
1757 29-06-2016 02:20:00 16.9 C 91 % 15.42 C
1758 29-06-2016 02:25:00 16.9 C 91 % 15.42 C
1759 29-06-2016 02:30:00 16.8 C 92 % 15.49 C
1760 29-06-2016 02:35:00 16.8 C 92 % 15.49 C
1761 29-06-2016 02:40:00 16.8 C 92 % 15.49 C
1762 29-06-2016 02:45:00 16.7 C 91 % 15.22 C
1763 29-06-2016 02:50:00 16.7 C 92 % 15.39 C
1764 29-06-2016 02:55:00 16.7 C 92 % 15.39 C
1765 29-06-2016 03:00:00 16.7 C 92 % 15.39 C
1766 29-06-2016 03:05:00 16.7 C 92 % 15.39 C
1767 29-06-2016 03:10:00 16.7 C 92 % 15.39 C
1768 29-06-2016 03:15:00 16.7 C 92 % 15.39 C
1769 29-06-2016 03:20:00 16.6 C 92 % 15.3 C
1770 29-06-2016 03:25:00 16.6 C 92 % 15.3 C
1771 29-06-2016 03:30:00 16.7 C 92 % 15.39 C
1772 29-06-2016 03:35:00 16.7 C 92 % 15.39 C
1773 29-06-2016 03:40:00 16.7 C 92 % 15.39 C
1774 29-06-2016 03:45:00 16.8 C 92 % 15.49 C
1775 29-06-2016 03:50:00 16.8 C 91 % 15.32 C
Sensor: Nr:Datum:Temp:Feuchte:Taupunkt:
Aussen-T/F 1776 29-06-2016 03:55:00 16.8 C 91 % 15.32 C
1777 29-06-2016 04:00:00 16.9 C 91 % 15.42 C
1778 29-06-2016 04:05:00 16.9 C 91 % 15.42 C
1779 29-06-2016 04:10:00 16.9 C 91 % 15.42 C
1780 29-06-2016 04:15:00 16.9 C 90 % 15.25 C
1781 29-06-2016 04:20:00 16.8 C 90 % 15.15 C
1782 29-06-2016 04:25:00 16.8 C 91 % 15.32 C
1783 29-06-2016 04:30:00 16.8 C 91 % 15.32 C
1784 29-06-2016 04:35:00 16.8 C 91 % 15.32 C
1785 29-06-2016 04:40:00 16.8 C 91 % 15.32 C
1786 29-06-2016 04:45:00 16.8 C 91 % 15.32 C
1787 29-06-2016 04:50:00 16.8 C 91 % 15.32 C
1788 29-06-2016 04:55:00 16.9 C 91 % 15.42 C
1789 29-06-2016 05:00:00 16.9 C 91 % 15.42 C
1790 29-06-2016 05:05:00 17 C 90 % 15.35 C
1791 29-06-2016 05:10:00 17.1 C 90 % 15.45 C
1792 29-06-2016 05:15:00 17.1 C 90 % 15.45 C
1793 29-06-2016 05:20:00 17.1 C 90 % 15.45 C
1794 29-06-2016 05:25:00 17.1 C 90 % 15.45 C
1795 29-06-2016 05:30:00 17.1 C 89 % 15.27 C
1796 29-06-2016 05:35:00 17.2 C 89 % 15.37 C
1797 29-06-2016 05:40:00 17.1 C 88 % 15.1 C
1798 29-06-2016 05:45:00 17.1 C 88 % 15.1 C
1799 29-06-2016 05:50:00 17.1 C 88 % 15.1 C
1800 29-06-2016 05:55:00 17.1 C 88 % 15.1 C
Sensor: Nr:Datum:Temp:Feuchte:Taupunkt:
Aussen-T/F 1801 29-06-2016 06:00:00 17.2 C 88 % 15.2 C
1802 29-06-2016 06:05:00 17.2 C 88 % 15.2 C
1803 29-06-2016 06:10:00 17.4 C 87 % 15.21 C
1804 29-06-2016 06:15:00 17.4 C 86 % 15.03 C
1805 29-06-2016 06:20:00 17.5 C 86 % 15.13 C
1806 29-06-2016 06:25:00 17.5 C 85 % 14.95 C
1807 29-06-2016 06:30:00 17.5 C 84 % 14.77 C
1808 29-06-2016 06:35:00 17.6 C 84 % 14.87 C
1809 29-06-2016 06:40:00 17.6 C 85 % 15.05 C
1810 29-06-2016 06:45:00 17.7 C 85 % 15.15 C
1811 29-06-2016 06:50:00 17.7 C 84 % 14.96 C
1812 29-06-2016 06:55:00 17.7 C 84 % 14.96 C
1813 29-06-2016 07:00:00 17.7 C 83 % 14.78 C
1814 29-06-2016 07:05:00 17.7 C 84 % 14.96 C
1815 29-06-2016 07:10:00 17.7 C 84 % 14.96 C
1816 29-06-2016 07:15:00 17.8 C 84 % 15.06 C
1817 29-06-2016 07:20:00 17.8 C 84 % 15.06 C
1818 29-06-2016 07:25:00 17.8 C 84 % 15.06 C
1819 29-06-2016 07:30:00 17.8 C 84 % 15.06 C
1820 29-06-2016 07:35:00 17.9 C 83 % 14.97 C
1821 29-06-2016 07:40:00 17.9 C 83 % 14.97 C
1822 29-06-2016 07:45:00 18.1 C 84 % 15.35 C
1823 29-06-2016 07:50:00 18.1 C 83 % 15.17 C
1824 29-06-2016 07:55:00 17.9 C 83 % 14.97 C
1825 29-06-2016 08:00:00 17.9 C 83 % 14.97 C
Sensor: Nr:Datum:Temp:Feuchte:Taupunkt:
Aussen-T/F 1826 29-06-2016 08:05:00 17.9 C 83 % 14.97 C
1827 29-06-2016 08:10:00 17.9 C 83 % 14.97 C
1828 29-06-2016 08:15:00 18.1 C 84 % 15.35 C
1829 29-06-2016 08:20:00 18.1 C 84 % 15.35 C
1830 29-06-2016 08:25:00 18.2 C 83 % 15.27 C
1831 29-06-2016 08:30:00 18.4 C 80 % 14.89 C
1832 29-06-2016 08:35:00 18.6 C 81 % 15.28 C
1833 29-06-2016 08:40:00 18.6 C 80 % 15.08 C
1834 29-06-2016 08:45:00 18.7 C 78 % 14.79 C
1835 29-06-2016 08:50:00 18.8 C 79 % 15.08 C
1836 29-06-2016 08:55:00 18.7 C 75 % 14.18 C
1837 29-06-2016 09:00:00 18.6 C 75 % 14.08 C
1838 29-06-2016 09:05:00 18.6 C 75 % 14.08 C
1839 29-06-2016 09:10:00 18.8 C 74 % 14.07 C
1840 29-06-2016 09:15:00 18.8 C 73 % 13.86 C
1841 29-06-2016 09:20:00 18.8 C 72 % 13.65 C
1842 29-06-2016 09:25:00 19 C 74 % 14.26 C
1843 29-06-2016 09:30:00 19.2 C 74 % 14.46 C
1844 29-06-2016 09:35:00 19.4 C 74 % 14.65 C
1845 29-06-2016 09:40:00 19.6 C 72 % 14.42 C
1846 29-06-2016 09:45:00 19.5 C 69 % 13.66 C
1847 29-06-2016 09:50:00 19.4 C 68 % 13.34 C
1848 29-06-2016 09:55:00 19.3 C 68 % 13.25 C
1849 29-06-2016 10:00:00 19.2 C 70 % 13.6 C
1850 29-06-2016 10:05:00 19.2 C 69 % 13.38 C
Sensor: Nr:Datum:Temp:Feuchte:Taupunkt:
Aussen-T/F 1851 29-06-2016 10:10:00 19.2 C 70 % 13.6 C
1852 29-06-2016 10:15:00 19.2 C 65 % 12.47 C
1853 29-06-2016 10:20:00 19.3 C 67 % 13.02 C
1854 29-06-2016 10:25:00 19.6 C 65 % 12.84 C
1855 29-06-2016 10:30:00 19.8 C 67 % 13.5 C
1856 29-06-2016 10:35:00 19.9 C 67 % 13.59 C
1857 29-06-2016 10:40:00 19.8 C 69 % 13.95 C
1858 29-06-2016 10:45:00 19.8 C 69 % 13.95 C
1859 29-06-2016 10:50:00 19.9 C 72 % 14.7 C
1860 29-06-2016 10:55:00 20 C 68 % 13.92 C
1861 29-06-2016 11:00:00 20.1 C 68 % 14.01 C
1862 29-06-2016 11:05:00 20.1 C 67 % 13.78 C
1863 29-06-2016 11:10:00 20.1 C 65 % 13.32 C
1864 29-06-2016 11:15:00 20.1 C 65 % 13.32 C
1865 29-06-2016 11:20:00 20.1 C 63 % 12.84 C
1866 29-06-2016 11:25:00 20.2 C 64 % 13.18 C
1867 29-06-2016 11:30:00 20.3 C 61 % 12.54 C
1868 29-06-2016 11:35:00 20.2 C 56 % 11.15 C
1869 29-06-2016 11:40:00 20.2 C 54 % 10.6 C
1870 29-06-2016 11:45:00 20.2 C 60 % 12.19 C
1871 29-06-2016 11:50:00 20.2 C 63 % 12.94 C
1872 29-06-2016 11:55:00 20.2 C 60 % 12.19 C
1873 29-06-2016 12:00:00 20.1 C 62 % 12.6 C
1874 29-06-2016 12:05:00 20.1 C 65 % 13.32 C
1875 29-06-2016 12:10:00 20.1 C 59 % 11.84 C
Sensor: Nr:Datum:Temp:Feuchte:Taupunkt:
Aussen-T/F 1876 29-06-2016 12:15:00 20.1 C 60 % 12.1 C
1877 29-06-2016 12:20:00 20.1 C 58 % 11.58 C
1878 29-06-2016 12:25:00 20.1 C 58 % 11.58 C
1879 29-06-2016 12:30:00 20.2 C 59 % 11.94 C
1880 29-06-2016 12:35:00 20.2 C 60 % 12.19 C
1881 29-06-2016 12:40:00 20.4 C 61 % 12.63 C
1882 29-06-2016 12:45:00 20.5 C 60 % 12.47 C
1883 29-06-2016 12:50:00 20.7 C 65 % 13.89 C
1884 29-06-2016 12:55:00 20.7 C 58 % 12.15 C
1885 29-06-2016 13:00:00 20.7 C 59 % 12.41 C
1886 29-06-2016 13:05:00 20.6 C 58 % 12.05 C
1887 29-06-2016 13:10:00 20.6 C 58 % 12.05 C
1888 29-06-2016 13:15:00 20.6 C 58 % 12.05 C
1889 29-06-2016 13:20:00 20.7 C 56 % 11.61 C
1890 29-06-2016 13:25:00 20.7 C 56 % 11.61 C
1891 29-06-2016 13:30:00 20.6 C 54 % 10.97 C
1892 29-06-2016 13:35:00 20.6 C 51 % 10.12 C
1893 29-06-2016 13:40:00 20.7 C 56 % 11.61 C
1894 29-06-2016 13:45:00 20.8 C 54 % 11.16 C
1895 29-06-2016 13:50:00 20.9 C 49 % 9.79 C
1896 29-06-2016 13:55:00 21.2 C 53 % 11.25 C
1897 29-06-2016 14:00:00 21.3 C 53 % 11.34 C
1898 29-06-2016 14:05:00 21.4 C 59 % 13.06 C
1899 29-06-2016 14:10:00 21.4 C 55 % 11.99 C
1900 29-06-2016 14:15:00 21.4 C 61 % 13.57 C
Sensor: Nr:Datum:Temp:Feuchte:Taupunkt:
Aussen-T/F 1901 29-06-2016 14:20:00 21.3 C 58 % 12.71 C
1902 29-06-2016 14:25:00 21.3 C 57 % 12.44 C
1903 29-06-2016 14:30:00 21.3 C 57 % 12.44 C
1904 29-06-2016 14:35:00 21.3 C 59 % 12.97 C
1905 29-06-2016 14:40:00 21.6 C 58 % 12.99 C
1906 29-06-2016 14:45:00 21.8 C 54 % 12.08 C
1907 29-06-2016 14:50:00 22.1 C 55 % 12.64 C
1908 29-06-2016 14:55:00 22.3 C 51 % 11.68 C
1909 29-06-2016 15:00:00 22.4 C 50 % 11.47 C
1910 29-06-2016 15:05:00 22.7 C 52 % 12.34 C
1911 29-06-2016 15:10:00 22.8 C 53 % 12.73 C
1912 29-06-2016 15:15:00 22.9 C 54 % 13.1 C
1913 29-06-2016 15:20:00 22.9 C 50 % 11.93 C
1914 29-06-2016 15:25:00 22.9 C 54 % 13.1 C
1915 29-06-2016 15:30:00 23.1 C 51 % 12.42 C
1916 29-06-2016 15:35:00 23.3 C 55 % 13.76 C
1917 29-06-2016 15:40:00 23.4 C 48 % 11.77 C
1918 29-06-2016 15:45:00 23.4 C 49 % 12.08 C
1919 29-06-2016 15:50:00 23.3 C 49 % 11.99 C
1920 29-06-2016 15:55:00 22.9 C 54 % 13.1 C
1921 29-06-2016 16:00:00 22.7 C 50 % 11.75 C
1922 29-06-2016 16:05:00 22.5 C 52 % 12.16 C
1923 29-06-2016 16:10:00 22.4 C 52 % 12.07 C
1924 29-06-2016 16:15:00 22.3 C 56 % 13.1 C
1925 29-06-2016 16:20:00 22.3 C 52 % 11.97 C
Sensor: Nr:Datum:Temp:Feuchte:Taupunkt:
Aussen-T/F 1926 29-06-2016 16:25:00 22.3 C 52 % 11.97 C
1927 29-06-2016 16:30:00 22.6 C 51 % 11.96 C
1928 29-06-2016 16:35:00 22.9 C 53 % 12.82 C
1929 29-06-2016 16:40:00 23.2 C 44 % 10.28 C
1930 29-06-2016 16:45:00 23.3 C 45 % 10.71 C
1931 29-06-2016 16:50:00 23.2 C 55 % 13.66 C
1932 29-06-2016 16:55:00 23.2 C 51 % 12.51 C
1933 29-06-2016 17:00:00 23.2 C 52 % 12.8 C
1934 29-06-2016 17:05:00 23.2 C 55 % 13.66 C
1935 29-06-2016 17:10:00 23.1 C 53 % 13 C
1936 29-06-2016 17:15:00 22.8 C 48 % 11.22 C
1937 29-06-2016 17:20:00 22.8 C 56 % 13.57 C
1938 29-06-2016 17:25:00 22.9 C 53 % 12.82 C
1939 29-06-2016 17:30:00 23.2 C 54 % 13.38 C
1940 29-06-2016 17:35:00 23.6 C 49 % 12.27 C
1941 29-06-2016 17:40:00 24.1 C 48 % 12.41 C
1942 29-06-2016 17:45:00 24.1 C 57 % 15.05 C
1943 29-06-2016 17:50:00 24.3 C 49 % 12.91 C
1944 29-06-2016 17:55:00 24.3 C 48 % 12.59 C
1945 29-06-2016 18:00:00 24.1 C 48 % 12.41 C
1946 29-06-2016 18:05:00 24.1 C 57 % 15.05 C
1947 29-06-2016 18:10:00 23.8 C 53 % 13.65 C
1948 29-06-2016 18:15:00 23.6 C 61 % 15.64 C
1949 29-06-2016 18:20:00 23.4 C 62 % 15.71 C
1950 29-06-2016 18:25:00 23.2 C 61 % 15.26 C
Sensor: Nr:Datum:Temp:Feuchte:Taupunkt:
Aussen-T/F 1951 29-06-2016 18:30:00 23 C 60 % 14.82 C
1952 29-06-2016 18:35:00 22.8 C 66 % 16.12 C
1953 29-06-2016 18:40:00 22.5 C 67 % 16.07 C
1954 29-06-2016 18:45:00 22.2 C 67 % 15.78 C
1955 29-06-2016 18:50:00 21.9 C 68 % 15.73 C
1956 29-06-2016 18:55:00 21.6 C 69 % 15.67 C
1957 29-06-2016 19:00:00 21.3 C 70 % 15.61 C
1958 29-06-2016 19:05:00 21.1 C 71 % 15.64 C
1959 29-06-2016 19:10:00 20.8 C 71 % 15.35 C
1960 29-06-2016 19:15:00 20.6 C 72 % 15.38 C
1961 29-06-2016 19:20:00 20.3 C 72 % 15.09 C
1962 29-06-2016 19:25:00 20.1 C 72 % 14.9 C
1963 29-06-2016 19:30:00 19.9 C 74 % 15.13 C
1964 29-06-2016 19:35:00 19.8 C 74 % 15.03 C
1965 29-06-2016 19:40:00 19.6 C 75 % 15.05 C
1966 29-06-2016 19:45:00 19.4 C 76 % 15.06 C
1967 29-06-2016 19:50:00 19.3 C 76 % 14.97 C
1968 29-06-2016 19:55:00 19.1 C 76 % 14.77 C
1969 29-06-2016 20:00:00 19 C 76 % 14.68 C
1970 29-06-2016 20:05:00 18.9 C 78 % 14.98 C
1971 29-06-2016 20:10:00 18.8 C 77 % 14.68 C
1972 29-06-2016 20:15:00 18.7 C 78 % 14.79 C
1973 29-06-2016 20:20:00 18.7 C 78 % 14.79 C
1974 29-06-2016 20:25:00 18.6 C 79 % 14.89 C
1975 29-06-2016 20:30:00 18.4 C 79 % 14.69 C
Sensor: Nr:Datum:Temp:Feuchte:Taupunkt:
Aussen-T/F 1976 29-06-2016 20:35:00 18.3 C 79 % 14.6 C
1977 29-06-2016 20:40:00 18.2 C 80 % 14.69 C
1978 29-06-2016 20:45:00 18.1 C 79 % 14.4 C
1979 29-06-2016 20:50:00 18 C 80 % 14.5 C
1980 29-06-2016 20:55:00 17.9 C 80 % 14.4 C
1981 29-06-2016 21:00:00 17.8 C 81 % 14.5 C
1982 29-06-2016 21:05:00 17.7 C 81 % 14.4 C
1983 29-06-2016 21:10:00 17.6 C 81 % 14.3 C
1984 29-06-2016 21:15:00 17.6 C 81 % 14.3 C
1985 29-06-2016 21:20:00 17.4 C 81 % 14.11 C
1986 29-06-2016 21:25:00 17.3 C 82 % 14.2 C
1987 29-06-2016 21:30:00 17.2 C 81 % 13.91 C
1988 29-06-2016 21:35:00 17.1 C 80 % 13.62 C
1989 29-06-2016 21:40:00 17 C 80 % 13.53 C
1990 29-06-2016 21:45:00 16.9 C 81 % 13.62 C
1991 29-06-2016 21:50:00 16.9 C 82 % 13.81 C
1992 29-06-2016 21:55:00 16.9 C 83 % 14 C
1993 29-06-2016 22:00:00 16.8 C 82 % 13.71 C
1994 29-06-2016 22:05:00 16.8 C 83 % 13.9 C
1995 29-06-2016 22:10:00 16.8 C 83 % 13.9 C
1996 29-06-2016 22:15:00 16.7 C 83 % 13.8 C
1997 29-06-2016 22:20:00 16.6 C 84 % 13.89 C
1998 29-06-2016 22:25:00 16.6 C 85 % 14.07 C
1999 29-06-2016 22:30:00 16.4 C 84 % 13.69 C
2000 29-06-2016 22:35:00 16.4 C 85 % 13.87 C
Sensor: Nr:Datum:Temp:Feuchte:Taupunkt:
Aussen-T/F 2001 29-06-2016 22:40:00 16.3 C 85 % 13.77 C
2002 29-06-2016 22:45:00 16.2 C 85 % 13.68 C
2003 29-06-2016 22:50:00 16.1 C 85 % 13.58 C
2004 29-06-2016 22:55:00 16.1 C 85 % 13.58 C
2005 29-06-2016 23:00:00 16 C 85 % 13.48 C
2006 29-06-2016 23:05:00 15.9 C 85 % 13.38 C
2007 29-06-2016 23:10:00 15.9 C 86 % 13.56 C
2008 29-06-2016 23:15:00 15.9 C 86 % 13.56 C
2009 29-06-2016 23:20:00 15.8 C 85 % 13.28 C
2010 29-06-2016 23:25:00 15.8 C 86 % 13.46 C
2011 29-06-2016 23:30:00 15.8 C 86 % 13.46 C
2012 29-06-2016 23:35:00 15.8 C 86 % 13.46 C
2013 29-06-2016 23:40:00 15.8 C 87 % 13.64 C
2014 29-06-2016 23:45:00 15.8 C 87 % 13.64 C
2015 29-06-2016 23:50:00 15.8 C 86 % 13.46 C
2016 29-06-2016 23:55:00 15.8 C 87 % 13.64 C
2017 30-06-2016 00:00:00 15.8 C 87 % 13.64 C
2018 30-06-2016 00:05:00 15.8 C 87 % 13.64 C
2019 30-06-2016 00:10:00 15.8 C 87 % 13.64 C
2020 30-06-2016 00:15:00 15.7 C 87 % 13.54 C
2021 30-06-2016 00:20:00 15.7 C 87 % 13.54 C
2022 30-06-2016 00:25:00 15.7 C 87 % 13.54 C
2023 30-06-2016 00:30:00 15.7 C 87 % 13.54 C
2024 30-06-2016 00:35:00 15.6 C 87 % 13.45 C
2025 30-06-2016 00:40:00 15.6 C 87 % 13.45 C
Sensor: Nr:Datum:Temp:Feuchte:Taupunkt:
Aussen-T/F 2026 30-06-2016 00:45:00 15.6 C 88 % 13.62 C
2027 30-06-2016 00:50:00 15.6 C 88 % 13.62 C
2028 30-06-2016 00:55:00 15.6 C 88 % 13.62 C
2029 30-06-2016 01:00:00 15.6 C 88 % 13.62 C
2030 30-06-2016 01:05:00 15.5 C 88 % 13.52 C
2031 30-06-2016 01:10:00 15.5 C 88 % 13.52 C
2032 30-06-2016 01:15:00 15.5 C 88 % 13.52 C
2033 30-06-2016 01:20:00 15.6 C 88 % 13.62 C
2034 30-06-2016 01:25:00 15.6 C 89 % 13.79 C
2035 30-06-2016 01:30:00 15.6 C 88 % 13.62 C
2036 30-06-2016 01:35:00 15.6 C 88 % 13.62 C
2037 30-06-2016 01:40:00 15.6 C 89 % 13.79 C
2038 30-06-2016 01:45:00 15.6 C 89 % 13.79 C
2039 30-06-2016 01:50:00 15.6 C 88 % 13.62 C
2040 30-06-2016 01:55:00 15.6 C 88 % 13.62 C
2041 30-06-2016 02:00:00 15.7 C 89 % 13.89 C
2042 30-06-2016 02:05:00 15.7 C 89 % 13.89 C
2043 30-06-2016 02:10:00 15.7 C 89 % 13.89 C
2044 30-06-2016 02:15:00 15.7 C 89 % 13.89 C
2045 30-06-2016 02:20:00 15.7 C 88 % 13.72 C
2046 30-06-2016 02:25:00 15.7 C 88 % 13.72 C
2047 30-06-2016 02:30:00 15.7 C 88 % 13.72 C
2048 30-06-2016 02:35:00 15.8 C 88 % 13.82 C
2049 30-06-2016 02:40:00 15.7 C 88 % 13.72 C
2050 30-06-2016 02:45:00 15.7 C 87 % 13.54 C
Sensor: Nr:Datum:Temp:Feuchte:Taupunkt:
Aussen-T/F 2051 30-06-2016 02:50:00 15.8 C 87 % 13.64 C
2052 30-06-2016 02:55:00 15.8 C 87 % 13.64 C
2053 30-06-2016 03:00:00 15.8 C 87 % 13.64 C
2054 30-06-2016 03:05:00 15.8 C 88 % 13.82 C
2055 30-06-2016 03:10:00 15.9 C 88 % 13.92 C
2056 30-06-2016 03:15:00 15.8 C 87 % 13.64 C
2057 30-06-2016 03:20:00 15.9 C 88 % 13.92 C
2058 30-06-2016 03:25:00 15.9 C 88 % 13.92 C
2059 30-06-2016 03:30:00 15.9 C 88 % 13.92 C
2060 30-06-2016 03:35:00 15.9 C 88 % 13.92 C
2061 30-06-2016 03:40:00 15.9 C 88 % 13.92 C
2062 30-06-2016 03:45:00 15.9 C 88 % 13.92 C
2063 30-06-2016 03:50:00 15.9 C 88 % 13.92 C
2064 30-06-2016 03:55:00 15.9 C 88 % 13.92 C
2065 30-06-2016 04:00:00 15.9 C 87 % 13.74 C
2066 30-06-2016 04:05:00 15.9 C 88 % 13.92 C
2067 30-06-2016 04:10:00 15.9 C 88 % 13.92 C
2068 30-06-2016 04:15:00 15.9 C 88 % 13.92 C
2069 30-06-2016 04:20:00 15.9 C 88 % 13.92 C
2070 30-06-2016 04:25:00 15.9 C 88 % 13.92 C
2071 30-06-2016 04:30:00 15.9 C 88 % 13.92 C
2072 30-06-2016 04:35:00 15.9 C 88 % 13.92 C
2073 30-06-2016 04:40:00 15.9 C 88 % 13.92 C
2074 30-06-2016 04:45:00 15.9 C 88 % 13.92 C
2075 30-06-2016 04:50:00 15.9 C 88 % 13.92 C
Sensor: Nr:Datum:Temp:Feuchte:Taupunkt:
Aussen-T/F 2076 30-06-2016 04:55:00 15.9 C 88 % 13.92 C
2077 30-06-2016 05:00:00 15.9 C 89 % 14.09 C
2078 30-06-2016 05:05:00 15.9 C 89 % 14.09 C
2079 30-06-2016 05:10:00 15.9 C 89 % 14.09 C
2080 30-06-2016 05:15:00 15.9 C 89 % 14.09 C
2081 30-06-2016 05:20:00 15.9 C 89 % 14.09 C
2082 30-06-2016 05:25:00 15.9 C 90 % 14.26 C
2083 30-06-2016 05:30:00 15.8 C 90 % 14.16 C
2084 30-06-2016 05:35:00 15.8 C 90 % 14.16 C
2085 30-06-2016 05:40:00 15.8 C 90 % 14.16 C
2086 30-06-2016 05:45:00 15.8 C 90 % 14.16 C
2087 30-06-2016 05:50:00 15.8 C 90 % 14.16 C
2088 30-06-2016 05:55:00 15.8 C 90 % 14.16 C
2089 30-06-2016 06:00:00 15.8 C 91 % 14.33 C
2090 30-06-2016 06:05:00 15.8 C 91 % 14.33 C
2091 30-06-2016 06:10:00 15.8 C 91 % 14.33 C
2092 30-06-2016 06:15:00 15.9 C 91 % 14.43 C
2093 30-06-2016 06:20:00 15.9 C 91 % 14.43 C
2094 30-06-2016 06:25:00 15.9 C 91 % 14.43 C
2095 30-06-2016 06:30:00 15.9 C 91 % 14.43 C
2096 30-06-2016 06:35:00 15.9 C 91 % 14.43 C
2097 30-06-2016 06:40:00 15.9 C 91 % 14.43 C
2098 30-06-2016 06:45:00 15.9 C 91 % 14.43 C
2099 30-06-2016 06:50:00 15.9 C 92 % 14.6 C
2100 30-06-2016 06:55:00 16 C 92 % 14.7 C
Sensor: Nr:Datum:Temp:Feuchte:Taupunkt:
Aussen-T/F 2101 30-06-2016 07:00:00 16 C 92 % 14.7 C
2102 30-06-2016 07:05:00 16.1 C 92 % 14.8 C
2103 30-06-2016 07:10:00 16.1 C 92 % 14.8 C
2104 30-06-2016 07:15:00 16.2 C 93 % 15.07 C
2105 30-06-2016 07:20:00 16.2 C 93 % 15.07 C
2106 30-06-2016 07:25:00 16.3 C 93 % 15.17 C
2107 30-06-2016 07:30:00 16.3 C 93 % 15.17 C
2108 30-06-2016 07:35:00 16.4 C 93 % 15.27 C
2109 30-06-2016 07:40:00 16.5 C 93 % 15.36 C
2110 30-06-2016 07:45:00 16.6 C 93 % 15.46 C
2111 30-06-2016 07:50:00 16.7 C 92 % 15.39 C
2112 30-06-2016 07:55:00 16.7 C 92 % 15.39 C
2113 30-06-2016 08:00:00 16.8 C 92 % 15.49 C
2114 30-06-2016 08:05:00 16.9 C 92 % 15.59 C
2115 30-06-2016 08:10:00 17 C 92 % 15.69 C
2116 30-06-2016 08:15:00 17.1 C 92 % 15.79 C
2117 30-06-2016 08:20:00 17.2 C 91 % 15.72 C
2118 30-06-2016 08:25:00 17.3 C 91 % 15.82 C
2119 30-06-2016 08:30:00 17.3 C 89 % 15.47 C
2120 30-06-2016 08:35:00 17.4 C 89 % 15.57 C
2121 30-06-2016 08:40:00 17.6 C 88 % 15.59 C
2122 30-06-2016 08:45:00 17.7 C 88 % 15.69 C
2123 30-06-2016 08:50:00 17.7 C 86 % 15.33 C
2124 30-06-2016 08:55:00 17.7 C 86 % 15.33 C
2125 30-06-2016 09:00:00 17.8 C 85 % 15.25 C
Sensor: Nr:Datum:Temp:Feuchte:Taupunkt:
Aussen-T/F 2126 30-06-2016 09:05:00 17.9 C 84 % 15.16 C
2127 30-06-2016 09:10:00 18 C 84 % 15.26 C
2128 30-06-2016 09:15:00 18.2 C 83 % 15.27 C
2129 30-06-2016 09:20:00 18.3 C 82 % 15.17 C
2130 30-06-2016 09:25:00 18.4 C 80 % 14.89 C
2131 30-06-2016 09:30:00 18.5 C 81 % 15.18 C
2132 30-06-2016 09:35:00 18.6 C 80 % 15.08 C
2133 30-06-2016 09:40:00 18.7 C 79 % 14.99 C
2134 30-06-2016 09:45:00 18.7 C 78 % 14.79 C
2135 30-06-2016 09:50:00 18.8 C 79 % 15.08 C
2136 30-06-2016 09:55:00 18.9 C 78 % 14.98 C
2137 30-06-2016 10:00:00 19 C 75 % 14.47 C
2138 30-06-2016 10:05:00 19 C 75 % 14.47 C
2139 30-06-2016 10:10:00 19.1 C 75 % 14.57 C
2140 30-06-2016 10:15:00 19.2 C 76 % 14.87 C
2141 30-06-2016 10:20:00 19.3 C 76 % 14.97 C
2142 30-06-2016 10:25:00 19.4 C 74 % 14.65 C
2143 30-06-2016 10:30:00 19.6 C 75 % 15.05 C
2144 30-06-2016 10:35:00 19.6 C 75 % 15.05 C
2145 30-06-2016 10:40:00 19.6 C 74 % 14.84 C
2146 30-06-2016 10:45:00 19.7 C 75 % 15.15 C
2147 30-06-2016 10:50:00 19.9 C 73 % 14.92 C
2148 30-06-2016 10:55:00 20 C 73 % 15.01 C
2149 30-06-2016 11:00:00 20.1 C 72 % 14.9 C
2150 30-06-2016 11:05:00 20.3 C 74 % 15.51 C
Sensor: Nr:Datum:Temp:Feuchte:Taupunkt:
Aussen-T/F 2151 30-06-2016 11:10:00 20.4 C 72 % 15.18 C
2152 30-06-2016 11:15:00 20.4 C 71 % 14.97 C
2153 30-06-2016 11:20:00 20.4 C 70 % 14.75 C
2154 30-06-2016 11:25:00 20.3 C 73 % 15.3 C
2155 30-06-2016 11:30:00 20.4 C 70 % 14.75 C
2156 30-06-2016 11:35:00 20.5 C 70 % 14.84 C
2157 30-06-2016 11:40:00 20.7 C 70 % 15.03 C
2158 30-06-2016 11:45:00 20.7 C 68 % 14.58 C
2159 30-06-2016 11:50:00 20.6 C 70 % 14.94 C
2160 30-06-2016 11:55:00 20.7 C 70 % 15.03 C
2161 30-06-2016 12:00:00 20.7 C 73 % 15.69 C
2162 30-06-2016 12:05:00 20.8 C 73 % 15.78 C
2163 30-06-2016 12:10:00 21.1 C 74 % 16.29 C
2164 30-06-2016 12:15:00 21.1 C 70 % 15.42 C
2165 30-06-2016 12:20:00 21.1 C 70 % 15.42 C
2166 30-06-2016 12:25:00 21.1 C 71 % 15.64 C
2167 30-06-2016 12:30:00 21.1 C 72 % 15.86 C
2168 30-06-2016 12:35:00 21.1 C 69 % 15.19 C
2169 30-06-2016 12:40:00 21.3 C 72 % 16.05 C
2170 30-06-2016 12:45:00 21.5 C 68 % 15.35 C
2171 30-06-2016 12:50:00 21.6 C 69 % 15.67 C
2172 30-06-2016 12:55:00 21.6 C 68 % 15.44 C
2173 30-06-2016 13:00:00 21.4 C 69 % 15.48 C
2174 30-06-2016 13:05:00 21.3 C 72 % 16.05 C
2175 30-06-2016 13:10:00 21.3 C 69 % 15.38 C
Sensor: Nr:Datum:Temp:Feuchte:Taupunkt:
Aussen-T/F 2176 30-06-2016 13:15:00 21.4 C 69 % 15.48 C
2177 30-06-2016 13:20:00 21.5 C 69 % 15.57 C
2178 30-06-2016 13:25:00 21.5 C 69 % 15.57 C
2179 30-06-2016 13:30:00 21.6 C 69 % 15.67 C
2180 30-06-2016 13:35:00 21.6 C 69 % 15.67 C
2181 30-06-2016 13:40:00 21.4 C 68 % 15.25 C
2182 30-06-2016 13:45:00 21.1 C 69 % 15.19 C
2183 30-06-2016 13:50:00 20.8 C 71 % 15.35 C
2184 30-06-2016 13:55:00 20.8 C 72 % 15.57 C
2185 30-06-2016 14:00:00 20.7 C 72 % 15.47 C
2186 30-06-2016 14:05:00 20.7 C 73 % 15.69 C
2187 30-06-2016 14:10:00 20.7 C 77 % 16.52 C
2188 30-06-2016 14:15:00 20.7 C 74 % 15.9 C
2189 30-06-2016 14:20:00 20.9 C 74 % 16.09 C
2190 30-06-2016 14:25:00 21.2 C 72 % 15.95 C
2191 30-06-2016 14:30:00 21.5 C 73 % 16.46 C
2192 30-06-2016 14:35:00 21.6 C 73 % 16.55 C
2193 30-06-2016 14:40:00 21.6 C 69 % 15.67 C
2194 30-06-2016 14:45:00 21.7 C 70 % 15.99 C
2195 30-06-2016 14:50:00 21.9 C 71 % 16.4 C
2196 30-06-2016 14:55:00 22 C 72 % 16.72 C
2197 30-06-2016 15:00:00 21.9 C 71 % 16.4 C
2198 30-06-2016 15:05:00 22 C 69 % 16.05 C
2199 30-06-2016 15:10:00 22.2 C 69 % 16.24 C
2200 30-06-2016 15:15:00 22.3 C 67 % 15.88 C
Sensor: Nr:Datum:Temp:Feuchte:Taupunkt:
Aussen-T/F 2201 30-06-2016 15:20:00 22.3 C 65 % 15.4 C
2202 30-06-2016 15:25:00 22.2 C 71 % 16.69 C
2203 30-06-2016 15:30:00 22 C 69 % 16.05 C
2204 30-06-2016 15:35:00 21.9 C 70 % 16.18 C
2205 30-06-2016 15:40:00 21.8 C 68 % 15.63 C
2206 30-06-2016 15:45:00 21.8 C 71 % 16.31 C
2207 30-06-2016 15:50:00 21.9 C 68 % 15.73 C
2208 30-06-2016 15:55:00 21.8 C 69 % 15.86 C
2209 30-06-2016 16:00:00 21.8 C 74 % 16.96 C
2210 30-06-2016 16:05:00 21.7 C 70 % 15.99 C
2211 30-06-2016 16:10:00 21.6 C 74 % 16.77 C
2212 30-06-2016 16:15:00 21.7 C 72 % 16.43 C
2213 30-06-2016 16:20:00 21.7 C 70 % 15.99 C
2214 30-06-2016 16:25:00 21.8 C 72 % 16.53 C
2215 30-06-2016 16:30:00 21.7 C 72 % 16.43 C
2216 30-06-2016 16:35:00 21.6 C 73 % 16.55 C
2217 30-06-2016 16:40:00 21.6 C 72 % 16.34 C
2218 30-06-2016 16:45:00 21.6 C 71 % 16.12 C
2219 30-06-2016 16:50:00 21.6 C 70 % 15.89 C
2220 30-06-2016 16:55:00 21.6 C 70 % 15.89 C
2221 30-06-2016 17:00:00 21.6 C 73 % 16.55 C
2222 30-06-2016 17:05:00 21.5 C 72 % 16.24 C
2223 30-06-2016 17:10:00 21.7 C 72 % 16.43 C
2224 30-06-2016 17:15:00 22.1 C 71 % 16.6 C
2225 30-06-2016 17:20:00 22.4 C 69 % 16.43 C
Sensor: Nr:Datum:Temp:Feuchte:Taupunkt:
Aussen-T/F 2226 30-06-2016 17:25:00 22.9 C 69 % 16.91 C
2227 30-06-2016 17:30:00 23.4 C 66 % 16.69 C
2228 30-06-2016 17:35:00 23.4 C 67 % 16.92 C
2229 30-06-2016 17:40:00 23.2 C 67 % 16.73 C
2230 30-06-2016 17:45:00 22.8 C 67 % 16.35 C
2231 30-06-2016 17:50:00 22.5 C 68 % 16.3 C
2232 30-06-2016 17:55:00 22.2 C 69 % 16.24 C
2233 30-06-2016 18:00:00 22.1 C 71 % 16.6 C
2234 30-06-2016 18:05:00 22.1 C 72 % 16.82 C
2235 30-06-2016 18:10:00 22.1 C 71 % 16.6 C
2236 30-06-2016 18:15:00 22.1 C 69 % 16.15 C
2237 30-06-2016 18:20:00 22 C 68 % 15.82 C
2238 30-06-2016 18:25:00 21.9 C 68 % 15.73 C
2239 30-06-2016 18:30:00 21.8 C 68 % 15.63 C
2240 30-06-2016 18:35:00 21.7 C 71 % 16.21 C
2241 30-06-2016 18:40:00 21.8 C 73 % 16.75 C
2242 30-06-2016 18:45:00 21.9 C 72 % 16.62 C
2243 30-06-2016 18:50:00 22.1 C 71 % 16.6 C
2244 30-06-2016 18:55:00 22.1 C 72 % 16.82 C
2245 30-06-2016 19:00:00 22.1 C 69 % 16.15 C
2246 30-06-2016 19:05:00 22 C 75 % 17.36 C
2247 30-06-2016 19:10:00 21.9 C 75 % 17.27 C
2248 30-06-2016 19:15:00 21.8 C 76 % 17.38 C
2249 30-06-2016 19:20:00 21.7 C 77 % 17.49 C
2250 30-06-2016 19:25:00 21.7 C 79 % 17.9 C
Sensor: Nr:Datum:Temp:Feuchte:Taupunkt:
Aussen-T/F 2251 30-06-2016 19:30:00 21.6 C 77 % 17.39 C
2252 30-06-2016 19:35:00 21.6 C 78 % 17.6 C
2253 30-06-2016 19:40:00 21.5 C 79 % 17.7 C
2254 30-06-2016 19:45:00 21.3 C 79 % 17.51 C
2255 30-06-2016 19:50:00 21.1 C 78 % 17.11 C
2256 30-06-2016 19:55:00 20.9 C 79 % 17.12 C
2257 30-06-2016 20:00:00 20.7 C 80 % 17.13 C
2258 30-06-2016 20:05:00 20.6 C 80 % 17.03 C
2259 30-06-2016 20:10:00 20.6 C 80 % 17.03 C
2260 30-06-2016 20:15:00 20.4 C 78 % 16.44 C
2261 30-06-2016 20:20:00 20.4 C 80 % 16.83 C
2262 30-06-2016 20:25:00 20.3 C 80 % 16.74 C
2263 30-06-2016 20:30:00 20.3 C 80 % 16.74 C
2264 30-06-2016 20:35:00 20.4 C 80 % 16.83 C
2265 30-06-2016 20:40:00 20.4 C 81 % 17.03 C
2266 30-06-2016 20:45:00 20.3 C 80 % 16.74 C
2267 30-06-2016 20:50:00 20.3 C 80 % 16.74 C
2268 30-06-2016 20:55:00 20.2 C 80 % 16.64 C
2269 30-06-2016 21:00:00 20 C 82 % 16.83 C
2270 30-06-2016 21:05:00 19.8 C 82 % 16.64 C
2271 30-06-2016 21:10:00 19.6 C 82 % 16.44 C
2272 30-06-2016 21:15:00 19.4 C 82 % 16.25 C
2273 30-06-2016 21:20:00 19.2 C 83 % 16.24 C
2274 30-06-2016 21:25:00 19.1 C 84 % 16.33 C
2275 30-06-2016 21:30:00 18.9 C 84 % 16.14 C
Sensor: Nr:Datum:Temp:Feuchte:Taupunkt:
Aussen-T/F 2276 30-06-2016 21:35:00 18.8 C 85 % 16.23 C
2277 30-06-2016 21:40:00 18.8 C 85 % 16.23 C
2278 30-06-2016 21:45:00 18.7 C 85 % 16.13 C
2279 30-06-2016 21:50:00 18.7 C 85 % 16.13 C
2280 30-06-2016 21:55:00 18.6 C 86 % 16.21 C
2281 30-06-2016 22:00:00 18.6 C 86 % 16.21 C
2282 30-06-2016 22:05:00 18.4 C 86 % 16.02 C
2283 30-06-2016 22:10:00 18.3 C 86 % 15.92 C
2284 30-06-2016 22:15:00 18.2 C 86 % 15.82 C
2285 30-06-2016 22:20:00 18.1 C 86 % 15.72 C
2286 30-06-2016 22:25:00 17.9 C 87 % 15.71 C
2287 30-06-2016 22:30:00 17.8 C 87 % 15.61 C
2288 30-06-2016 22:35:00 17.6 C 88 % 15.59 C
2289 30-06-2016 22:40:00 17.5 C 88 % 15.49 C
2290 30-06-2016 22:45:00 17.3 C 88 % 15.29 C
2291 30-06-2016 22:50:00 17.2 C 89 % 15.37 C
2292 30-06-2016 22:55:00 17.2 C 89 % 15.37 C
2293 30-06-2016 23:00:00 17.1 C 89 % 15.27 C
2294 30-06-2016 23:05:00 16.9 C 89 % 15.08 C
2295 30-06-2016 23:10:00 16.9 C 89 % 15.08 C
2296 30-06-2016 23:15:00 16.9 C 90 % 15.25 C
2297 30-06-2016 23:20:00 16.8 C 90 % 15.15 C
2298 30-06-2016 23:25:00 16.8 C 90 % 15.15 C
2299 30-06-2016 23:30:00 16.8 C 91 % 15.32 C
2300 30-06-2016 23:35:00 16.8 C 91 % 15.32 C
Sensor: Nr:Datum:Temp:Feuchte:Taupunkt:
Aussen-T/F 2301 30-06-2016 23:40:00 16.8 C 91 % 15.32 C
2302 30-06-2016 23:45:00 16.8 C 91 % 15.32 C
2303 30-06-2016 23:50:00 16.8 C 91 % 15.32 C
2304 30-06-2016 23:55:00 16.8 C 91 % 15.32 C
2305 01-07-2016 00:00:00 16.8 C 91 % 15.32 C
2306 01-07-2016 00:05:00 16.8 C 91 % 15.32 C
2307 01-07-2016 00:10:00 16.8 C 92 % 15.49 C
2308 01-07-2016 00:15:00 16.9 C 92 % 15.59 C
2309 01-07-2016 00:20:00 16.9 C 92 % 15.59 C
2310 01-07-2016 00:25:00 16.9 C 92 % 15.59 C
2311 01-07-2016 00:30:00 16.9 C 92 % 15.59 C
2312 01-07-2016 00:35:00 16.9 C 92 % 15.59 C
2313 01-07-2016 00:40:00 16.8 C 92 % 15.49 C
2314 01-07-2016 00:45:00 16.8 C 92 % 15.49 C
2315 01-07-2016 00:50:00 16.7 C 91 % 15.22 C
2316 01-07-2016 00:55:00 16.7 C 92 % 15.39 C
2317 01-07-2016 01:00:00 16.8 C 92 % 15.49 C
2318 01-07-2016 01:05:00 16.8 C 92 % 15.49 C
2319 01-07-2016 01:10:00 16.8 C 92 % 15.49 C
2320 01-07-2016 01:15:00 16.8 C 92 % 15.49 C
2321 01-07-2016 01:20:00 16.9 C 92 % 15.59 C
2322 01-07-2016 01:25:00 16.9 C 92 % 15.59 C
2323 01-07-2016 01:30:00 16.9 C 92 % 15.59 C
2324 01-07-2016 01:35:00 16.9 C 92 % 15.59 C
2325 01-07-2016 01:40:00 16.9 C 92 % 15.59 C
Sensor: Nr:Datum:Temp:Feuchte:Taupunkt:
Aussen-T/F 2326 01-07-2016 01:45:00 16.9 C 92 % 15.59 C
2327 01-07-2016 01:50:00 16.9 C 92 % 15.59 C
2328 01-07-2016 01:55:00 16.9 C 92 % 15.59 C
2329 01-07-2016 02:00:00 16.9 C 92 % 15.59 C
2330 01-07-2016 02:05:00 16.9 C 92 % 15.59 C
2331 01-07-2016 02:10:00 16.9 C 92 % 15.59 C
2332 01-07-2016 02:15:00 17 C 92 % 15.69 C
2333 01-07-2016 02:20:00 17 C 92 % 15.69 C
2334 01-07-2016 02:25:00 17 C 92 % 15.69 C
2335 01-07-2016 02:30:00 17.1 C 92 % 15.79 C
2336 01-07-2016 02:35:00 17.1 C 92 % 15.79 C
2337 01-07-2016 02:40:00 17 C 92 % 15.69 C
2338 01-07-2016 02:45:00 17 C 92 % 15.69 C
2339 01-07-2016 02:50:00 17 C 92 % 15.69 C
2340 01-07-2016 02:55:00 16.9 C 92 % 15.59 C
2341 01-07-2016 03:00:00 16.9 C 92 % 15.59 C
2342 01-07-2016 03:05:00 16.9 C 92 % 15.59 C
2343 01-07-2016 03:10:00 16.8 C 92 % 15.49 C
2344 01-07-2016 03:15:00 16.8 C 92 % 15.49 C
2345 01-07-2016 03:20:00 16.7 C 92 % 15.39 C
2346 01-07-2016 03:25:00 16.6 C 92 % 15.3 C
2347 01-07-2016 03:30:00 16.6 C 92 % 15.3 C
2348 01-07-2016 03:35:00 16.5 C 92 % 15.2 C
2349 01-07-2016 03:40:00 16.5 C 93 % 15.36 C
2350 01-07-2016 03:45:00 16.5 C 93 % 15.36 C
Sensor: Nr:Datum:Temp:Feuchte:Taupunkt:
Aussen-T/F 2351 01-07-2016 03:50:00 16.5 C 93 % 15.36 C
2352 01-07-2016 03:55:00 16.6 C 93 % 15.46 C
2353 01-07-2016 04:00:00 16.6 C 93 % 15.46 C
2354 01-07-2016 04:05:00 16.6 C 93 % 15.46 C
2355 01-07-2016 04:10:00 16.6 C 93 % 15.46 C
2356 01-07-2016 04:15:00 16.6 C 93 % 15.46 C
2357 01-07-2016 04:20:00 16.5 C 93 % 15.36 C
2358 01-07-2016 04:25:00 16.5 C 93 % 15.36 C
2359 01-07-2016 04:30:00 16.5 C 93 % 15.36 C
2360 01-07-2016 04:35:00 16.6 C 93 % 15.46 C
2361 01-07-2016 04:40:00 16.6 C 93 % 15.46 C
2362 01-07-2016 04:45:00 16.5 C 93 % 15.36 C
2363 01-07-2016 04:50:00 16.5 C 93 % 15.36 C
2364 01-07-2016 04:55:00 16.5 C 94 % 15.53 C
2365 01-07-2016 05:00:00 16.6 C 94 % 15.63 C
2366 01-07-2016 05:05:00 16.6 C 94 % 15.63 C
2367 01-07-2016 05:10:00 16.7 C 94 % 15.73 C
2368 01-07-2016 05:15:00 16.7 C 94 % 15.73 C
2369 01-07-2016 05:20:00 16.8 C 94 % 15.83 C
2370 01-07-2016 05:25:00 16.8 C 93 % 15.66 C
2371 01-07-2016 05:30:00 16.8 C 93 % 15.66 C
2372 01-07-2016 05:35:00 16.9 C 93 % 15.76 C
2373 01-07-2016 05:40:00 16.9 C 92 % 15.59 C
2374 01-07-2016 05:45:00 17 C 92 % 15.69 C
2375 01-07-2016 05:50:00 17 C 92 % 15.69 C
Sensor: Nr:Datum:Temp:Feuchte:Taupunkt:
Aussen-T/F 2376 01-07-2016 05:55:00 17 C 92 % 15.69 C
2377 01-07-2016 06:00:00 17.1 C 92 % 15.79 C
2378 01-07-2016 06:05:00 17.2 C 92 % 15.89 C
2379 01-07-2016 06:10:00 17.4 C 91 % 15.92 C
2380 01-07-2016 06:15:00 17.6 C 91 % 16.11 C
2381 01-07-2016 06:20:00 17.7 C 90 % 16.04 C
2382 01-07-2016 06:25:00 17.8 C 90 % 16.14 C
2383 01-07-2016 06:30:00 17.8 C 89 % 15.96 C
2384 01-07-2016 06:35:00 17.9 C 88 % 15.88 C
2385 01-07-2016 06:40:00 18.1 C 89 % 16.26 C
2386 01-07-2016 06:45:00 18.1 C 88 % 16.08 C
2387 01-07-2016 06:50:00 18.2 C 88 % 16.18 C
2388 01-07-2016 06:55:00 18.2 C 88 % 16.18 C
2389 01-07-2016 07:00:00 18.3 C 88 % 16.28 C
2390 01-07-2016 07:05:00 18.3 C 88 % 16.28 C
2391 01-07-2016 07:10:00 18.3 C 88 % 16.28 C
2392 01-07-2016 07:15:00 18.4 C 88 % 16.38 C
2393 01-07-2016 07:20:00 18.4 C 88 % 16.38 C
2394 01-07-2016 07:25:00 18.3 C 87 % 16.1 C
2395 01-07-2016 07:30:00 18.4 C 88 % 16.38 C
2396 01-07-2016 07:35:00 18.5 C 88 % 16.48 C
2397 01-07-2016 07:40:00 18.6 C 87 % 16.39 C
2398 01-07-2016 07:45:00 18.6 C 86 % 16.21 C
2399 01-07-2016 07:50:00 18.7 C 87 % 16.49 C
2400 01-07-2016 07:55:00 18.7 C 86 % 16.31 C
Sensor: Nr:Datum:Temp:Feuchte:Taupunkt:
Aussen-T/F 2401 01-07-2016 08:00:00 18.7 C 87 % 16.49 C
2402 01-07-2016 08:05:00 18.8 C 87 % 16.59 C
2403 01-07-2016 08:10:00 18.8 C 87 % 16.59 C
2404 01-07-2016 08:15:00 18.9 C 86 % 16.51 C
2405 01-07-2016 08:20:00 19.1 C 86 % 16.7 C
2406 01-07-2016 08:25:00 19.3 C 86 % 16.9 C
2407 01-07-2016 08:30:00 19.4 C 85 % 16.81 C
2408 01-07-2016 08:35:00 19.6 C 86 % 17.19 C
2409 01-07-2016 08:40:00 19.6 C 84 % 16.82 C
2410 01-07-2016 08:45:00 19.6 C 85 % 17.01 C
2411 01-07-2016 08:50:00 19.6 C 86 % 17.19 C
2412 01-07-2016 08:55:00 19.6 C 87 % 17.38 C
2413 01-07-2016 09:00:00 19.5 C 87 % 17.28 C
2414 01-07-2016 09:05:00 19.5 C 86 % 17.1 C
2415 01-07-2016 09:10:00 19.6 C 88 % 17.56 C
2416 01-07-2016 09:15:00 19.6 C 85 % 17.01 C
2417 01-07-2016 09:20:00 19.7 C 86 % 17.29 C
2418 01-07-2016 09:25:00 19.7 C 84 % 16.92 C
2419 01-07-2016 09:30:00 19.8 C 84 % 17.02 C
2420 01-07-2016 09:35:00 20.1 C 83 % 17.12 C
2421 01-07-2016 09:40:00 20.2 C 83 % 17.22 C
2422 01-07-2016 09:45:00 20.4 C 83 % 17.42 C
2423 01-07-2016 09:50:00 20.6 C 84 % 17.8 C
2424 01-07-2016 09:55:00 20.7 C 84 % 17.9 C
2425 01-07-2016 10:00:00 20.8 C 80 % 17.22 C
Sensor: Nr:Datum:Temp:Feuchte:Taupunkt:
Aussen-T/F 2426 01-07-2016 10:05:00 20.8 C 79 % 17.02 C
2427 01-07-2016 10:10:00 20.9 C 80 % 17.32 C
2428 01-07-2016 10:15:00 20.9 C 79 % 17.12 C
2429 01-07-2016 10:20:00 21.1 C 79 % 17.32 C
2430 01-07-2016 10:25:00 21.2 C 80 % 17.61 C
2431 01-07-2016 10:30:00 21.3 C 79 % 17.51 C
2432 01-07-2016 10:35:00 21.3 C 78 % 17.31 C
2433 01-07-2016 10:40:00 21.2 C 77 % 17.01 C
2434 01-07-2016 10:45:00 21.3 C 78 % 17.31 C
2435 01-07-2016 10:50:00 21.4 C 78 % 17.4 C
2436 01-07-2016 10:55:00 21.6 C 78 % 17.6 C
2437 01-07-2016 11:00:00 21.7 C 76 % 17.28 C
2438 01-07-2016 11:05:00 21.8 C 75 % 17.17 C
2439 01-07-2016 11:10:00 21.9 C 74 % 17.06 C
2440 01-07-2016 11:15:00 22.1 C 73 % 17.03 C
2441 01-07-2016 11:20:00 22.3 C 72 % 17.01 C
2442 01-07-2016 11:25:00 22.3 C 72 % 17.01 C
2443 01-07-2016 11:30:00 22.4 C 72 % 17.1 C
2444 01-07-2016 11:35:00 22.3 C 73 % 17.23 C
2445 01-07-2016 11:40:00 22.4 C 74 % 17.54 C
2446 01-07-2016 11:45:00 22.2 C 70 % 16.47 C
2447 01-07-2016 11:50:00 22.1 C 74 % 17.25 C
2448 01-07-2016 11:55:00 22.1 C 74 % 17.25 C
2449 01-07-2016 12:00:00 22 C 75 % 17.36 C
2450 01-07-2016 12:05:00 22.1 C 73 % 17.03 C
Sensor: Nr:Datum:Temp:Feuchte:Taupunkt:
Aussen-T/F 2451 01-07-2016 12:10:00 22.1 C 72 % 16.82 C
2452 01-07-2016 12:15:00 22.1 C 70 % 16.37 C
2453 01-07-2016 12:20:00 22.1 C 70 % 16.37 C
2454 01-07-2016 12:25:00 22.1 C 71 % 16.6 C
2455 01-07-2016 12:30:00 22.2 C 70 % 16.47 C
2456 01-07-2016 12:35:00 22.2 C 69 % 16.24 C
2457 01-07-2016 12:40:00 22.1 C 69 % 16.15 C
2458 01-07-2016 12:45:00 22.1 C 68 % 15.92 C
2459 01-07-2016 12:50:00 22 C 69 % 16.05 C
2460 01-07-2016 12:55:00 21.8 C 70 % 16.09 C
2461 01-07-2016 13:00:00 21.8 C 71 % 16.31 C
2462 01-07-2016 13:05:00 21.8 C 73 % 16.75 C
2463 01-07-2016 13:10:00 21.8 C 73 % 16.75 C
2464 01-07-2016 13:15:00 21.9 C 70 % 16.18 C
2465 01-07-2016 13:20:00 22.1 C 69 % 16.15 C
2466 01-07-2016 13:25:00 22.2 C 70 % 16.47 C
2467 01-07-2016 13:30:00 22.2 C 71 % 16.69 C
2468 01-07-2016 13:35:00 22.2 C 72 % 16.91 C
2469 01-07-2016 13:40:00 22.3 C 70 % 16.56 C
2470 01-07-2016 13:45:00 22.4 C 72 % 17.1 C
2471 01-07-2016 13:50:00 22.5 C 70 % 16.76 C
2472 01-07-2016 13:55:00 22.3 C 70 % 16.56 C
2473 01-07-2016 14:00:00 22.2 C 71 % 16.69 C
2474 01-07-2016 14:05:00 22.2 C 73 % 17.13 C
2475 01-07-2016 14:10:00 22.3 C 70 % 16.56 C
Sensor: Nr:Datum:Temp:Feuchte:Taupunkt:
Aussen-T/F 2476 01-07-2016 14:15:00 22.4 C 73 % 17.32 C
2477 01-07-2016 14:20:00 22.5 C 69 % 16.53 C
2478 01-07-2016 14:25:00 22.7 C 68 % 16.49 C
2479 01-07-2016 14:30:00 22.7 C 68 % 16.49 C
2480 01-07-2016 14:35:00 22.6 C 67 % 16.16 C
2481 01-07-2016 14:40:00 22.7 C 67 % 16.26 C
2482 01-07-2016 14:45:00 22.8 C 69 % 16.82 C
2483 01-07-2016 14:50:00 22.8 C 68 % 16.59 C
2484 01-07-2016 14:55:00 22.8 C 67 % 16.35 C
2485 01-07-2016 15:00:00 22.8 C 67 % 16.35 C
2486 01-07-2016 15:05:00 22.8 C 65 % 15.88 C
2487 01-07-2016 15:10:00 22.7 C 68 % 16.49 C
2488 01-07-2016 15:15:00 22.7 C 68 % 16.49 C
2489 01-07-2016 15:20:00 22.6 C 67 % 16.16 C
2490 01-07-2016 15:25:00 22.4 C 68 % 16.2 C
2491 01-07-2016 15:30:00 22.4 C 68 % 16.2 C
2492 01-07-2016 15:35:00 22.4 C 69 % 16.43 C
2493 01-07-2016 15:40:00 22.5 C 68 % 16.3 C
2494 01-07-2016 15:45:00 22.6 C 68 % 16.39 C
2495 01-07-2016 15:50:00 22.7 C 67 % 16.26 C
2496 01-07-2016 15:55:00 22.9 C 67 % 16.45 C
2497 01-07-2016 16:00:00 23.2 C 67 % 16.73 C
2498 01-07-2016 16:05:00 23.9 C 67 % 17.4 C
2499 01-07-2016 16:10:00 24.3 C 65 % 17.3 C
2500 01-07-2016 16:15:00 24.3 C 64 % 17.05 C
Sensor: Nr:Datum:Temp:Feuchte:Taupunkt:
Aussen-T/F 2501 01-07-2016 16:20:00 24.1 C 63 % 16.62 C
2502 01-07-2016 16:25:00 23.9 C 64 % 16.68 C
2503 01-07-2016 16:30:00 23.8 C 64 % 16.58 C
2504 01-07-2016 16:35:00 23.9 C 66 % 17.16 C
2505 01-07-2016 16:40:00 23.9 C 64 % 16.68 C
2506 01-07-2016 16:45:00 24 C 65 % 17.01 C
2507 01-07-2016 16:50:00 24.2 C 64 % 16.96 C
2508 01-07-2016 16:55:00 24.1 C 64 % 16.86 C
2509 01-07-2016 17:00:00 23.8 C 65 % 16.83 C
2510 01-07-2016 17:05:00 23.4 C 65 % 16.45 C
2511 01-07-2016 17:10:00 23.1 C 68 % 16.87 C
2512 01-07-2016 17:15:00 22.9 C 67 % 16.45 C
2513 01-07-2016 17:20:00 22.8 C 68 % 16.59 C
2514 01-07-2016 17:25:00 22.8 C 70 % 17.04 C
2515 01-07-2016 17:30:00 22.7 C 70 % 16.95 C
2516 01-07-2016 17:35:00 22.5 C 69 % 16.53 C
2517 01-07-2016 17:40:00 22.4 C 71 % 16.88 C
2518 01-07-2016 17:45:00 22.3 C 70 % 16.56 C
2519 01-07-2016 17:50:00 22.2 C 69 % 16.24 C
2520 01-07-2016 17:55:00 22.1 C 70 % 16.37 C
2521 01-07-2016 18:00:00 21.8 C 71 % 16.31 C
2522 01-07-2016 18:05:00 21.7 C 72 % 16.43 C
2523 01-07-2016 18:10:00 21.5 C 73 % 16.46 C
2524 01-07-2016 18:15:00 21.4 C 74 % 16.57 C
2525 01-07-2016 18:20:00 21.5 C 73 % 16.46 C
Sensor: Nr:Datum:Temp:Feuchte:Taupunkt:
Aussen-T/F 2526 01-07-2016 18:25:00 21.6 C 76 % 17.19 C
2527 01-07-2016 18:30:00 21.5 C 77 % 17.3 C
2528 01-07-2016 18:35:00 21.7 C 74 % 16.86 C
2529 01-07-2016 18:40:00 22.2 C 73 % 17.13 C
2530 01-07-2016 18:45:00 22.4 C 73 % 17.32 C
2531 01-07-2016 18:50:00 22.8 C 70 % 17.04 C
2532 01-07-2016 18:55:00 23.1 C 70 % 17.33 C
2533 01-07-2016 19:00:00 23.1 C 71 % 17.55 C
2534 01-07-2016 19:05:00 23.1 C 73 % 17.99 C
2535 01-07-2016 19:10:00 22.9 C 69 % 16.91 C
2536 01-07-2016 19:15:00 22.7 C 72 % 17.39 C
2537 01-07-2016 19:20:00 22.6 C 73 % 17.51 C
2538 01-07-2016 19:25:00 22.4 C 73 % 17.32 C
2539 01-07-2016 19:30:00 22.6 C 70 % 16.85 C
2540 01-07-2016 19:35:00 22.9 C 70 % 17.14 C
2541 01-07-2016 19:40:00 22.9 C 70 % 17.14 C
2542 01-07-2016 19:45:00 22.8 C 71 % 17.27 C
2543 01-07-2016 19:50:00 22.6 C 70 % 16.85 C
2544 01-07-2016 19:55:00 22.4 C 70 % 16.66 C
2545 01-07-2016 20:00:00 22.3 C 73 % 17.23 C
2546 01-07-2016 20:05:00 22.3 C 71 % 16.79 C
2547 01-07-2016 20:10:00 22.3 C 72 % 17.01 C
2548 01-07-2016 20:15:00 22.3 C 75 % 17.65 C
2549 01-07-2016 20:20:00 22.1 C 76 % 17.67 C
2550 01-07-2016 20:25:00 21.9 C 73 % 16.84 C
Sensor: Nr:Datum:Temp:Feuchte:Taupunkt:
Aussen-T/F 2551 01-07-2016 20:30:00 21.8 C 75 % 17.17 C
2552 01-07-2016 20:35:00 21.7 C 78 % 17.7 C
2553 01-07-2016 20:40:00 21.7 C 76 % 17.28 C
2554 01-07-2016 20:45:00 21.8 C 77 % 17.59 C
2555 01-07-2016 20:50:00 21.6 C 76 % 17.19 C
2556 01-07-2016 20:55:00 21.4 C 78 % 17.4 C
2557 01-07-2016 21:00:00 21.1 C 78 % 17.11 C
2558 01-07-2016 21:05:00 20.7 C 80 % 17.13 C
2559 01-07-2016 21:10:00 20.3 C 80 % 16.74 C
2560 01-07-2016 21:15:00 19.9 C 81 % 16.54 C
2561 01-07-2016 21:20:00 19.6 C 83 % 16.63 C
2562 01-07-2016 21:25:00 19.3 C 83 % 16.34 C
2563 01-07-2016 21:30:00 19.1 C 83 % 16.15 C
2564 01-07-2016 21:35:00 18.8 C 84 % 16.04 C
2565 01-07-2016 21:40:00 18.7 C 85 % 16.13 C
2566 01-07-2016 21:45:00 18.6 C 85 % 16.03 C
2567 01-07-2016 21:50:00 18.4 C 85 % 15.83 C
2568 01-07-2016 21:55:00 18.4 C 86 % 16.02 C
2569 01-07-2016 22:00:00 18.3 C 87 % 16.1 C
2570 01-07-2016 22:05:00 18.2 C 87 % 16 C
2571 01-07-2016 22:10:00 18.2 C 87 % 16 C
2572 01-07-2016 22:15:00 18.1 C 87 % 15.9 C
2573 01-07-2016 22:20:00 18.1 C 87 % 15.9 C
2574 01-07-2016 22:25:00 18 C 88 % 15.98 C
2575 01-07-2016 22:30:00 17.9 C 88 % 15.88 C
Sensor: Nr:Datum:Temp:Feuchte:Taupunkt:
Aussen-T/F 2576 01-07-2016 22:35:00 17.9 C 88 % 15.88 C
2577 01-07-2016 22:40:00 17.9 C 88 % 15.88 C
2578 01-07-2016 22:45:00 17.8 C 88 % 15.79 C
2579 01-07-2016 22:50:00 17.8 C 89 % 15.96 C
2580 01-07-2016 22:55:00 17.7 C 89 % 15.86 C
2581 01-07-2016 23:00:00 17.6 C 89 % 15.77 C
2582 01-07-2016 23:05:00 17.6 C 90 % 15.94 C
2583 01-07-2016 23:10:00 17.6 C 90 % 15.94 C
2584 01-07-2016 23:15:00 17.6 C 90 % 15.94 C
2585 01-07-2016 23:20:00 17.6 C 90 % 15.94 C
2586 01-07-2016 23:25:00 17.6 C 90 % 15.94 C
2587 01-07-2016 23:30:00 17.6 C 91 % 16.11 C
2588 01-07-2016 23:35:00 17.6 C 91 % 16.11 C
2589 01-07-2016 23:40:00 17.7 C 91 % 16.21 C
2590 01-07-2016 23:45:00 17.7 C 91 % 16.21 C
2591 01-07-2016 23:50:00 17.8 C 91 % 16.31 C
2592 01-07-2016 23:55:00 17.8 C 91 % 16.31 C
2593 02-07-2016 00:00:00 17.9 C 91 % 16.41 C
2594 02-07-2016 00:05:00 17.9 C 91 % 16.41 C
2595 02-07-2016 00:10:00 17.9 C 91 % 16.41 C
2596 02-07-2016 00:15:00 17.9 C 91 % 16.41 C
2597 02-07-2016 00:20:00 17.9 C 91 % 16.41 C
2598 02-07-2016 00:25:00 17.9 C 91 % 16.41 C
2599 02-07-2016 00:30:00 17.8 C 91 % 16.31 C
2600 02-07-2016 00:35:00 17.9 C 91 % 16.41 C
Sensor: Nr:Datum:Temp:Feuchte:Taupunkt:
Aussen-T/F 2601 02-07-2016 00:40:00 17.9 C 91 % 16.41 C
2602 02-07-2016 00:45:00 17.9 C 91 % 16.41 C
2603 02-07-2016 00:50:00 17.9 C 91 % 16.41 C
2604 02-07-2016 00:55:00 17.8 C 91 % 16.31 C
2605 02-07-2016 01:00:00 17.8 C 90 % 16.14 C
2606 02-07-2016 01:05:00 17.7 C 91 % 16.21 C
2607 02-07-2016 01:10:00 17.6 C 91 % 16.11 C
2608 02-07-2016 01:15:00 17.6 C 91 % 16.11 C
2609 02-07-2016 01:20:00 17.5 C 91 % 16.01 C
2610 02-07-2016 01:25:00 17.5 C 91 % 16.01 C
2611 02-07-2016 01:30:00 17.5 C 91 % 16.01 C
2612 02-07-2016 01:35:00 17.5 C 92 % 16.19 C
2613 02-07-2016 01:40:00 17.4 C 92 % 16.09 C
2614 02-07-2016 01:45:00 17.4 C 91 % 15.92 C
2615 02-07-2016 01:50:00 17.3 C 91 % 15.82 C
2616 02-07-2016 01:55:00 17.3 C 92 % 15.99 C
2617 02-07-2016 02:00:00 17.3 C 92 % 15.99 C
2618 02-07-2016 02:05:00 17.4 C 92 % 16.09 C
2619 02-07-2016 02:10:00 17.5 C 92 % 16.19 C
2620 02-07-2016 02:15:00 17.6 C 92 % 16.28 C
2621 02-07-2016 02:20:00 17.7 C 92 % 16.38 C
2622 02-07-2016 02:25:00 17.7 C 92 % 16.38 C
2623 02-07-2016 02:30:00 17.8 C 91 % 16.31 C
2624 02-07-2016 02:35:00 17.9 C 90 % 16.24 C
2625 02-07-2016 02:40:00 18.2 C 89 % 16.36 C
Sensor: Nr:Datum:Temp:Feuchte:Taupunkt:
Aussen-T/F 2626 02-07-2016 02:45:00 18.3 C 88 % 16.28 C
2627 02-07-2016 02:50:00 18.4 C 88 % 16.38 C
2628 02-07-2016 02:55:00 18.6 C 87 % 16.39 C
2629 02-07-2016 03:00:00 18.8 C 86 % 16.41 C
2630 02-07-2016 03:05:00 18.8 C 86 % 16.41 C
2631 02-07-2016 03:10:00 18.9 C 85 % 16.32 C
2632 02-07-2016 03:15:00 18.8 C 85 % 16.23 C
2633 02-07-2016 03:20:00 18.8 C 85 % 16.23 C
2634 02-07-2016 03:25:00 18.8 C 85 % 16.23 C
2635 02-07-2016 03:30:00 18.7 C 85 % 16.13 C
2636 02-07-2016 03:35:00 18.6 C 86 % 16.21 C
2637 02-07-2016 03:40:00 18.5 C 86 % 16.11 C
2638 02-07-2016 03:45:00 18.4 C 86 % 16.02 C
2639 02-07-2016 03:50:00 18.4 C 87 % 16.2 C
2640 02-07-2016 03:55:00 18.4 C 87 % 16.2 C
2641 02-07-2016 04:00:00 18.4 C 87 % 16.2 C
2642 02-07-2016 04:05:00 18.4 C 87 % 16.2 C
2643 02-07-2016 04:10:00 18.3 C 87 % 16.1 C
2644 02-07-2016 04:15:00 18.3 C 87 % 16.1 C
2645 02-07-2016 04:20:00 18.3 C 87 % 16.1 C
2646 02-07-2016 04:25:00 18.3 C 87 % 16.1 C
2647 02-07-2016 04:30:00 18.3 C 87 % 16.1 C
2648 02-07-2016 04:35:00 18.3 C 87 % 16.1 C
2649 02-07-2016 04:40:00 18.4 C 86 % 16.02 C
2650 02-07-2016 04:45:00 18.5 C 86 % 16.11 C
Sensor: Nr:Datum:Temp:Feuchte:Taupunkt:
Aussen-T/F 2651 02-07-2016 04:50:00 18.6 C 85 % 16.03 C
2652 02-07-2016 04:55:00 18.6 C 85 % 16.03 C
2653 02-07-2016 05:00:00 18.6 C 84 % 15.84 C
2654 02-07-2016 05:05:00 18.6 C 85 % 16.03 C
2655 02-07-2016 05:10:00 18.6 C 84 % 15.84 C
2656 02-07-2016 05:15:00 18.6 C 83 % 15.66 C
2657 02-07-2016 05:20:00 18.7 C 83 % 15.75 C
2658 02-07-2016 05:25:00 18.7 C 83 % 15.75 C
2659 02-07-2016 05:30:00 18.7 C 82 % 15.57 C
2660 02-07-2016 05:35:00 18.2 C 82 % 15.08 C
2661 02-07-2016 05:40:00 17.7 C 85 % 15.15 C
2662 02-07-2016 05:45:00 17.2 C 86 % 14.84 C
2663 02-07-2016 05:50:00 16.8 C 88 % 14.8 C
2664 02-07-2016 05:55:00 16.4 C 88 % 14.41 C
2665 02-07-2016 06:00:00 16.2 C 89 % 14.39 C
2666 02-07-2016 06:05:00 16.1 C 89 % 14.29 C
2667 02-07-2016 06:10:00 15.9 C 90 % 14.26 C
2668 02-07-2016 06:15:00 15.8 C 90 % 14.16 C
2669 02-07-2016 06:20:00 15.7 C 90 % 14.06 C
2670 02-07-2016 06:25:00 15.6 C 91 % 14.14 C
2671 02-07-2016 06:30:00 15.5 C 91 % 14.04 C
2672 02-07-2016 06:35:00 15.4 C 91 % 13.94 C
2673 02-07-2016 06:40:00 15.4 C 92 % 14.11 C
2674 02-07-2016 06:45:00 15.4 C 92 % 14.11 C
2675 02-07-2016 06:50:00 15.4 C 92 % 14.11 C
Sensor: Nr:Datum:Temp:Feuchte:Taupunkt:
Aussen-T/F 2676 02-07-2016 06:55:00 15.4 C 93 % 14.27 C
2677 02-07-2016 07:00:00 15.3 C 92 % 14.01 C
2678 02-07-2016 07:05:00 15.1 C 91 % 13.64 C
2679 02-07-2016 07:10:00 15 C 91 % 13.54 C
2680 02-07-2016 07:15:00 14.9 C 92 % 13.61 C
2681 02-07-2016 07:20:00 14.8 C 92 % 13.51 C
2682 02-07-2016 07:25:00 14.8 C 91 % 13.35 C
2683 02-07-2016 07:30:00 14.7 C 91 % 13.25 C
2684 02-07-2016 07:35:00 14.6 C 91 % 13.15 C
2685 02-07-2016 07:40:00 14.6 C 91 % 13.15 C
2686 02-07-2016 07:45:00 14.5 C 91 % 13.05 C
2687 02-07-2016 07:50:00 14.4 C 89 % 12.61 C
2688 02-07-2016 07:55:00 14.3 C 86 % 11.99 C
2689 02-07-2016 08:00:00 14.3 C 85 % 11.81 C
2690 02-07-2016 08:05:00 14.3 C 83 % 11.45 C
2691 02-07-2016 08:10:00 14.4 C 87 % 12.27 C
2692 02-07-2016 08:15:00 14.3 C 88 % 12.34 C
2693 02-07-2016 08:20:00 14.3 C 88 % 12.34 C
2694 02-07-2016 08:25:00 14.2 C 88 % 12.24 C
2695 02-07-2016 08:30:00 14.1 C 89 % 12.32 C
2696 02-07-2016 08:35:00 14.1 C 89 % 12.32 C
2697 02-07-2016 08:40:00 14.1 C 91 % 12.65 C
2698 02-07-2016 08:45:00 14.1 C 91 % 12.65 C
2699 02-07-2016 08:50:00 14.3 C 92 % 13.02 C
2700 02-07-2016 08:55:00 14.4 C 92 % 13.12 C
Sensor: Nr:Datum:Temp:Feuchte:Taupunkt:
Aussen-T/F 2701 02-07-2016 09:00:00 14.4 C 91 % 12.95 C
2702 02-07-2016 09:05:00 14.4 C 91 % 12.95 C
2703 02-07-2016 09:10:00 14.3 C 90 % 12.68 C
2704 02-07-2016 09:15:00 14.3 C 90 % 12.68 C
2705 02-07-2016 09:20:00 14.3 C 89 % 12.51 C
2706 02-07-2016 09:25:00 14.3 C 90 % 12.68 C
2707 02-07-2016 09:30:00 14.3 C 89 % 12.51 C
2708 02-07-2016 09:35:00 14.3 C 89 % 12.51 C
2709 02-07-2016 09:40:00 14.3 C 88 % 12.34 C
2710 02-07-2016 09:45:00 14.3 C 89 % 12.51 C
2711 02-07-2016 09:50:00 14.3 C 88 % 12.34 C
2712 02-07-2016 09:55:00 14.3 C 89 % 12.51 C
2713 02-07-2016 10:00:00 14.3 C 88 % 12.34 C
2714 02-07-2016 10:05:00 14.3 C 88 % 12.34 C
2715 02-07-2016 10:10:00 14.3 C 89 % 12.51 C
2716 02-07-2016 10:15:00 14.4 C 89 % 12.61 C
2717 02-07-2016 10:20:00 14.4 C 89 % 12.61 C
2718 02-07-2016 10:25:00 14.6 C 90 % 12.98 C
2719 02-07-2016 10:30:00 14.7 C 90 % 13.08 C
2720 02-07-2016 10:35:00 14.7 C 87 % 12.56 C
2721 02-07-2016 10:40:00 14.8 C 88 % 12.83 C
2722 02-07-2016 10:45:00 15 C 87 % 12.86 C
2723 02-07-2016 10:50:00 15.1 C 87 % 12.95 C
2724 02-07-2016 10:55:00 15.2 C 83 % 12.33 C
2725 02-07-2016 11:00:00 15.3 C 83 % 12.43 C
Sensor: Nr:Datum:Temp:Feuchte:Taupunkt:
Aussen-T/F 2726 02-07-2016 11:05:00 15.4 C 85 % 12.89 C
2727 02-07-2016 11:10:00 15.4 C 85 % 12.89 C
2728 02-07-2016 11:15:00 15.5 C 86 % 13.17 C
2729 02-07-2016 11:20:00 15.6 C 85 % 13.09 C
2730 02-07-2016 11:25:00 15.7 C 85 % 13.19 C
2731 02-07-2016 11:30:00 15.7 C 84 % 13.01 C
2732 02-07-2016 11:35:00 15.6 C 81 % 12.35 C
2733 02-07-2016 11:40:00 15.7 C 83 % 12.82 C
2734 02-07-2016 11:45:00 15.7 C 83 % 12.82 C
2735 02-07-2016 11:50:00 15.8 C 81 % 12.55 C
2736 02-07-2016 11:55:00 15.9 C 82 % 12.83 C
2737 02-07-2016 12:00:00 16.1 C 81 % 12.84 C
2738 02-07-2016 12:05:00 16.2 C 79 % 12.56 C
2739 02-07-2016 12:10:00 16.2 C 78 % 12.36 C
2740 02-07-2016 12:15:00 16.2 C 81 % 12.94 C
2741 02-07-2016 12:20:00 16.2 C 82 % 13.13 C
2742 02-07-2016 12:25:00 16.3 C 80 % 12.85 C
2743 02-07-2016 12:30:00 16.5 C 81 % 13.23 C
2744 02-07-2016 12:35:00 16.7 C 80 % 13.23 C
2745 02-07-2016 12:40:00 16.9 C 78 % 13.04 C
2746 02-07-2016 12:45:00 16.9 C 78 % 13.04 C
2747 02-07-2016 12:50:00 16.9 C 75 % 12.44 C
2748 02-07-2016 12:55:00 16.9 C 77 % 12.84 C
2749 02-07-2016 13:00:00 17.1 C 75 % 12.64 C
2750 02-07-2016 13:05:00 17.4 C 75 % 12.93 C
Sensor: Nr:Datum:Temp:Feuchte:Taupunkt:
Aussen-T/F 2751 02-07-2016 13:10:00 17.7 C 73 % 12.8 C
2752 02-07-2016 13:15:00 17.9 C 70 % 12.35 C
2753 02-07-2016 13:20:00 18.1 C 70 % 12.55 C
2754 02-07-2016 13:25:00 18 C 71 % 12.67 C
2755 02-07-2016 13:30:00 17.9 C 69 % 12.14 C
2756 02-07-2016 13:35:00 17.9 C 71 % 12.57 C
2757 02-07-2016 13:40:00 18 C 71 % 12.67 C
2758 02-07-2016 13:45:00 18 C 73 % 13.09 C
2759 02-07-2016 13:50:00 18.1 C 73 % 13.19 C
2760 02-07-2016 13:55:00 18.3 C 71 % 12.95 C
2761 02-07-2016 14:00:00 18.4 C 69 % 12.61 C
2762 02-07-2016 14:05:00 18.4 C 70 % 12.83 C
2763 02-07-2016 14:10:00 18.5 C 73 % 13.57 C
2764 02-07-2016 14:15:00 18.6 C 70 % 13.02 C
2765 02-07-2016 14:20:00 18.6 C 73 % 13.67 C
2766 02-07-2016 14:25:00 18.6 C 71 % 13.24 C
2767 02-07-2016 14:30:00 18.6 C 72 % 13.46 C
2768 02-07-2016 14:35:00 18.6 C 73 % 13.67 C
2769 02-07-2016 14:40:00 18.8 C 70 % 13.22 C
2770 02-07-2016 14:45:00 18.8 C 68 % 12.77 C
2771 02-07-2016 14:50:00 18.9 C 68 % 12.87 C
2772 02-07-2016 14:55:00 19.1 C 65 % 12.37 C
2773 02-07-2016 15:00:00 19.2 C 69 % 13.38 C
2774 02-07-2016 15:05:00 19.1 C 68 % 13.06 C
2775 02-07-2016 15:10:00 19 C 66 % 12.51 C
Sensor: Nr:Datum:Temp:Feuchte:Taupunkt:
Aussen-T/F 2776 02-07-2016 15:15:00 19.1 C 67 % 12.83 C
2777 02-07-2016 15:20:00 19.4 C 68 % 13.34 C
2778 02-07-2016 15:25:00 19.7 C 65 % 12.94 C
2779 02-07-2016 15:30:00 19.9 C 63 % 12.65 C
2780 02-07-2016 15:35:00 20.4 C 60 % 12.38 C
2781 02-07-2016 15:40:00 21 C 57 % 12.16 C
2782 02-07-2016 15:45:00 21.4 C 54 % 11.71 C
2783 02-07-2016 15:50:00 21.7 C 53 % 11.71 C
2784 02-07-2016 15:55:00 22 C 45 % 9.53 C
2785 02-07-2016 16:00:00 22.3 C 45 % 9.8 C
2786 02-07-2016 16:05:00 22.5 C 44 % 9.65 C
2787 02-07-2016 16:10:00 22.1 C 42 % 8.6 C
2788 02-07-2016 16:15:00 21.7 C 45 % 9.26 C
2789 02-07-2016 16:20:00 21.6 C 46 % 9.49 C
2790 02-07-2016 16:25:00 21.3 C 47 % 9.54 C
2791 02-07-2016 16:30:00 21 C 44 % 8.29 C
2792 02-07-2016 16:35:00 20.7 C 46 % 8.67 C
2793 02-07-2016 16:40:00 20.3 C 48 % 8.94 C
2794 02-07-2016 16:45:00 20 C 49 % 8.97 C
2795 02-07-2016 16:50:00 19.8 C 49 % 8.79 C
2796 02-07-2016 16:55:00 19.7 C 52 % 9.58 C
2797 02-07-2016 17:00:00 19.4 C 51 % 9.01 C
2798 02-07-2016 17:05:00 19.3 C 56 % 10.31 C
2799 02-07-2016 17:10:00 19.4 C 57 % 10.67 C
2800 02-07-2016 17:15:00 19.3 C 58 % 10.84 C
Sensor: Nr:Datum:Temp:Feuchte:Taupunkt:
Aussen-T/F 2801 02-07-2016 17:20:00 19.3 C 59 % 11.09 C
2802 02-07-2016 17:25:00 19.4 C 56 % 10.4 C
2803 02-07-2016 17:30:00 19.2 C 59 % 11 C
2804 02-07-2016 17:35:00 19.2 C 56 % 10.22 C
2805 02-07-2016 17:40:00 19.1 C 58 % 10.65 C
2806 02-07-2016 17:45:00 19.1 C 59 % 10.91 C
2807 02-07-2016 17:50:00 19.3 C 60 % 11.35 C
2808 02-07-2016 17:55:00 19.7 C 56 % 10.68 C
2809 02-07-2016 18:00:00 19.7 C 57 % 10.95 C
2810 02-07-2016 18:05:00 20 C 54 % 10.42 C
2811 02-07-2016 18:10:00 20.2 C 52 % 10.04 C
2812 02-07-2016 18:15:00 19.9 C 55 % 10.6 C
2813 02-07-2016 18:20:00 19.4 C 56 % 10.4 C
2814 02-07-2016 18:25:00 19.1 C 54 % 9.58 C
2815 02-07-2016 18:30:00 18.8 C 57 % 10.11 C
2816 02-07-2016 18:35:00 18.4 C 56 % 9.47 C
2817 02-07-2016 18:40:00 18.2 C 58 % 9.81 C
2818 02-07-2016 18:45:00 18 C 60 % 10.13 C
2819 02-07-2016 18:50:00 17.8 C 60 % 9.94 C
2820 02-07-2016 18:55:00 17.6 C 63 % 10.48 C
2821 02-07-2016 19:00:00 17.4 C 63 % 10.29 C
2822 02-07-2016 19:05:00 17.3 C 62 % 9.96 C
2823 02-07-2016 19:10:00 17.3 C 62 % 9.96 C
2824 02-07-2016 19:15:00 17.4 C 64 % 10.53 C
2825 02-07-2016 19:20:00 18.1 C 62 % 10.71 C
Sensor: Nr:Datum:Temp:Feuchte:Taupunkt:
Aussen-T/F 2826 02-07-2016 19:25:00 18.5 C 60 % 10.6 C
2827 02-07-2016 19:30:00 18.4 C 63 % 11.23 C
2828 02-07-2016 19:35:00 18.4 C 62 % 10.99 C
2829 02-07-2016 19:40:00 18.3 C 64 % 11.38 C
2830 02-07-2016 19:45:00 17.9 C 65 % 11.23 C
2831 02-07-2016 19:50:00 17.7 C 67 % 11.5 C
2832 02-07-2016 19:55:00 17.3 C 69 % 11.56 C
2833 02-07-2016 20:00:00 17 C 69 % 11.28 C
2834 02-07-2016 20:05:00 16.8 C 66 % 10.42 C
2835 02-07-2016 20:10:00 16.8 C 66 % 10.42 C
2836 02-07-2016 20:15:00 16.8 C 67 % 10.64 C
2837 02-07-2016 20:20:00 16.7 C 68 % 10.77 C
2838 02-07-2016 20:25:00 16.6 C 69 % 10.89 C
2839 02-07-2016 20:30:00 16.5 C 69 % 10.8 C
2840 02-07-2016 20:35:00 16.4 C 73 % 11.55 C
2841 02-07-2016 20:40:00 16.4 C 74 % 11.76 C
2842 02-07-2016 20:45:00 16.4 C 74 % 11.76 C
2843 02-07-2016 20:50:00 16.6 C 76 % 12.36 C
2844 02-07-2016 20:55:00 16.6 C 76 % 12.36 C
2845 02-07-2016 21:00:00 16.5 C 76 % 12.26 C
2846 02-07-2016 21:05:00 16.3 C 76 % 12.07 C
2847 02-07-2016 21:10:00 16.1 C 78 % 12.27 C
2848 02-07-2016 21:15:00 15.8 C 77 % 11.78 C
2849 02-07-2016 21:20:00 15.5 C 79 % 11.88 C
2850 02-07-2016 21:25:00 15.2 C 79 % 11.59 C
Sensor: Nr:Datum:Temp:Feuchte:Taupunkt:
Aussen-T/F 2851 02-07-2016 21:30:00 14.9 C 80 % 11.48 C
2852 02-07-2016 21:35:00 14.7 C 81 % 11.48 C
2853 02-07-2016 21:40:00 14.4 C 81 % 11.18 C
2854 02-07-2016 21:45:00 14.2 C 82 % 11.17 C
2855 02-07-2016 21:50:00 14.1 C 82 % 11.08 C
2856 02-07-2016 21:55:00 13.8 C 82 % 10.78 C
2857 02-07-2016 22:00:00 13.7 C 83 % 10.87 C
2858 02-07-2016 22:05:00 13.6 C 83 % 10.77 C
2859 02-07-2016 22:10:00 13.4 C 84 % 10.75 C
2860 02-07-2016 22:15:00 13.3 C 84 % 10.66 C
2861 02-07-2016 22:20:00 13.2 C 84 % 10.56 C
2862 02-07-2016 22:25:00 13.2 C 84 % 10.56 C
2863 02-07-2016 22:30:00 13.1 C 85 % 10.64 C
2864 02-07-2016 22:35:00 13 C 85 % 10.54 C
2865 02-07-2016 22:40:00 12.9 C 85 % 10.44 C
2866 02-07-2016 22:45:00 13 C 87 % 10.89 C
2867 02-07-2016 22:50:00 13.1 C 87 % 10.99 C
2868 02-07-2016 22:55:00 13.1 C 87 % 10.99 C
2869 02-07-2016 23:00:00 13.2 C 87 % 11.09 C
2870 02-07-2016 23:05:00 13.2 C 86 % 10.91 C
2871 02-07-2016 23:10:00 13.1 C 86 % 10.81 C
2872 02-07-2016 23:15:00 13.1 C 86 % 10.81 C
2873 02-07-2016 23:20:00 13 C 86 % 10.72 C
2874 02-07-2016 23:25:00 12.9 C 87 % 10.79 C
2875 02-07-2016 23:30:00 12.8 C 87 % 10.69 C
Sensor: Nr:Datum:Temp:Feuchte:Taupunkt:
Aussen-T/F 2876 02-07-2016 23:35:00 12.8 C 87 % 10.69 C
2877 02-07-2016 23:40:00 12.7 C 88 % 10.77 C
2878 02-07-2016 23:45:00 12.7 C 88 % 10.77 C
2879 02-07-2016 23:50:00 12.7 C 88 % 10.77 C
2880 02-07-2016 23:55:00 12.7 C 88 % 10.77 C
2881 03-07-2016 00:00:00 12.7 C 89 % 10.94 C
2882 03-07-2016 00:05:00 12.7 C 89 % 10.94 C
2883 03-07-2016 00:10:00 12.7 C 89 % 10.94 C
2884 03-07-2016 00:15:00 12.6 C 89 % 10.84 C
2885 03-07-2016 00:20:00 12.6 C 88 % 10.67 C
2886 03-07-2016 00:25:00 12.5 C 88 % 10.57 C
2887 03-07-2016 00:30:00 12.4 C 88 % 10.47 C
2888 03-07-2016 00:35:00 12.4 C 89 % 10.64 C
2889 03-07-2016 00:40:00 12.3 C 89 % 10.54 C
2890 03-07-2016 00:45:00 12.3 C 89 % 10.54 C
2891 03-07-2016 00:50:00 12.2 C 89 % 10.44 C
2892 03-07-2016 00:55:00 12.2 C 89 % 10.44 C
2893 03-07-2016 01:00:00 11.6 C 91 % 10.18 C
2894 03-07-2016 01:05:00 11.6 C 91 % 10.18 C
2895 03-07-2016 01:10:00 11.6 C 91 % 10.18 C
2896 03-07-2016 01:15:00 11.6 C 92 % 10.35 C
2897 03-07-2016 01:20:00 11.7 C 92 % 10.44 C
2898 03-07-2016 01:25:00 11.8 C 92 % 10.54 C
2899 03-07-2016 01:30:00 11.8 C 91 % 10.38 C
2900 03-07-2016 01:35:00 11.8 C 91 % 10.38 C
Sensor: Nr:Datum:Temp:Feuchte:Taupunkt:
Aussen-T/F 2901 03-07-2016 01:40:00 11.8 C 91 % 10.38 C
2902 03-07-2016 01:45:00 11.9 C 91 % 10.48 C
2903 03-07-2016 01:50:00 11.9 C 90 % 10.31 C
2904 03-07-2016 01:55:00 12.1 C 90 % 10.51 C
2905 03-07-2016 02:00:00 12.2 C 89 % 10.44 C
2906 03-07-2016 02:05:00 12.2 C 89 % 10.44 C
2907 03-07-2016 02:10:00 12.2 C 89 % 10.44 C
2908 03-07-2016 02:15:00 12.3 C 89 % 10.54 C
2909 03-07-2016 02:20:00 12.3 C 88 % 10.37 C
2910 03-07-2016 02:25:00 12.3 C 88 % 10.37 C
2911 03-07-2016 02:30:00 12.3 C 88 % 10.37 C
2912 03-07-2016 02:35:00 12.3 C 88 % 10.37 C
2913 03-07-2016 02:40:00 12.3 C 88 % 10.37 C
2914 03-07-2016 02:45:00 12.2 C 88 % 10.27 C
2915 03-07-2016 02:50:00 12.2 C 88 % 10.27 C
2916 03-07-2016 02:55:00 12.1 C 88 % 10.17 C
2917 03-07-2016 03:00:00 12 C 89 % 10.25 C
2918 03-07-2016 03:05:00 11.9 C 89 % 10.15 C
2919 03-07-2016 03:10:00 11.9 C 89 % 10.15 C
2920 03-07-2016 03:15:00 11.9 C 89 % 10.15 C
2921 03-07-2016 03:20:00 11.9 C 89 % 10.15 C
2922 03-07-2016 03:25:00 11.9 C 89 % 10.15 C
2923 03-07-2016 03:30:00 11.9 C 89 % 10.15 C
2924 03-07-2016 03:35:00 11.9 C 89 % 10.15 C
2925 03-07-2016 03:40:00 11.9 C 90 % 10.31 C
Sensor: Nr:Datum:Temp:Feuchte:Taupunkt:
Aussen-T/F 2926 03-07-2016 04:25:00 11.9 C 90 % 10.31 C
2927 03-07-2016 04:30:00 11.9 C 90 % 10.31 C
2928 03-07-2016 04:35:00 11.9 C 90 % 10.31 C
2929 03-07-2016 04:40:00 11.9 C 90 % 10.31 C
2930 03-07-2016 04:45:00 11.9 C 90 % 10.31 C
2931 03-07-2016 04:50:00 11.9 C 89 % 10.15 C
2932 03-07-2016 04:55:00 11.9 C 90 % 10.31 C
2933 03-07-2016 05:00:00 11.9 C 90 % 10.31 C
2934 03-07-2016 05:05:00 11.8 C 90 % 10.21 C
2935 03-07-2016 05:10:00 11.8 C 91 % 10.38 C
2936 03-07-2016 05:15:00 11.8 C 91 % 10.38 C
2937 03-07-2016 05:20:00 11.8 C 91 % 10.38 C
2938 03-07-2016 05:25:00 11.7 C 91 % 10.28 C
2939 03-07-2016 05:30:00 11.7 C 91 % 10.28 C
2940 03-07-2016 05:35:00 11.7 C 91 % 10.28 C
2941 03-07-2016 05:40:00 11.6 C 91 % 10.18 C
2942 03-07-2016 05:45:00 11.6 C 91 % 10.18 C
2943 03-07-2016 05:50:00 11.6 C 91 % 10.18 C
2944 03-07-2016 05:55:00 11.6 C 91 % 10.18 C
2945 03-07-2016 06:00:00 11.6 C 92 % 10.35 C
2946 03-07-2016 06:05:00 11.6 C 92 % 10.35 C
2947 03-07-2016 06:10:00 11.6 C 92 % 10.35 C
2948 03-07-2016 06:15:00 11.6 C 92 % 10.35 C
2949 03-07-2016 06:20:00 11.7 C 92 % 10.44 C
2950 03-07-2016 06:25:00 11.7 C 92 % 10.44 C
Sensor: Nr:Datum:Temp:Feuchte:Taupunkt:
Aussen-T/F 2951 03-07-2016 06:30:00 11.8 C 92 % 10.54 C
2952 03-07-2016 06:35:00 11.8 C 92 % 10.54 C
2953 03-07-2016 06:40:00 11.8 C 92 % 10.54 C
2954 03-07-2016 06:45:00 11.9 C 92 % 10.64 C
2955 03-07-2016 06:50:00 11.9 C 92 % 10.64 C
2956 03-07-2016 06:55:00 12.1 C 92 % 10.84 C
2957 03-07-2016 07:00:00 12.1 C 92 % 10.84 C
2958 03-07-2016 07:05:00 12.2 C 91 % 10.78 C
2959 03-07-2016 07:10:00 12.3 C 92 % 11.04 C
2960 03-07-2016 07:15:00 12.4 C 92 % 11.14 C
2961 03-07-2016 07:20:00 12.5 C 91 % 11.07 C
2962 03-07-2016 07:25:00 12.6 C 91 % 11.17 C
2963 03-07-2016 07:30:00 12.7 C 90 % 11.1 C
2964 03-07-2016 07:35:00 12.7 C 90 % 11.1 C
2965 03-07-2016 07:40:00 12.8 C 90 % 11.2 C
2966 03-07-2016 07:45:00 12.9 C 89 % 11.13 C
2967 03-07-2016 07:50:00 12.9 C 89 % 11.13 C
2968 03-07-2016 07:55:00 13.1 C 88 % 11.16 C
2969 03-07-2016 08:00:00 13.1 C 88 % 11.16 C
2970 03-07-2016 08:05:00 13.2 C 88 % 11.26 C
2971 03-07-2016 08:10:00 13.3 C 88 % 11.36 C
2972 03-07-2016 08:15:00 13.4 C 87 % 11.28 C
2973 03-07-2016 08:20:00 13.5 C 87 % 11.38 C
2974 03-07-2016 08:25:00 13.7 C 87 % 11.58 C
2975 03-07-2016 08:30:00 13.8 C 86 % 11.5 C
Sensor: Nr:Datum:Temp:Feuchte:Taupunkt:
Aussen-T/F 2976 03-07-2016 08:35:00 13.8 C 86 % 11.5 C
2977 03-07-2016 08:40:00 13.9 C 86 % 11.6 C
2978 03-07-2016 08:45:00 14.1 C 86 % 11.8 C
2979 03-07-2016 08:50:00 14.3 C 85 % 11.81 C
2980 03-07-2016 08:55:00 14.5 C 84 % 11.83 C
2981 03-07-2016 09:00:00 14.6 C 83 % 11.75 C
2982 03-07-2016 09:05:00 14.5 C 83 % 11.65 C
2983 03-07-2016 09:10:00 14.6 C 84 % 11.93 C
2984 03-07-2016 09:25:00 14.7 C 84 % 12.03 C
2985 03-07-2016 09:30:00 14.8 C 85 % 12.3 C
2986 03-07-2016 09:35:00 18.1 C 74 % 13.4 C
2987 03-07-2016 09:40:00 18.2 C 74 % 13.49 C
2988 03-07-2016 09:45:00 18.1 C 71 % 12.76 C
2989 03-07-2016 09:50:00 17.9 C 69 % 12.14 C
2990 03-07-2016 09:55:00 17.8 C 73 % 12.9 C
2991 03-07-2016 10:00:00 17.7 C 72 % 12.59 C
2992 03-07-2016 10:05:00 17.7 C 72 % 12.59 C
2993 03-07-2016 10:10:00 17.8 C 73 % 12.9 C
2994 03-07-2016 10:15:00 17.8 C 73 % 12.9 C
2995 03-07-2016 10:20:00 17.8 C 74 % 13.11 C
2996 03-07-2016 10:25:00 17.6 C 71 % 12.28 C
2997 03-07-2016 10:30:00 17.4 C 72 % 12.3 C
2998 03-07-2016 10:35:00 17.2 C 77 % 13.14 C
2999 03-07-2016 10:40:00 17 C 78 % 13.14 C
3000 03-07-2016 10:45:00 16.8 C 81 % 13.52 C
Sensor: Nr:Datum:Temp:Feuchte:Taupunkt:
Aussen-T/F 3001 03-07-2016 12:05:00 16.7 C 81 % 13.43 C
3002 03-07-2016 12:10:00 16.4 C 83 % 13.51 C
3003 03-07-2016 12:15:00 16.2 C 85 % 13.68 C
3004 03-07-2016 12:20:00 16 C 86 % 13.66 C
3005 03-07-2016 12:25:00 15.8 C 87 % 13.64 C
3006 03-07-2016 12:30:00 15.6 C 88 % 13.62 C
3007 03-07-2016 12:35:00 15.5 C 89 % 13.7 C
3008 03-07-2016 12:40:00 15.4 C 90 % 13.77 C
3009 03-07-2016 12:45:00 15.5 C 91 % 14.04 C
3010 03-07-2016 12:50:00 15.4 C 89 % 13.6 C
3011 03-07-2016 12:55:00 15.4 C 89 % 13.6 C
3012 03-07-2016 13:00:00 15.4 C 88 % 13.42 C
3013 03-07-2016 13:05:00 15.7 C 89 % 13.89 C
3014 03-07-2016 13:10:00 15.9 C 89 % 14.09 C
3015 03-07-2016 13:15:00 16.2 C 84 % 13.5 C
3016 03-07-2016 13:20:00 16.4 C 84 % 13.69 C
3017 03-07-2016 13:25:00 16.7 C 84 % 13.98 C
3018 03-07-2016 13:30:00 17 C 79 % 13.33 C
3019 03-07-2016 13:35:00 17.2 C 79 % 13.53 C
3020 03-07-2016 13:40:00 17.2 C 80 % 13.72 C
3021 03-07-2016 13:45:00 17.3 C 81 % 14.01 C
3022 03-07-2016 13:50:00 17.4 C 79 % 13.72 C
3023 03-07-2016 13:55:00 17.6 C 77 % 13.52 C
3024 03-07-2016 14:00:00 17.7 C 76 % 13.42 C
3025 03-07-2016 14:05:00 17.5 C 75 % 13.02 C
Sensor: Nr:Datum:Temp:Feuchte:Taupunkt:
Aussen-T/F 3026 03-07-2016 14:10:00 17.1 C 69 % 11.37 C
3027 03-07-2016 14:15:00 16.2 C 71 % 10.94 C
3028 03-07-2016 14:20:00 15.4 C 79 % 11.78 C
3029 03-07-2016 14:25:00 14.8 C 82 % 11.76 C
3030 03-07-2016 14:30:00 14.3 C 85 % 11.81 C
3031 03-07-2016 14:35:00 14.1 C 87 % 11.97 C
3032 03-07-2016 14:40:00 14.1 C 89 % 12.32 C
3033 03-07-2016 14:45:00 14.1 C 90 % 12.49 C
3034 03-07-2016 14:50:00 14.2 C 91 % 12.75 C
3035 03-07-2016 14:55:00 14.6 C 92 % 13.32 C
3036 03-07-2016 15:00:00 14.8 C 92 % 13.51 C
3037 03-07-2016 15:05:00 14.9 C 91 % 13.44 C
3038 03-07-2016 15:10:00 15.2 C 91 % 13.74 C
3039 03-07-2016 15:15:00 15.4 C 91 % 13.94 C
3040 03-07-2016 15:20:00 15.6 C 90 % 13.97 C
3041 03-07-2016 15:25:00 15.8 C 91 % 14.33 C
3042 03-07-2016 15:30:00 16.2 C 92 % 14.9 C
3043 03-07-2016 15:35:00 16.5 C 90 % 14.85 C
3044 03-07-2016 15:40:00 16.9 C 90 % 15.25 C
3045 03-07-2016 15:45:00 17.2 C 88 % 15.2 C
3046 03-07-2016 15:50:00 17.8 C 84 % 15.06 C
3047 03-07-2016 15:55:00 18.4 C 82 % 15.27 C
3048 03-07-2016 16:00:00 18.9 C 82 % 15.76 C
3049 03-07-2016 16:05:00 19.3 C 80 % 15.76 C
3050 03-07-2016 16:10:00 19.7 C 75 % 15.15 C
Sensor: Nr:Datum:Temp:Feuchte:Taupunkt:
Aussen-T/F 3051 03-07-2016 16:15:00 19.9 C 74 % 15.13 C
3052 03-07-2016 16:20:00 19.9 C 74 % 15.13 C
3053 03-07-2016 16:25:00 20.2 C 74 % 15.42 C
3054 03-07-2016 16:30:00 20.4 C 71 % 14.97 C
3055 03-07-2016 16:35:00 20.7 C 70 % 15.03 C
3056 03-07-2016 16:40:00 20.7 C 70 % 15.03 C
3057 03-07-2016 16:45:00 20.7 C 70 % 15.03 C
3058 03-07-2016 16:50:00 21 C 71 % 15.54 C
3059 03-07-2016 16:55:00 21.2 C 68 % 15.06 C
3060 03-07-2016 17:00:00 21.3 C 64 % 14.22 C
3061 03-07-2016 17:05:00 21.4 C 64 % 14.31 C
3062 03-07-2016 17:10:00 21.2 C 60 % 13.13 C
3063 03-07-2016 17:15:00 20.2 C 63 % 12.94 C
3064 03-07-2016 17:20:00 19.2 C 66 % 12.7 C
3065 03-07-2016 17:25:00 18.6 C 71 % 13.24 C
3066 03-07-2016 17:30:00 18.2 C 76 % 13.9 C
3067 03-07-2016 17:35:00 18 C 77 % 13.91 C
3068 03-07-2016 17:40:00 17.9 C 78 % 14.01 C
3069 03-07-2016 17:45:00 18.2 C 72 % 13.07 C
3070 03-07-2016 17:50:00 18.7 C 70 % 13.12 C
3071 03-07-2016 17:55:00 18.9 C 68 % 12.87 C
3072 03-07-2016 18:00:00 18.9 C 71 % 13.53 C
3073 03-07-2016 18:05:00 18.9 C 73 % 13.96 C
3074 03-07-2016 18:10:00 18.9 C 69 % 13.09 C
3075 03-07-2016 18:15:00 19 C 74 % 14.26 C
Sensor: Nr:Datum:Temp:Feuchte:Taupunkt:
Aussen-T/F 3076 03-07-2016 18:20:00 18.9 C 70 % 13.31 C
3077 03-07-2016 18:25:00 18.8 C 74 % 14.07 C
3078 03-07-2016 18:30:00 18.7 C 76 % 14.39 C
3079 03-07-2016 18:35:00 18.6 C 77 % 14.49 C
3080 03-07-2016 18:40:00 18.8 C 77 % 14.68 C
3081 03-07-2016 18:45:00 19.4 C 73 % 14.44 C
3082 03-07-2016 18:50:00 20.1 C 67 % 13.78 C
3083 03-07-2016 18:55:00 20 C 65 % 13.22 C
3084 03-07-2016 19:00:00 19.8 C 67 % 13.5 C
3085 03-07-2016 19:05:00 20.1 C 67 % 13.78 C
3086 03-07-2016 19:10:00 20.1 C 66 % 13.55 C
3087 03-07-2016 19:15:00 19.9 C 68 % 13.82 C
3088 03-07-2016 19:20:00 19.7 C 72 % 14.51 C
3089 03-07-2016 19:25:00 19.4 C 73 % 14.44 C
3090 03-07-2016 19:30:00 19.1 C 75 % 14.57 C
3091 03-07-2016 19:35:00 18.8 C 78 % 14.88 C
3092 03-07-2016 19:40:00 18.4 C 79 % 14.69 C
3093 03-07-2016 19:45:00 18.1 C 79 % 14.4 C
3094 03-07-2016 19:50:00 17.8 C 78 % 13.91 C
3095 03-07-2016 19:55:00 17.7 C 79 % 14.01 C
3096 03-07-2016 20:00:00 17.8 C 79 % 14.11 C
3097 03-07-2016 20:05:00 18.1 C 81 % 14.79 C
3098 03-07-2016 20:10:00 18.2 C 80 % 14.69 C
3099 03-07-2016 20:15:00 18.1 C 80 % 14.6 C
3100 03-07-2016 20:20:00 17.8 C 80 % 14.31 C
Sensor: Nr:Datum:Temp:Feuchte:Taupunkt:
Aussen-T/F 3101 03-07-2016 20:25:00 17.5 C 80 % 14.01 C
3102 03-07-2016 20:30:00 17.3 C 80 % 13.82 C
3103 03-07-2016 20:35:00 17 C 81 % 13.72 C
3104 03-07-2016 20:40:00 16.8 C 81 % 13.52 C
3105 03-07-2016 20:45:00 16.7 C 81 % 13.43 C
3106 03-07-2016 20:50:00 16.6 C 81 % 13.33 C
3107 03-07-2016 20:55:00 16.4 C 82 % 13.32 C
3108 03-07-2016 21:00:00 16.3 C 82 % 13.22 C
3109 03-07-2016 21:05:00 16.2 C 82 % 13.13 C
3110 03-07-2016 21:10:00 16 C 82 % 12.93 C
3111 03-07-2016 21:15:00 15.8 C 81 % 12.55 C
3112 03-07-2016 21:20:00 15.7 C 81 % 12.45 C
3113 03-07-2016 21:25:00 15.7 C 82 % 12.64 C
3114 03-07-2016 21:30:00 15.7 C 82 % 12.64 C
3115 03-07-2016 21:35:00 15.6 C 81 % 12.35 C
3116 03-07-2016 21:40:00 15.6 C 82 % 12.54 C
3117 03-07-2016 21:45:00 15.5 C 83 % 12.63 C
3118 03-07-2016 21:50:00 15.5 C 83 % 12.63 C
3119 03-07-2016 21:55:00 15.4 C 83 % 12.53 C
3120 03-07-2016 22:00:00 15.4 C 83 % 12.53 C
3121 03-07-2016 22:05:00 15.3 C 83 % 12.43 C
3122 03-07-2016 22:10:00 15.3 C 83 % 12.43 C
3123 03-07-2016 22:15:00 15.2 C 83 % 12.33 C
3124 03-07-2016 22:20:00 15.2 C 85 % 12.7 C
3125 03-07-2016 22:25:00 15.2 C 85 % 12.7 C
Sensor: Nr:Datum:Temp:Feuchte:Taupunkt:
Aussen-T/F 3126 03-07-2016 22:30:00 15.1 C 85 % 12.6 C
3127 03-07-2016 22:35:00 15.1 C 86 % 12.78 C
3128 03-07-2016 22:40:00 15.1 C 86 % 12.78 C
3129 03-07-2016 22:45:00 15.1 C 86 % 12.78 C
3130 03-07-2016 22:50:00 15 C 87 % 12.86 C
3131 03-07-2016 22:55:00 15 C 87 % 12.86 C
3132 03-07-2016 23:00:00 15 C 87 % 12.86 C
3133 03-07-2016 23:05:00 15 C 88 % 13.03 C
3134 03-07-2016 23:10:00 14.9 C 88 % 12.93 C
3135 03-07-2016 23:15:00 14.8 C 87 % 12.66 C
3136 03-07-2016 23:20:00 14.6 C 87 % 12.46 C
3137 03-07-2016 23:25:00 14.5 C 87 % 12.36 C
3138 03-07-2016 23:30:00 14.4 C 88 % 12.44 C
3139 03-07-2016 23:35:00 14.3 C 88 % 12.34 C
3140 03-07-2016 23:40:00 14.2 C 87 % 12.07 C
3141 03-07-2016 23:45:00 14.1 C 87 % 11.97 C
3142 03-07-2016 23:50:00 13.9 C 88 % 11.95 C
3143 03-07-2016 23:55:00 13.9 C 88 % 11.95 C
3144 04-07-2016 00:00:00 13.8 C 88 % 11.85 C
3145 04-07-2016 00:05:00 13.7 C 88 % 11.75 C
3146 04-07-2016 00:10:00 13.6 C 88 % 11.65 C
3147 04-07-2016 00:15:00 13.4 C 88 % 11.45 C
3148 04-07-2016 00:20:00 13.3 C 89 % 11.53 C
3149 04-07-2016 00:25:00 13.1 C 89 % 11.33 C
3150 04-07-2016 00:30:00 13 C 89 % 11.23 C
Sensor: Nr:Datum:Temp:Feuchte:Taupunkt:
Aussen-T/F 3151 04-07-2016 00:35:00 12.8 C 90 % 11.2 C
3152 04-07-2016 00:40:00 12.7 C 90 % 11.1 C
3153 04-07-2016 00:45:00 12.6 C 90 % 11 C
3154 04-07-2016 00:50:00 12.5 C 90 % 10.91 C
3155 04-07-2016 00:55:00 12.3 C 91 % 10.87 C
3156 04-07-2016 01:00:00 12.2 C 91 % 10.78 C
3157 04-07-2016 01:05:00 12.2 C 91 % 10.78 C
3158 04-07-2016 01:10:00 12.1 C 91 % 10.68 C
3159 04-07-2016 01:15:00 12 C 92 % 10.74 C
3160 04-07-2016 01:20:00 11.9 C 92 % 10.64 C
3161 04-07-2016 01:25:00 11.8 C 92 % 10.54 C
3162 04-07-2016 01:30:00 11.8 C 92 % 10.54 C
3163 04-07-2016 01:35:00 11.7 C 92 % 10.44 C
3164 04-07-2016 01:40:00 11.7 C 93 % 10.61 C
3165 04-07-2016 01:45:00 11.6 C 93 % 10.51 C
3166 04-07-2016 01:50:00 11.6 C 93 % 10.51 C
3167 04-07-2016 01:55:00 11.6 C 93 % 10.51 C
3168 04-07-2016 02:00:00 11.6 C 93 % 10.51 C
3169 04-07-2016 02:05:00 11.6 C 93 % 10.51 C
3170 04-07-2016 02:10:00 11.5 C 93 % 10.41 C
3171 04-07-2016 02:15:00 11.4 C 93 % 10.31 C
3172 04-07-2016 02:20:00 11.5 C 94 % 10.57 C
3173 04-07-2016 02:25:00 11.6 C 94 % 10.67 C
3174 04-07-2016 02:30:00 11.7 C 94 % 10.77 C
3175 04-07-2016 02:35:00 11.8 C 94 % 10.87 C
Sensor: Nr:Datum:Temp:Feuchte:Taupunkt:
Aussen-T/F 3176 04-07-2016 02:40:00 11.8 C 94 % 10.87 C
3177 04-07-2016 02:45:00 11.9 C 94 % 10.97 C
3178 04-07-2016 02:50:00 12 C 94 % 11.07 C
3179 04-07-2016 02:55:00 12.1 C 94 % 11.16 C
3180 04-07-2016 03:00:00 12.1 C 94 % 11.16 C
3181 04-07-2016 03:05:00 12.2 C 93 % 11.1 C
3182 04-07-2016 03:10:00 12.2 C 93 % 11.1 C
3183 04-07-2016 03:15:00 12.2 C 93 % 11.1 C
3184 04-07-2016 03:20:00 12.2 C 93 % 11.1 C
3185 04-07-2016 03:25:00 12.2 C 93 % 11.1 C
3186 04-07-2016 03:30:00 12.2 C 93 % 11.1 C
3187 04-07-2016 03:35:00 12.2 C 93 % 11.1 C
3188 04-07-2016 03:40:00 12.2 C 93 % 11.1 C
3189 04-07-2016 03:45:00 12.2 C 93 % 11.1 C
3190 04-07-2016 03:50:00 12.2 C 93 % 11.1 C
3191 04-07-2016 03:55:00 12.2 C 93 % 11.1 C
3192 04-07-2016 04:00:00 12.1 C 93 % 11 C
3193 04-07-2016 04:05:00 12.1 C 93 % 11 C
3194 04-07-2016 04:10:00 12.1 C 93 % 11 C
3195 04-07-2016 04:15:00 12.1 C 93 % 11 C
3196 04-07-2016 04:20:00 12.1 C 93 % 11 C
3197 04-07-2016 04:25:00 12.1 C 93 % 11 C
3198 04-07-2016 04:30:00 12 C 94 % 11.07 C
3199 04-07-2016 04:35:00 12 C 94 % 11.07 C
3200 04-07-2016 04:40:00 12 C 94 % 11.07 C
Sensor: Nr:Datum:Temp:Feuchte:Taupunkt:
Aussen-T/F 3201 04-07-2016 04:45:00 12 C 94 % 11.07 C
3202 04-07-2016 04:50:00 12.1 C 94 % 11.16 C
3203 04-07-2016 04:55:00 12.1 C 94 % 11.16 C
3204 04-07-2016 05:00:00 12.1 C 94 % 11.16 C
3205 04-07-2016 05:05:00 12.1 C 94 % 11.16 C
3206 04-07-2016 05:10:00 12.2 C 94 % 11.26 C
3207 04-07-2016 05:15:00 12.2 C 94 % 11.26 C
3208 04-07-2016 05:20:00 12.2 C 94 % 11.26 C
3209 04-07-2016 05:25:00 12.2 C 94 % 11.26 C
3210 04-07-2016 05:30:00 12.2 C 94 % 11.26 C
3211 04-07-2016 05:35:00 12.2 C 94 % 11.26 C
3212 04-07-2016 05:40:00 12.3 C 94 % 11.36 C
3213 04-07-2016 05:45:00 12.3 C 94 % 11.36 C
3214 04-07-2016 05:50:00 12.3 C 94 % 11.36 C
3215 04-07-2016 05:55:00 12.3 C 94 % 11.36 C
3216 04-07-2016 06:00:00 12.3 C 94 % 11.36 C
3217 04-07-2016 06:05:00 12.3 C 94 % 11.36 C
3218 04-07-2016 06:10:00 12.4 C 94 % 11.46 C
3219 04-07-2016 06:15:00 12.4 C 94 % 11.46 C
3220 04-07-2016 06:20:00 12.4 C 94 % 11.46 C
3221 04-07-2016 06:25:00 12.5 C 94 % 11.56 C
3222 04-07-2016 06:30:00 12.5 C 94 % 11.56 C
3223 04-07-2016 06:35:00 12.6 C 94 % 11.66 C
3224 04-07-2016 06:40:00 12.6 C 94 % 11.66 C
3225 04-07-2016 06:45:00 12.6 C 94 % 11.66 C
Sensor: Nr:Datum:Temp:Feuchte:Taupunkt:
Aussen-T/F 3226 04-07-2016 06:50:00 12.7 C 94 % 11.76 C
3227 04-07-2016 06:55:00 12.7 C 94 % 11.76 C
3228 04-07-2016 07:00:00 12.8 C 93 % 11.7 C
3229 04-07-2016 07:05:00 12.9 C 93 % 11.8 C
3230 04-07-2016 07:10:00 13 C 93 % 11.9 C
3231 04-07-2016 07:15:00 13.1 C 93 % 11.99 C
3232 04-07-2016 07:20:00 13.2 C 93 % 12.09 C
3233 04-07-2016 07:25:00 13.3 C 93 % 12.19 C
3234 04-07-2016 07:30:00 13.4 C 92 % 12.13 C
3235 04-07-2016 07:35:00 13.6 C 93 % 12.49 C
3236 04-07-2016 07:40:00 13.7 C 92 % 12.42 C
3237 04-07-2016 07:45:00 13.8 C 92 % 12.52 C
3238 04-07-2016 07:50:00 13.8 C 91 % 12.36 C
3239 04-07-2016 07:55:00 13.9 C 91 % 12.46 C
3240 04-07-2016 08:00:00 14.1 C 91 % 12.65 C
3241 04-07-2016 08:05:00 14.2 C 90 % 12.58 C
3242 04-07-2016 08:10:00 14.3 C 90 % 12.68 C
3243 04-07-2016 08:15:00 14.4 C 89 % 12.61 C
3244 04-07-2016 08:20:00 14.6 C 90 % 12.98 C
3245 04-07-2016 08:25:00 14.7 C 90 % 13.08 C
3246 04-07-2016 08:30:00 14.8 C 89 % 13.01 C
3247 04-07-2016 08:35:00 14.9 C 89 % 13.1 C
3248 04-07-2016 08:40:00 15 C 89 % 13.2 C
3249 04-07-2016 08:45:00 15.2 C 88 % 13.23 C
3250 04-07-2016 08:50:00 15.3 C 88 % 13.33 C
Sensor: Nr:Datum:Temp:Feuchte:Taupunkt:
Aussen-T/F 3251 04-07-2016 08:55:00 15.4 C 88 % 13.42 C
3252 04-07-2016 09:00:00 15.4 C 88 % 13.42 C
3253 04-07-2016 09:05:00 15.5 C 88 % 13.52 C
3254 04-07-2016 09:10:00 15.7 C 88 % 13.72 C
3255 04-07-2016 09:15:00 15.8 C 88 % 13.82 C
3256 04-07-2016 09:20:00 16.1 C 87 % 13.94 C
3257 04-07-2016 09:25:00 16.3 C 87 % 14.13 C
3258 04-07-2016 09:30:00 16.6 C 87 % 14.43 C
3259 04-07-2016 09:35:00 16.9 C 86 % 14.54 C
3260 04-07-2016 09:40:00 17.1 C 83 % 14.19 C
3261 04-07-2016 09:45:00 17.3 C 81 % 14.01 C
3262 04-07-2016 09:50:00 17.5 C 80 % 14.01 C
3263 04-07-2016 09:55:00 17.7 C 81 % 14.4 C
3264 04-07-2016 10:00:00 17.8 C 79 % 14.11 C
3265 04-07-2016 10:05:00 17.9 C 78 % 14.01 C
3266 04-07-2016 10:10:00 17.9 C 77 % 13.81 C
3267 04-07-2016 10:15:00 18.1 C 80 % 14.6 C
3268 04-07-2016 10:20:00 18.2 C 78 % 14.3 C
3269 04-07-2016 10:25:00 18.3 C 78 % 14.4 C
3270 04-07-2016 10:30:00 18.4 C 76 % 14.1 C
3271 04-07-2016 10:35:00 18.5 C 78 % 14.59 C
3272 04-07-2016 10:40:00 18.6 C 77 % 14.49 C
3273 04-07-2016 10:45:00 18.7 C 76 % 14.39 C
3274 04-07-2016 10:50:00 18.8 C 76 % 14.48 C
3275 04-07-2016 10:55:00 18.9 C 76 % 14.58 C
Sensor: Nr:Datum:Temp:Feuchte:Taupunkt:
Aussen-T/F 3276 04-07-2016 11:00:00 18.9 C 79 % 15.18 C
3277 04-07-2016 11:05:00 18.9 C 76 % 14.58 C
3278 04-07-2016 11:10:00 18.9 C 77 % 14.78 C
3279 04-07-2016 11:15:00 18.9 C 77 % 14.78 C
3280 04-07-2016 11:20:00 19.1 C 77 % 14.97 C
3281 04-07-2016 11:25:00 19.3 C 78 % 15.37 C
3282 04-07-2016 11:30:00 19.3 C 75 % 14.76 C
3283 04-07-2016 11:35:00 19.3 C 76 % 14.97 C
3284 04-07-2016 11:40:00 19.3 C 74 % 14.55 C
3285 04-07-2016 11:45:00 19.2 C 79 % 15.47 C
3286 04-07-2016 11:50:00 19.1 C 81 % 15.76 C
3287 04-07-2016 11:55:00 19 C 80 % 15.47 C
3288 04-07-2016 12:00:00 18.8 C 79 % 15.08 C
3289 04-07-2016 12:05:00 18.6 C 81 % 15.28 C
3290 04-07-2016 12:10:00 18.3 C 82 % 15.17 C
3291 04-07-2016 12:15:00 18 C 84 % 15.26 C
3292 04-07-2016 12:20:00 17.8 C 86 % 15.43 C
3293 04-07-2016 12:25:00 17.8 C 87 % 15.61 C
3294 04-07-2016 12:30:00 17.9 C 85 % 15.34 C
3295 04-07-2016 12:35:00 18.1 C 85 % 15.54 C
3296 04-07-2016 12:40:00 18.2 C 86 % 15.82 C
3297 04-07-2016 12:45:00 18.4 C 84 % 15.65 C
3298 04-07-2016 12:50:00 18.7 C 84 % 15.94 C
3299 04-07-2016 12:55:00 18.8 C 82 % 15.66 C
3300 04-07-2016 13:00:00 18.9 C 82 % 15.76 C
Sensor: Nr:Datum:Temp:Feuchte:Taupunkt:
Aussen-T/F 3301 04-07-2016 13:05:00 18.9 C 82 % 15.76 C
3302 04-07-2016 13:10:00 18.9 C 82 % 15.76 C
3303 04-07-2016 13:15:00 18.9 C 81 % 15.57 C
3304 04-07-2016 13:20:00 19 C 85 % 16.42 C
3305 04-07-2016 13:25:00 19.1 C 83 % 16.15 C
3306 04-07-2016 13:30:00 19 C 81 % 15.67 C
3307 04-07-2016 13:35:00 19.1 C 80 % 15.57 C
3308 04-07-2016 13:40:00 19.1 C 80 % 15.57 C
3309 04-07-2016 13:45:00 19.1 C 81 % 15.76 C
3310 04-07-2016 13:50:00 19.2 C 82 % 16.05 C
3311 04-07-2016 13:55:00 19.4 C 80 % 15.86 C
3312 04-07-2016 14:00:00 19.5 C 78 % 15.56 C
3313 04-07-2016 14:05:00 19.7 C 79 % 15.96 C
3314 04-07-2016 14:10:00 19.9 C 78 % 15.95 C
3315 04-07-2016 14:15:00 20.1 C 76 % 15.74 C
3316 04-07-2016 14:20:00 20.1 C 76 % 15.74 C
3317 04-07-2016 14:25:00 20.1 C 79 % 16.34 C
3318 04-07-2016 14:30:00 20.2 C 76 % 15.83 C
3319 04-07-2016 14:35:00 20.3 C 78 % 16.34 C
3320 04-07-2016 14:40:00 20.3 C 76 % 15.93 C
3321 04-07-2016 14:45:00 20.2 C 75 % 15.63 C
3322 04-07-2016 14:50:00 20.1 C 77 % 15.94 C
3323 04-07-2016 14:55:00 20.1 C 78 % 16.14 C
3324 04-07-2016 15:00:00 20.2 C 77 % 16.04 C
3325 04-07-2016 15:05:00 20.3 C 76 % 15.93 C
Sensor: Nr:Datum:Temp:Feuchte:Taupunkt:
Aussen-T/F 3326 04-07-2016 15:10:00 20.5 C 76 % 16.12 C
3327 04-07-2016 15:15:00 20.8 C 77 % 16.62 C
3328 04-07-2016 15:20:00 20.9 C 75 % 16.3 C
3329 04-07-2016 15:25:00 20.9 C 74 % 16.09 C
3330 04-07-2016 15:30:00 21 C 75 % 16.4 C
3331 04-07-2016 15:35:00 21 C 74 % 16.19 C
3332 04-07-2016 15:40:00 21.1 C 74 % 16.29 C
3333 04-07-2016 15:45:00 21.1 C 73 % 16.07 C
3334 04-07-2016 15:50:00 21 C 74 % 16.19 C
3335 04-07-2016 15:55:00 20.9 C 74 % 16.09 C
3336 04-07-2016 16:00:00 20.8 C 75 % 16.21 C
3337 04-07-2016 16:05:00 20.7 C 77 % 16.52 C
3338 04-07-2016 16:10:00 20.8 C 76 % 16.41 C
3339 04-07-2016 16:15:00 20.9 C 74 % 16.09 C
3340 04-07-2016 16:20:00 20.9 C 75 % 16.3 C
3341 04-07-2016 16:25:00 21 C 76 % 16.61 C
3342 04-07-2016 16:30:00 21.1 C 77 % 16.91 C
3343 04-07-2016 16:35:00 21.2 C 78 % 17.21 C
3344 04-07-2016 16:40:00 21.4 C 76 % 16.99 C
3345 04-07-2016 16:45:00 21.7 C 76 % 17.28 C
3346 04-07-2016 16:50:00 22.1 C 73 % 17.03 C
3347 04-07-2016 16:55:00 22.4 C 73 % 17.32 C
3348 04-07-2016 17:00:00 22.3 C 73 % 17.23 C
3349 04-07-2016 17:05:00 22.4 C 73 % 17.32 C
3350 04-07-2016 17:10:00 22.8 C 71 % 17.27 C
Sensor: Nr:Datum:Temp:Feuchte:Taupunkt:
Aussen-T/F 3351 04-07-2016 17:15:00 22.9 C 69 % 16.91 C
3352 04-07-2016 17:20:00 23.1 C 67 % 16.64 C
3353 04-07-2016 17:25:00 23.3 C 69 % 17.29 C
3354 04-07-2016 17:30:00 23.5 C 69 % 17.48 C
3355 04-07-2016 17:35:00 23.6 C 63 % 16.14 C
3356 04-07-2016 17:40:00 23.6 C 65 % 16.64 C
3357 04-07-2016 17:45:00 23.7 C 67 % 17.21 C
3358 04-07-2016 17:50:00 23.8 C 64 % 16.58 C
3359 04-07-2016 17:55:00 24.1 C 63 % 16.62 C
3360 04-07-2016 18:00:00 24.4 C 63 % 16.9 C
3361 04-07-2016 18:05:00 24.6 C 62 % 16.84 C
3362 04-07-2016 18:10:00 24.5 C 62 % 16.74 C
3363 04-07-2016 18:15:00 24.6 C 62 % 16.84 C
3364 04-07-2016 18:20:00 24.6 C 62 % 16.84 C
3365 04-07-2016 18:25:00 24.7 C 64 % 17.43 C
3366 04-07-2016 18:30:00 24.5 C 63 % 16.99 C
3367 04-07-2016 18:35:00 24.4 C 64 % 17.15 C
3368 04-07-2016 18:40:00 24.8 C 64 % 17.53 C
3369 04-07-2016 18:45:00 25.1 C 62 % 17.31 C
3370 04-07-2016 18:50:00 25.2 C 63 % 17.65 C
3371 04-07-2016 18:55:00 25.4 C 62 % 17.59 C
3372 04-07-2016 19:00:00 25.3 C 62 % 17.5 C
3373 04-07-2016 19:05:00 24.9 C 63 % 17.37 C
3374 04-07-2016 19:10:00 24.5 C 65 % 17.49 C
3375 04-07-2016 19:15:00 24.2 C 66 % 17.45 C
Sensor: Nr:Datum:Temp:Feuchte:Taupunkt:
Aussen-T/F 3376 04-07-2016 19:20:00 23.9 C 65 % 16.92 C
3377 04-07-2016 19:25:00 23.8 C 68 % 17.54 C
3378 04-07-2016 19:30:00 23.7 C 66 % 16.97 C
3379 04-07-2016 19:35:00 23.5 C 68 % 17.25 C
3380 04-07-2016 19:40:00 23.4 C 68 % 17.16 C
3381 04-07-2016 19:45:00 23.3 C 69 % 17.29 C
3382 04-07-2016 19:50:00 23.1 C 67 % 16.64 C
3383 04-07-2016 19:55:00 22.9 C 69 % 16.91 C
3384 04-07-2016 20:00:00 22.8 C 71 % 17.27 C
3385 04-07-2016 20:05:00 22.7 C 74 % 17.83 C
3386 04-07-2016 20:10:00 22.7 C 72 % 17.39 C
3387 04-07-2016 20:15:00 22.7 C 73 % 17.61 C
3388 04-07-2016 20:20:00 22.8 C 73 % 17.71 C
3389 04-07-2016 20:25:00 22.8 C 74 % 17.92 C
3390 04-07-2016 20:30:00 22.7 C 74 % 17.83 C
3391 04-07-2016 20:35:00 22.5 C 74 % 17.63 C
3392 04-07-2016 20:40:00 22.2 C 75 % 17.56 C
3393 04-07-2016 20:45:00 21.9 C 76 % 17.48 C
3394 04-07-2016 20:50:00 21.7 C 76 % 17.28 C
3395 04-07-2016 20:55:00 21.4 C 77 % 17.2 C
3396 04-07-2016 21:00:00 21.1 C 77 % 16.91 C
3397 04-07-2016 21:05:00 20.8 C 78 % 16.82 C
3398 04-07-2016 21:10:00 20.6 C 78 % 16.63 C
3399 04-07-2016 21:15:00 20.4 C 79 % 16.64 C
3400 04-07-2016 21:20:00 20.3 C 80 % 16.74 C
Sensor: Nr:Datum:Temp:Feuchte:Taupunkt:
Aussen-T/F 3401 04-07-2016 21:25:00 20.2 C 80 % 16.64 C
3402 04-07-2016 21:30:00 20.1 C 81 % 16.74 C
3403 04-07-2016 21:35:00 19.9 C 81 % 16.54 C
3404 04-07-2016 21:40:00 19.8 C 82 % 16.64 C
3405 04-07-2016 21:45:00 19.6 C 82 % 16.44 C
3406 04-07-2016 21:50:00 19.4 C 83 % 16.44 C
3407 04-07-2016 21:55:00 19.2 C 84 % 16.43 C
3408 04-07-2016 22:00:00 19.1 C 84 % 16.33 C
3409 04-07-2016 22:05:00 19 C 85 % 16.42 C
3410 04-07-2016 22:10:00 18.9 C 85 % 16.32 C
3411 04-07-2016 22:15:00 18.8 C 85 % 16.23 C
3412 04-07-2016 22:20:00 18.8 C 86 % 16.41 C
3413 04-07-2016 22:25:00 18.7 C 86 % 16.31 C
3414 04-07-2016 22:30:00 18.7 C 86 % 16.31 C
3415 04-07-2016 22:35:00 18.6 C 87 % 16.39 C
3416 04-07-2016 22:40:00 18.5 C 87 % 16.3 C
3417 04-07-2016 22:45:00 18.4 C 87 % 16.2 C
3418 04-07-2016 22:50:00 18.4 C 88 % 16.38 C
3419 04-07-2016 22:55:00 18.4 C 88 % 16.38 C
3420 04-07-2016 23:00:00 18.3 C 88 % 16.28 C
3421 04-07-2016 23:05:00 18.3 C 88 % 16.28 C
3422 04-07-2016 23:10:00 18.3 C 88 % 16.28 C
3423 04-07-2016 23:15:00 18.3 C 88 % 16.28 C
3424 04-07-2016 23:20:00 18.3 C 88 % 16.28 C
3425 04-07-2016 23:25:00 18.3 C 88 % 16.28 C
Sensor: Nr:Datum:Temp:Feuchte:Taupunkt:
Aussen-T/F 3426 04-07-2016 23:30:00 18.3 C 88 % 16.28 C
3427 04-07-2016 23:35:00 18.2 C 88 % 16.18 C
3428 04-07-2016 23:40:00 18.2 C 89 % 16.36 C
3429 04-07-2016 23:45:00 18.1 C 89 % 16.26 C
3430 04-07-2016 23:50:00 18.1 C 89 % 16.26 C
3431 04-07-2016 23:55:00 18 C 89 % 16.16 C
3432 05-07-2016 00:00:00 18 C 89 % 16.16 C
3433 05-07-2016 00:05:00 17.9 C 90 % 16.24 C
3434 05-07-2016 00:10:00 17.9 C 90 % 16.24 C
3435 05-07-2016 00:15:00 17.9 C 90 % 16.24 C
3436 05-07-2016 00:20:00 17.9 C 90 % 16.24 C
3437 05-07-2016 00:25:00 17.8 C 90 % 16.14 C
3438 05-07-2016 00:30:00 17.8 C 90 % 16.14 C
3439 05-07-2016 00:35:00 17.8 C 90 % 16.14 C
3440 05-07-2016 00:40:00 17.8 C 90 % 16.14 C
3441 05-07-2016 00:45:00 17.8 C 90 % 16.14 C
3442 05-07-2016 00:50:00 17.8 C 90 % 16.14 C
3443 05-07-2016 00:55:00 17.8 C 90 % 16.14 C
3444 05-07-2016 01:00:00 17.7 C 90 % 16.04 C
3445 05-07-2016 01:05:00 17.7 C 90 % 16.04 C
3446 05-07-2016 01:10:00 17.7 C 91 % 16.21 C
3447 05-07-2016 01:15:00 17.7 C 91 % 16.21 C
3448 05-07-2016 01:20:00 17.7 C 91 % 16.21 C
3449 05-07-2016 01:25:00 17.7 C 91 % 16.21 C
3450 05-07-2016 01:30:00 17.6 C 91 % 16.11 C
Sensor: Nr:Datum:Temp:Feuchte:Taupunkt:
Aussen-T/F 3451 05-07-2016 01:35:00 17.6 C 91 % 16.11 C
3452 05-07-2016 01:40:00 17.6 C 91 % 16.11 C
3453 05-07-2016 01:45:00 17.6 C 91 % 16.11 C
3454 05-07-2016 01:50:00 17.6 C 91 % 16.11 C
3455 05-07-2016 01:55:00 17.6 C 91 % 16.11 C
3456 05-07-2016 02:00:00 17.6 C 91 % 16.11 C
3457 05-07-2016 02:05:00 17.6 C 91 % 16.11 C
3458 05-07-2016 02:10:00 17.6 C 91 % 16.11 C
3459 05-07-2016 02:15:00 17.6 C 91 % 16.11 C
3460 05-07-2016 02:20:00 17.6 C 91 % 16.11 C
3461 05-07-2016 02:25:00 17.6 C 91 % 16.11 C
3462 05-07-2016 02:30:00 17.6 C 91 % 16.11 C
3463 05-07-2016 02:35:00 17.6 C 91 % 16.11 C
3464 05-07-2016 02:40:00 17.6 C 91 % 16.11 C
3465 05-07-2016 02:45:00 17.6 C 91 % 16.11 C
3466 05-07-2016 02:50:00 17.5 C 91 % 16.01 C
3467 05-07-2016 02:55:00 17.5 C 91 % 16.01 C
3468 05-07-2016 03:00:00 17.4 C 91 % 15.92 C
3469 05-07-2016 03:05:00 17.4 C 91 % 15.92 C
3470 05-07-2016 03:10:00 17.4 C 91 % 15.92 C
3471 05-07-2016 03:15:00 17.4 C 91 % 15.92 C
3472 05-07-2016 03:20:00 17.3 C 91 % 15.82 C
3473 05-07-2016 03:25:00 17.3 C 91 % 15.82 C
3474 05-07-2016 03:30:00 17.3 C 91 % 15.82 C
3475 05-07-2016 03:35:00 17.3 C 91 % 15.82 C
Sensor: Nr:Datum:Temp:Feuchte:Taupunkt:
Aussen-T/F 3476 05-07-2016 03:40:00 17.3 C 91 % 15.82 C
3477 05-07-2016 03:45:00 17.3 C 91 % 15.82 C
3478 05-07-2016 03:50:00 17.3 C 91 % 15.82 C
3479 05-07-2016 03:55:00 17.3 C 91 % 15.82 C
3480 05-07-2016 04:00:00 17.3 C 91 % 15.82 C
3481 05-07-2016 04:05:00 17.3 C 91 % 15.82 C
3482 05-07-2016 04:10:00 17.3 C 91 % 15.82 C
3483 05-07-2016 04:15:00 17.3 C 91 % 15.82 C
3484 05-07-2016 04:20:00 17.3 C 91 % 15.82 C
3485 05-07-2016 04:25:00 17.3 C 91 % 15.82 C
3486 05-07-2016 04:30:00 17.3 C 91 % 15.82 C
3487 05-07-2016 04:35:00 17.3 C 91 % 15.82 C
3488 05-07-2016 04:40:00 17.3 C 91 % 15.82 C
3489 05-07-2016 04:45:00 17.3 C 91 % 15.82 C
3490 05-07-2016 04:50:00 17.2 C 91 % 15.72 C
3491 05-07-2016 04:55:00 17.2 C 91 % 15.72 C
3492 05-07-2016 05:00:00 17.1 C 91 % 15.62 C
3493 05-07-2016 05:05:00 17.1 C 91 % 15.62 C
3494 05-07-2016 05:10:00 17.1 C 91 % 15.62 C
3495 05-07-2016 05:15:00 17 C 91 % 15.52 C
3496 05-07-2016 05:20:00 16.9 C 91 % 15.42 C
3497 05-07-2016 05:25:00 16.9 C 92 % 15.59 C
3498 05-07-2016 05:30:00 16.9 C 92 % 15.59 C
3499 05-07-2016 05:35:00 16.8 C 92 % 15.49 C
3500 05-07-2016 05:40:00 16.8 C 92 % 15.49 C
Sensor: Nr:Datum:Temp:Feuchte:Taupunkt:
Aussen-T/F 3501 05-07-2016 05:45:00 16.8 C 92 % 15.49 C
3502 05-07-2016 05:50:00 16.8 C 92 % 15.49 C
3503 05-07-2016 05:55:00 16.8 C 92 % 15.49 C
3504 05-07-2016 06:00:00 16.8 C 92 % 15.49 C
3505 05-07-2016 06:05:00 16.8 C 92 % 15.49 C
3506 05-07-2016 06:10:00 16.8 C 92 % 15.49 C
3507 05-07-2016 06:15:00 16.8 C 92 % 15.49 C
3508 05-07-2016 06:20:00 16.8 C 93 % 15.66 C
3509 05-07-2016 06:25:00 16.9 C 93 % 15.76 C
3510 05-07-2016 06:30:00 16.9 C 93 % 15.76 C
3511 05-07-2016 06:35:00 16.9 C 93 % 15.76 C
3512 05-07-2016 06:40:00 17 C 93 % 15.86 C
3513 05-07-2016 06:45:00 17 C 93 % 15.86 C
3514 05-07-2016 06:50:00 17.1 C 93 % 15.96 C
3515 05-07-2016 06:55:00 17.1 C 92 % 15.79 C
3516 05-07-2016 07:00:00 17.1 C 92 % 15.79 C
3517 05-07-2016 07:05:00 17.2 C 92 % 15.89 C
3518 05-07-2016 07:10:00 17.3 C 92 % 15.99 C
3519 05-07-2016 07:15:00 17.3 C 92 % 15.99 C
3520 05-07-2016 07:20:00 17.4 C 92 % 16.09 C
3521 05-07-2016 07:25:00 17.5 C 92 % 16.19 C
3522 05-07-2016 07:30:00 17.6 C 91 % 16.11 C
3523 05-07-2016 07:35:00 17.7 C 91 % 16.21 C
3524 05-07-2016 07:40:00 17.8 C 90 % 16.14 C
3525 05-07-2016 07:45:00 17.9 C 90 % 16.24 C
Sensor: Nr:Datum:Temp:Feuchte:Taupunkt:
Aussen-T/F 3526 05-07-2016 07:50:00 17.9 C 90 % 16.24 C
3527 05-07-2016 07:55:00 18.1 C 89 % 16.26 C
3528 05-07-2016 08:00:00 18.2 C 89 % 16.36 C
3529 05-07-2016 08:05:00 18.3 C 88 % 16.28 C
3530 05-07-2016 08:10:00 18.3 C 88 % 16.28 C
3531 05-07-2016 08:15:00 18.4 C 87 % 16.2 C
3532 05-07-2016 08:20:00 18.4 C 86 % 16.02 C
3533 05-07-2016 08:25:00 18.4 C 86 % 16.02 C
3534 05-07-2016 08:30:00 18.5 C 87 % 16.3 C
3535 05-07-2016 08:35:00 18.6 C 86 % 16.21 C
3536 05-07-2016 08:40:00 18.6 C 86 % 16.21 C
3537 05-07-2016 08:45:00 18.7 C 87 % 16.49 C
3538 05-07-2016 08:50:00 18.8 C 85 % 16.23 C
3539 05-07-2016 08:55:00 18.8 C 85 % 16.23 C
3540 05-07-2016 09:00:00 18.9 C 83 % 15.95 C
3541 05-07-2016 09:05:00 19.1 C 84 % 16.33 C
3542 05-07-2016 09:10:00 19.2 C 83 % 16.24 C
3543 05-07-2016 09:15:00 19.3 C 83 % 16.34 C
3544 05-07-2016 09:20:00 19.4 C 82 % 16.25 C
3545 05-07-2016 09:25:00 19.5 C 82 % 16.35 C
3546 05-07-2016 09:30:00 19.6 C 81 % 16.25 C
3547 05-07-2016 09:35:00 19.6 C 80 % 16.06 C
3548 05-07-2016 09:40:00 19.7 C 81 % 16.35 C
3549 05-07-2016 09:45:00 19.7 C 80 % 16.15 C
3550 05-07-2016 09:50:00 19.7 C 80 % 16.15 C
Sensor: Nr:Datum:Temp:Feuchte:Taupunkt:
Aussen-T/F 3551 05-07-2016 09:55:00 19.7 C 81 % 16.35 C
3552 05-07-2016 10:00:00 19.7 C 82 % 16.54 C
3553 05-07-2016 10:05:00 19.8 C 81 % 16.45 C
3554 05-07-2016 10:10:00 19.9 C 79 % 16.15 C
3555 05-07-2016 10:15:00 20.2 C 75 % 15.63 C
3556 05-07-2016 10:20:00 20.4 C 77 % 16.23 C
3557 05-07-2016 10:25:00 20.7 C 73 % 15.69 C
3558 05-07-2016 10:30:00 20.8 C 72 % 15.57 C
3559 05-07-2016 10:35:00 20.8 C 71 % 15.35 C
3560 05-07-2016 10:40:00 20.9 C 75 % 16.3 C
3561 05-07-2016 10:45:00 20.9 C 74 % 16.09 C
3562 05-07-2016 10:50:00 20.9 C 71 % 15.45 C
3563 05-07-2016 10:55:00 20.8 C 70 % 15.13 C
3564 05-07-2016 11:00:00 20.8 C 69 % 14.91 C
3565 05-07-2016 11:05:00 20.8 C 68 % 14.68 C
3566 05-07-2016 11:10:00 20.7 C 70 % 15.03 C
3567 05-07-2016 11:15:00 20.7 C 70 % 15.03 C
3568 05-07-2016 11:20:00 20.7 C 67 % 14.36 C
3569 05-07-2016 11:25:00 20.8 C 70 % 15.13 C
3570 05-07-2016 11:30:00 20.8 C 71 % 15.35 C
3571 05-07-2016 11:35:00 20.7 C 69 % 14.81 C
3572 05-07-2016 11:40:00 20.7 C 69 % 14.81 C
3573 05-07-2016 11:45:00 20.6 C 70 % 14.94 C
3574 05-07-2016 11:50:00 20.6 C 71 % 15.16 C
3575 05-07-2016 11:55:00 20.6 C 68 % 14.49 C
Sensor: Nr:Datum:Temp:Feuchte:Taupunkt:
Aussen-T/F 3576 05-07-2016 12:00:00 20.8 C 68 % 14.68 C
3577 05-07-2016 12:05:00 20.9 C 67 % 14.55 C
3578 05-07-2016 12:10:00 21 C 69 % 15.1 C
3579 05-07-2016 12:15:00 20.9 C 66 % 14.31 C
3580 05-07-2016 12:20:00 20.8 C 67 % 14.45 C
3581 05-07-2016 12:25:00 20.7 C 70 % 15.03 C
3582 05-07-2016 12:30:00 20.7 C 71 % 15.25 C
3583 05-07-2016 12:35:00 20.9 C 72 % 15.66 C
3584 05-07-2016 12:40:00 20.9 C 70 % 15.23 C
3585 05-07-2016 12:45:00 21.1 C 73 % 16.07 C
3586 05-07-2016 12:50:00 21 C 71 % 15.54 C
3587 05-07-2016 12:55:00 20.9 C 70 % 15.23 C
3588 05-07-2016 13:00:00 20.8 C 72 % 15.57 C
3589 05-07-2016 13:05:00 20.8 C 72 % 15.57 C
3590 05-07-2016 13:10:00 21 C 72 % 15.76 C
3591 05-07-2016 13:15:00 21.1 C 70 % 15.42 C
3592 05-07-2016 13:20:00 20.9 C 73 % 15.88 C
3593 05-07-2016 13:25:00 20.9 C 72 % 15.66 C
3594 05-07-2016 13:30:00 21 C 72 % 15.76 C
3595 05-07-2016 13:35:00 21.2 C 73 % 16.17 C
3596 05-07-2016 13:40:00 21.4 C 71 % 15.93 C
3597 05-07-2016 13:45:00 21.5 C 71 % 16.02 C
3598 05-07-2016 13:50:00 21.6 C 70 % 15.89 C
3599 05-07-2016 13:55:00 21.6 C 71 % 16.12 C
3600 05-07-2016 14:00:00 21.7 C 71 % 16.21 C
Sensor: Nr:Datum:Temp:Feuchte:Taupunkt:
Aussen-T/F 3601 05-07-2016 14:05:00 21.7 C 71 % 16.21 C
3602 05-07-2016 14:10:00 21.5 C 72 % 16.24 C
3603 05-07-2016 14:15:00 21.3 C 72 % 16.05 C
3604 05-07-2016 14:20:00 21.1 C 72 % 15.86 C
3605 05-07-2016 14:25:00 20.9 C 73 % 15.88 C
3606 05-07-2016 14:30:00 20.8 C 73 % 15.78 C
3607 05-07-2016 14:35:00 20.8 C 75 % 16.21 C
3608 05-07-2016 14:40:00 20.9 C 73 % 15.88 C
3609 05-07-2016 14:45:00 20.9 C 73 % 15.88 C
3610 05-07-2016 14:50:00 21.2 C 71 % 15.73 C
3611 05-07-2016 14:55:00 21.3 C 70 % 15.61 C
3612 05-07-2016 15:00:00 21.6 C 71 % 16.12 C
3613 05-07-2016 15:05:00 21.8 C 72 % 16.53 C
3614 05-07-2016 15:10:00 22.1 C 69 % 16.15 C
3615 05-07-2016 15:15:00 22.3 C 69 % 16.34 C
3616 05-07-2016 15:20:00 22.6 C 69 % 16.62 C
3617 05-07-2016 15:25:00 22.8 C 68 % 16.59 C
3618 05-07-2016 15:30:00 22.9 C 65 % 15.97 C
3619 05-07-2016 15:35:00 22.9 C 67 % 16.45 C
3620 05-07-2016 15:40:00 22.9 C 66 % 16.21 C
3621 05-07-2016 15:45:00 22.8 C 65 % 15.88 C
3622 05-07-2016 15:50:00 22.4 C 68 % 16.2 C
3623 05-07-2016 15:55:00 22.2 C 71 % 16.69 C
3624 05-07-2016 16:00:00 22 C 70 % 16.28 C
3625 05-07-2016 16:05:00 21.9 C 73 % 16.84 C
Sensor: Nr:Datum:Temp:Feuchte:Taupunkt:
Aussen-T/F 3626 05-07-2016 16:10:00 21.8 C 72 % 16.53 C
3627 05-07-2016 16:15:00 21.6 C 73 % 16.55 C
3628 05-07-2016 16:20:00 21.5 C 74 % 16.67 C
3629 05-07-2016 16:25:00 21.4 C 74 % 16.57 C
3630 05-07-2016 16:30:00 21.4 C 79 % 17.61 C
3631 05-07-2016 16:35:00 21.7 C 76 % 17.28 C
3632 05-07-2016 16:40:00 22 C 74 % 17.15 C
3633 05-07-2016 16:45:00 22.2 C 76 % 17.77 C
3634 05-07-2016 16:50:00 22.1 C 72 % 16.82 C
3635 05-07-2016 16:55:00 22 C 72 % 16.72 C
3636 05-07-2016 17:00:00 22.1 C 70 % 16.37 C
3637 05-07-2016 17:05:00 22.2 C 72 % 16.91 C
3638 05-07-2016 17:10:00 22.2 C 73 % 17.13 C
3639 05-07-2016 17:15:00 22 C 68 % 15.82 C
3640 05-07-2016 17:20:00 21.9 C 69 % 15.96 C
3641 05-07-2016 17:25:00 21.9 C 65 % 15.02 C
3642 05-07-2016 17:30:00 22.1 C 63 % 14.73 C
3643 05-07-2016 17:35:00 22.1 C 63 % 14.73 C
3644 05-07-2016 17:40:00 22.1 C 63 % 14.73 C
3645 05-07-2016 17:45:00 22.2 C 65 % 15.31 C
3646 05-07-2016 17:50:00 22.1 C 64 % 14.97 C
3647 05-07-2016 17:55:00 22.1 C 64 % 14.97 C
3648 05-07-2016 18:00:00 22.1 C 65 % 15.21 C
3649 05-07-2016 18:05:00 22.1 C 64 % 14.97 C
3650 05-07-2016 18:10:00 22 C 64 % 14.88 C
Sensor: Nr:Datum:Temp:Feuchte:Taupunkt:
Aussen-T/F 3651 05-07-2016 18:15:00 21.6 C 67 % 15.21 C
3652 05-07-2016 18:20:00 21 C 69 % 15.1 C
3653 05-07-2016 18:25:00 20.7 C 71 % 15.25 C
3654 05-07-2016 18:30:00 20.5 C 70 % 14.84 C
3655 05-07-2016 18:35:00 20.4 C 69 % 14.52 C
3656 05-07-2016 18:40:00 20.3 C 69 % 14.43 C
3657 05-07-2016 18:45:00 20.3 C 69 % 14.43 C
3658 05-07-2016 18:50:00 20.6 C 69 % 14.71 C
3659 05-07-2016 18:55:00 21.1 C 67 % 14.74 C
3660 05-07-2016 19:00:00 21.1 C 67 % 14.74 C
3661 05-07-2016 19:05:00 21.1 C 68 % 14.97 C
3662 05-07-2016 19:10:00 21 C 69 % 15.1 C
3663 05-07-2016 19:15:00 21.3 C 70 % 15.61 C
3664 05-07-2016 19:20:00 22 C 64 % 14.88 C
3665 05-07-2016 19:25:00 22.5 C 63 % 15.11 C
3666 05-07-2016 19:30:00 22.6 C 62 % 14.95 C
3667 05-07-2016 19:35:00 22.6 C 61 % 14.7 C
3668 05-07-2016 19:40:00 22.6 C 63 % 15.2 C
3669 05-07-2016 19:45:00 22.6 C 63 % 15.2 C
3670 05-07-2016 19:50:00 22.6 C 62 % 14.95 C
3671 05-07-2016 19:55:00 22.6 C 61 % 14.7 C
3672 05-07-2016 20:00:00 22.6 C 59 % 14.18 C
3673 05-07-2016 20:05:00 22.6 C 58 % 13.92 C
3674 05-07-2016 20:10:00 22.6 C 57 % 13.65 C
3675 05-07-2016 20:15:00 22.2 C 56 % 13.01 C
Sensor: Nr:Datum:Temp:Feuchte:Taupunkt:
Aussen-T/F 3676 05-07-2016 20:20:00 21.6 C 58 % 12.99 C
3677 05-07-2016 20:25:00 21.2 C 59 % 12.87 C
3678 05-07-2016 20:30:00 20.8 C 62 % 13.26 C
3679 05-07-2016 20:35:00 20.6 C 63 % 13.31 C
3680 05-07-2016 20:40:00 20.4 C 62 % 12.88 C
3681 05-07-2016 20:45:00 20.3 C 63 % 13.03 C
3682 05-07-2016 20:50:00 20.4 C 63 % 13.12 C
3683 05-07-2016 20:55:00 20.3 C 62 % 12.79 C
3684 05-07-2016 21:00:00 20.3 C 64 % 13.27 C
3685 05-07-2016 21:05:00 20.2 C 63 % 12.94 C
3686 05-07-2016 21:10:00 20 C 64 % 12.99 C
3687 05-07-2016 21:15:00 19.9 C 64 % 12.89 C
3688 05-07-2016 21:20:00 19.8 C 65 % 13.03 C
3689 05-07-2016 21:25:00 19.7 C 70 % 14.08 C
3690 05-07-2016 21:30:00 19.6 C 70 % 13.98 C
3691 05-07-2016 21:35:00 19.3 C 71 % 13.91 C
3692 05-07-2016 21:40:00 19.1 C 74 % 14.36 C
3693 05-07-2016 21:45:00 18.9 C 72 % 13.74 C
3694 05-07-2016 21:50:00 18.8 C 71 % 13.43 C
3695 05-07-2016 21:55:00 18.7 C 72 % 13.55 C
3696 05-07-2016 22:00:00 18.4 C 72 % 13.26 C
3697 05-07-2016 22:05:00 18.2 C 73 % 13.28 C
3698 05-07-2016 22:10:00 17.9 C 74 % 13.2 C
3699 05-07-2016 22:15:00 17.8 C 74 % 13.11 C
3700 05-07-2016 22:20:00 17.7 C 75 % 13.22 C
Sensor: Nr:Datum:Temp:Feuchte:Taupunkt:
Aussen-T/F 3701 05-07-2016 22:25:00 17.6 C 75 % 13.12 C
3702 05-07-2016 22:30:00 17.5 C 75 % 13.02 C
3703 05-07-2016 22:35:00 17.4 C 75 % 12.93 C
3704 05-07-2016 22:40:00 17.4 C 76 % 13.13 C
3705 05-07-2016 22:45:00 17.3 C 76 % 13.03 C
3706 05-07-2016 22:50:00 17.2 C 76 % 12.94 C
3707 05-07-2016 22:55:00 17.1 C 76 % 12.84 C
3708 05-07-2016 23:00:00 17 C 77 % 12.94 C
3709 05-07-2016 23:05:00 16.9 C 77 % 12.84 C
3710 05-07-2016 23:10:00 16.8 C 77 % 12.75 C
3711 05-07-2016 23:15:00 16.7 C 78 % 12.85 C
3712 05-07-2016 23:20:00 16.7 C 78 % 12.85 C
3713 05-07-2016 23:25:00 16.6 C 78 % 12.75 C
3714 05-07-2016 23:30:00 16.4 C 78 % 12.56 C
3715 05-07-2016 23:35:00 16.3 C 78 % 12.46 C
3716 05-07-2016 23:40:00 16.3 C 78 % 12.46 C
3717 05-07-2016 23:45:00 16.2 C 78 % 12.36 C
3718 05-07-2016 23:50:00 16.1 C 78 % 12.27 C
3719 05-07-2016 23:55:00 15.9 C 78 % 12.07 C
3720 06-07-2016 00:00:00 15.9 C 78 % 12.07 C
3721 06-07-2016 00:05:00 15.8 C 78 % 11.97 C
3722 06-07-2016 00:10:00 15.7 C 78 % 11.88 C
3723 06-07-2016 00:15:00 15.6 C 78 % 11.78 C
3724 06-07-2016 00:20:00 15.5 C 78 % 11.68 C
3725 06-07-2016 00:25:00 15.4 C 79 % 11.78 C
Sensor: Nr:Datum:Temp:Feuchte:Taupunkt:
Aussen-T/F 3726 06-07-2016 00:30:00 15.3 C 79 % 11.68 C
3727 06-07-2016 00:35:00 15.3 C 79 % 11.68 C
3728 06-07-2016 00:40:00 15.2 C 79 % 11.59 C
3729 06-07-2016 00:45:00 15.2 C 79 % 11.59 C
3730 06-07-2016 00:50:00 15.2 C 80 % 11.78 C
3731 06-07-2016 00:55:00 15.1 C 80 % 11.68 C
3732 06-07-2016 01:00:00 14.9 C 81 % 11.67 C
3733 06-07-2016 01:05:00 14.7 C 81 % 11.48 C
3734 06-07-2016 01:10:00 14.4 C 82 % 11.37 C
3735 06-07-2016 01:15:00 14.3 C 83 % 11.45 C
3736 06-07-2016 01:20:00 14.1 C 84 % 11.44 C
3737 06-07-2016 01:25:00 13.9 C 84 % 11.24 C
3738 06-07-2016 01:30:00 13.8 C 85 % 11.32 C
3739 06-07-2016 01:35:00 13.6 C 85 % 11.13 C
3740 06-07-2016 01:40:00 13.4 C 86 % 11.11 C
3741 06-07-2016 01:45:00 13.3 C 86 % 11.01 C
3742 06-07-2016 01:50:00 13.2 C 87 % 11.09 C
3743 06-07-2016 01:55:00 13.2 C 87 % 11.09 C
3744 06-07-2016 02:00:00 13.1 C 87 % 10.99 C
3745 06-07-2016 02:05:00 13 C 87 % 10.89 C
3746 06-07-2016 02:10:00 12.9 C 87 % 10.79 C
3747 06-07-2016 02:15:00 12.9 C 87 % 10.79 C
3748 06-07-2016 02:20:00 12.9 C 87 % 10.79 C
3749 06-07-2016 02:25:00 12.9 C 87 % 10.79 C
3750 06-07-2016 02:30:00 12.8 C 87 % 10.69 C
Sensor: Nr:Datum:Temp:Feuchte:Taupunkt:
Aussen-T/F 3751 06-07-2016 02:35:00 12.8 C 87 % 10.69 C
3752 06-07-2016 02:40:00 12.8 C 87 % 10.69 C
3753 06-07-2016 02:45:00 12.7 C 87 % 10.59 C
3754 06-07-2016 02:50:00 12.7 C 87 % 10.59 C
3755 06-07-2016 02:55:00 12.7 C 87 % 10.59 C
3756 06-07-2016 03:00:00 12.6 C 88 % 10.67 C
3757 06-07-2016 03:05:00 12.5 C 88 % 10.57 C
3758 06-07-2016 03:10:00 12.4 C 88 % 10.47 C
3759 06-07-2016 03:15:00 12.3 C 88 % 10.37 C
3760 06-07-2016 03:20:00 12.3 C 89 % 10.54 C
3761 06-07-2016 03:25:00 12.2 C 89 % 10.44 C
3762 06-07-2016 03:30:00 12.1 C 89 % 10.34 C
3763 06-07-2016 03:35:00 11.9 C 89 % 10.15 C
3764 06-07-2016 03:40:00 11.8 C 89 % 10.05 C
3765 06-07-2016 03:45:00 11.7 C 90 % 10.12 C
3766 06-07-2016 03:50:00 11.6 C 90 % 10.02 C
3767 06-07-2016 03:55:00 11.5 C 90 % 9.92 C
3768 06-07-2016 04:00:00 11.4 C 90 % 9.82 C
3769 06-07-2016 04:05:00 11.3 C 91 % 9.89 C
3770 06-07-2016 04:10:00 11.3 C 91 % 9.89 C
3771 06-07-2016 04:15:00 11.2 C 91 % 9.79 C
3772 06-07-2016 04:20:00 11.1 C 91 % 9.69 C
3773 06-07-2016 04:25:00 11.1 C 91 % 9.69 C
3774 06-07-2016 04:30:00 11 C 91 % 9.59 C
3775 06-07-2016 04:35:00 11 C 91 % 9.59 C
Sensor: Nr:Datum:Temp:Feuchte:Taupunkt:
Aussen-T/F 3776 06-07-2016 04:40:00 10.9 C 91 % 9.49 C
3777 06-07-2016 04:45:00 10.9 C 91 % 9.49 C
3778 06-07-2016 04:50:00 10.8 C 92 % 9.55 C
3779 06-07-2016 04:55:00 10.8 C 92 % 9.55 C
3780 06-07-2016 05:00:00 10.8 C 92 % 9.55 C
3781 06-07-2016 05:05:00 10.8 C 92 % 9.55 C
3782 06-07-2016 05:10:00 10.7 C 92 % 9.45 C
3783 06-07-2016 05:15:00 10.7 C 92 % 9.45 C
3784 06-07-2016 05:20:00 10.7 C 92 % 9.45 C
3785 06-07-2016 05:25:00 10.7 C 92 % 9.45 C
3786 06-07-2016 05:30:00 10.7 C 92 % 9.45 C
3787 06-07-2016 05:35:00 10.6 C 92 % 9.36 C
3788 06-07-2016 05:40:00 10.6 C 92 % 9.36 C
3789 06-07-2016 05:45:00 10.6 C 92 % 9.36 C
3790 06-07-2016 05:50:00 10.6 C 92 % 9.36 C
3791 06-07-2016 05:55:00 10.6 C 92 % 9.36 C
3792 06-07-2016 06:00:00 10.6 C 92 % 9.36 C
3793 06-07-2016 06:05:00 10.6 C 92 % 9.36 C
3794 06-07-2016 06:10:00 10.6 C 92 % 9.36 C
3795 06-07-2016 06:15:00 10.6 C 92 % 9.36 C
3796 06-07-2016 06:20:00 10.6 C 92 % 9.36 C
3797 06-07-2016 06:25:00 10.6 C 92 % 9.36 C
3798 06-07-2016 06:30:00 10.6 C 92 % 9.36 C
3799 06-07-2016 06:35:00 10.6 C 93 % 9.52 C
3800 06-07-2016 06:40:00 10.6 C 92 % 9.36 C
Sensor: Nr:Datum:Temp:Feuchte:Taupunkt:
Aussen-T/F 3801 06-07-2016 06:45:00 10.6 C 92 % 9.36 C
3802 06-07-2016 06:50:00 10.6 C 92 % 9.36 C
3803 06-07-2016 06:55:00 10.7 C 93 % 9.62 C
3804 06-07-2016 07:00:00 10.7 C 93 % 9.62 C
3805 06-07-2016 07:05:00 10.7 C 93 % 9.62 C
3806 06-07-2016 07:10:00 10.8 C 93 % 9.71 C
3807 06-07-2016 07:15:00 10.8 C 93 % 9.71 C
3808 06-07-2016 07:20:00 10.9 C 93 % 9.81 C
3809 06-07-2016 07:25:00 11 C 93 % 9.91 C
3810 06-07-2016 07:30:00 11.1 C 93 % 10.01 C
3811 06-07-2016 07:35:00 11.3 C 93 % 10.21 C
3812 06-07-2016 07:40:00 11.4 C 93 % 10.31 C
3813 06-07-2016 07:45:00 11.4 C 92 % 10.15 C
3814 06-07-2016 07:50:00 11.5 C 92 % 10.25 C
3815 06-07-2016 07:55:00 11.7 C 92 % 10.44 C
3816 06-07-2016 08:00:00 11.9 C 91 % 10.48 C
3817 06-07-2016 08:05:00 12.2 C 91 % 10.78 C
3818 06-07-2016 08:10:00 12.3 C 90 % 10.71 C
3819 06-07-2016 08:15:00 12.4 C 90 % 10.81 C
3820 06-07-2016 08:20:00 12.6 C 89 % 10.84 C
3821 06-07-2016 08:25:00 12.9 C 87 % 10.79 C
3822 06-07-2016 08:30:00 13.2 C 85 % 10.74 C
3823 06-07-2016 08:35:00 13.5 C 85 % 11.03 C
3824 06-07-2016 08:40:00 13.7 C 85 % 11.23 C
3825 06-07-2016 08:45:00 13.8 C 83 % 10.97 C
Sensor: Nr:Datum:Temp:Feuchte:Taupunkt:
Aussen-T/F 3826 06-07-2016 08:50:00 14.1 C 85 % 11.62 C
3827 06-07-2016 08:55:00 14.3 C 83 % 11.45 C
3828 06-07-2016 09:00:00 14.4 C 81 % 11.18 C
3829 06-07-2016 09:05:00 14.6 C 81 % 11.38 C
3830 06-07-2016 09:10:00 14.8 C 82 % 11.76 C
3831 06-07-2016 09:15:00 14.9 C 82 % 11.86 C
3832 06-07-2016 09:20:00 15.1 C 80 % 11.68 C
3833 06-07-2016 09:25:00 15.1 C 78 % 11.3 C
3834 06-07-2016 09:30:00 15.2 C 77 % 11.2 C
3835 06-07-2016 09:35:00 15.2 C 77 % 11.2 C
3836 06-07-2016 09:40:00 15.3 C 77 % 11.3 C
3837 06-07-2016 09:45:00 15.4 C 78 % 11.59 C
3838 06-07-2016 09:50:00 15.5 C 76 % 11.29 C
3839 06-07-2016 09:55:00 15.7 C 77 % 11.68 C
3840 06-07-2016 10:00:00 16 C 78 % 12.17 C
3841 06-07-2016 10:05:00 16.2 C 75 % 11.77 C
3842 06-07-2016 10:10:00 16.4 C 78 % 12.56 C
3843 06-07-2016 10:15:00 16.6 C 76 % 12.36 C
3844 06-07-2016 10:20:00 16.8 C 74 % 12.14 C
3845 06-07-2016 10:25:00 17 C 74 % 12.34 C
3846 06-07-2016 10:30:00 17.3 C 73 % 12.42 C
3847 06-07-2016 10:35:00 17.5 C 73 % 12.61 C
3848 06-07-2016 10:40:00 17.8 C 70 % 12.26 C
3849 06-07-2016 10:45:00 17.9 C 70 % 12.35 C
3850 06-07-2016 10:50:00 17.9 C 70 % 12.35 C
Sensor: Nr:Datum:Temp:Feuchte:Taupunkt:
Aussen-T/F 3851 06-07-2016 10:55:00 17.9 C 69 % 12.14 C
3852 06-07-2016 11:00:00 17.9 C 73 % 12.99 C
3853 06-07-2016 11:05:00 17.9 C 72 % 12.78 C
3854 06-07-2016 11:10:00 17.8 C 76 % 13.52 C
3855 06-07-2016 11:15:00 17.7 C 72 % 12.59 C
3856 06-07-2016 11:20:00 17.5 C 71 % 12.19 C
3857 06-07-2016 11:25:00 17.4 C 72 % 12.3 C
3858 06-07-2016 11:30:00 17.4 C 72 % 12.3 C
3859 06-07-2016 11:35:00 17.6 C 71 % 12.28 C
3860 06-07-2016 11:40:00 17.6 C 72 % 12.5 C
3861 06-07-2016 11:45:00 17.7 C 74 % 13.01 C
3862 06-07-2016 11:50:00 17.7 C 75 % 13.22 C
3863 06-07-2016 11:55:00 17.8 C 77 % 13.72 C
3864 06-07-2016 12:00:00 17.7 C 77 % 13.62 C
3865 06-07-2016 12:05:00 17.6 C 74 % 12.91 C
3866 06-07-2016 12:10:00 17.6 C 72 % 12.5 C
3867 06-07-2016 12:15:00 17.8 C 72 % 12.69 C
3868 06-07-2016 12:20:00 18 C 71 % 12.67 C
3869 06-07-2016 12:25:00 18.3 C 71 % 12.95 C
3870 06-07-2016 12:30:00 18.4 C 68 % 12.39 C
3871 06-07-2016 12:35:00 18.6 C 71 % 13.24 C
3872 06-07-2016 12:40:00 18.8 C 72 % 13.65 C
3873 06-07-2016 12:45:00 18.8 C 69 % 13 C
3874 06-07-2016 12:50:00 18.9 C 68 % 12.87 C
3875 06-07-2016 12:55:00 18.9 C 69 % 13.09 C
Sensor: Nr:Datum:Temp:Feuchte:Taupunkt:
Aussen-T/F 3876 06-07-2016 13:00:00 18.9 C